PWSweather.com
Personal Weather Stations
Station Observations
BOOMEPH
Weather On The Hill Or Not, Ephrata, PA 17522

Weather On The Hill Or NotEphrata, PA 17522

Lat: 40.17243, Lon: -76.180815

Elevation: 597

Station Type: Ambient WS 1080

High Low Average
Temperature 42.3°F5.7°C 41.5°F5.3°C 41.9°F5.5°C
Dew Point 33.7°F0.9°C 33.2°F0.7°C 33.5°F0.8°C
Winds 5.4 mph 8.7 kmh Calm Calm 3.0 mph ENE4.8 kmh ENE
Wind Gusts 8.3 mph13.4 kmh 4.5 mph7.2 kmh 6.0 mph9.7 kmh
Humidity 72% 71% 72%
Pressure 30.30 in1026.1 mb 30.30 in1026.1 mb -
Precipitation 0.00 in0.0 mm - -
Hour Temp Dew Point Humidity Winds Wind Gusts Pressure Precip Precip Rate Daily Precip Total
12:00 AM 42.1°F5.6°C 34.7°F1.5°C 75% 0.7 mph ENE1.1 kmh ENE 2.2 mph3.5 kmh 30.30 in1026.1 mb 0.00 in0.0 mm 0.00 in/hr0.0 mm/hr 0.00 in0.0 mm
12:01 AM 42.1°F5.6°C 34.7°F1.5°C 75% 0.7 mph ENE1.1 kmh ENE 2.2 mph3.5 kmh 30.30 in1026.1 mb 0.00 in0.0 mm 0.00 in/hr0.0 mm/hr 0.00 in0.0 mm
12:02 AM 42.1°F5.6°C 34.7°F1.5°C 75% 0.7 mph ENE1.1 kmh ENE 2.2 mph3.5 kmh 30.30 in1026.1 mb 0.00 in0.0 mm 0.00 in/hr0.0 mm/hr 0.00 in0.0 mm
12:03 AM 42.1°F5.6°C 34.7°F1.5°C 75% 0.7 mph ENE1.1 kmh ENE 2.2 mph3.5 kmh 30.30 in1026.1 mb 0.00 in0.0 mm 0.00 in/hr0.0 mm/hr 0.00 in0.0 mm
12:04 AM 42.1°F5.6°C 34.7°F1.5°C 75% 0.7 mph ENE1.1 kmh ENE 2.2 mph3.5 kmh 30.30 in1026.1 mb 0.00 in0.0 mm 0.00 in/hr0.0 mm/hr 0.00 in0.0 mm
12:05 AM 42.1°F5.6°C 34.7°F1.5°C 75% 0.7 mph ENE1.1 kmh ENE 2.2 mph3.5 kmh 30.30 in1026.1 mb 0.00 in0.0 mm 0.00 in/hr0.0 mm/hr 0.00 in0.0 mm
12:06 AM 42.1°F5.6°C 34.7°F1.5°C 75% 0.7 mph ENE1.1 kmh ENE 2.2 mph3.5 kmh 30.30 in1026.1 mb 0.00 in0.0 mm 0.00 in/hr0.0 mm/hr 0.00 in0.0 mm
12:07 AM 42.1°F5.6°C 34.7°F1.5°C 75% 0.7 mph ENE1.1 kmh ENE 1.6 mph2.6 kmh 30.30 in1026.1 mb 0.00 in0.0 mm 0.00 in/hr0.0 mm/hr 0.00 in0.0 mm
12:08 AM 42.3°F5.7°C 34.2°F1.2°C 73% 1.6 mph ENE2.6 kmh ENE 3.1 mph5.0 kmh 30.30 in1026.1 mb 0.00 in0.0 mm 0.00 in/hr0.0 mm/hr 0.00 in0.0 mm
12:09 AM 42.3°F5.7°C 34.2°F1.2°C 73% 1.6 mph ENE2.6 kmh ENE 3.1 mph5.0 kmh 30.30 in1026.1 mb 0.00 in0.0 mm 0.00 in/hr0.0 mm/hr 0.00 in0.0 mm
12:10 AM 42.3°F5.7°C 34.2°F1.2°C 73% 1.6 mph ENE2.6 kmh ENE 3.1 mph5.0 kmh 30.30 in1026.1 mb 0.00 in0.0 mm 0.00 in/hr0.0 mm/hr 0.00 in0.0 mm
12:11 AM 42.3°F5.7°C 33.9°F1.1°C 72% 0.7 mph ENE1.1 kmh ENE 3.1 mph5.0 kmh 30.30 in1026.1 mb 0.00 in0.0 mm 0.00 in/hr0.0 mm/hr 0.00 in0.0 mm
12:12 AM 42.4°F5.8°C 34.1°F1.2°C 72% 1.6 mph ENE2.6 kmh ENE 3.1 mph5.0 kmh 30.30 in1026.1 mb 0.00 in0.0 mm 0.00 in/hr0.0 mm/hr 0.00 in0.0 mm
12:13 AM 42.4°F5.8°C 34.1°F1.2°C 72% 0.7 mph NE1.1 kmh NE 3.1 mph5.0 kmh 30.30 in1026.1 mb 0.00 in0.0 mm 0.00 in/hr0.0 mm/hr 0.00 in0.0 mm
12:14 AM 42.3°F5.7°C 33.9°F1.1°C 72% 1.6 mph NE2.6 kmh NE 3.8 mph6.1 kmh 30.30 in1026.1 mb 0.00 in0.0 mm 0.00 in/hr0.0 mm/hr 0.00 in0.0 mm
12:15 AM 42.3°F5.7°C 33.9°F1.1°C 72% Calm Calm 3.8 mph6.1 kmh 30.31 in1026.4 mb 0.00 in0.0 mm 0.00 in/hr0.0 mm/hr 0.00 in0.0 mm
12:16 AM 42.3°F5.7°C 33.9°F1.1°C 72% Calm Calm 3.8 mph6.1 kmh 30.30 in1026.1 mb 0.00 in0.0 mm 0.00 in/hr0.0 mm/hr 0.00 in0.0 mm
12:17 AM 42.1°F5.6°C 33.7°F0.9°C 72% 0.7 mph NE1.1 kmh NE 3.8 mph6.1 kmh 30.31 in1026.4 mb 0.00 in0.0 mm 0.00 in/hr0.0 mm/hr 0.00 in0.0 mm
12:18 AM 42.1°F5.6°C 33.7°F0.9°C 72% 0.7 mph NE1.1 kmh NE 3.8 mph6.1 kmh 30.31 in1026.4 mb 0.00 in0.0 mm 0.00 in/hr0.0 mm/hr 0.00 in0.0 mm
12:19 AM 42.1°F5.6°C 33.7°F0.9°C 72% 1.6 mph NE2.6 kmh NE 3.8 mph6.1 kmh 30.31 in1026.4 mb 0.00 in0.0 mm 0.00 in/hr0.0 mm/hr 0.00 in0.0 mm
12:20 AM 42.1°F5.6°C 34.1°F1.2°C 73% 0.7 mph NE1.1 kmh NE 3.8 mph6.1 kmh 30.30 in1026.1 mb 0.00 in0.0 mm 0.00 in/hr0.0 mm/hr 0.00 in0.0 mm
12:21 AM 42.1°F5.6°C 34.1°F1.2°C 73% Calm Calm 3.8 mph6.1 kmh 30.30 in1026.1 mb 0.00 in0.0 mm 0.00 in/hr0.0 mm/hr 0.00 in0.0 mm
12:22 AM 41.9°F5.5°C 33.9°F1.1°C 73% Calm Calm 3.8 mph6.1 kmh 30.30 in1026.1 mb 0.00 in0.0 mm 0.00 in/hr0.0 mm/hr 0.00 in0.0 mm
12:23 AM 41.7°F5.4°C 33.7°F0.9°C 73% Calm Calm 3.8 mph6.1 kmh 30.30 in1026.1 mb 0.00 in0.0 mm 0.00 in/hr0.0 mm/hr 0.00 in0.0 mm
12:24 AM 41.7°F5.4°C 33.7°F0.9°C 73% Calm Calm 3.8 mph6.1 kmh 30.30 in1026.1 mb 0.00 in0.0 mm 0.00 in/hr0.0 mm/hr 0.00 in0.0 mm
12:25 AM 41.5°F5.3°C 33.5°F0.8°C 73% Calm Calm 2.2 mph3.5 kmh 30.31 in1026.4 mb 0.00 in0.0 mm 0.00 in/hr0.0 mm/hr 0.00 in0.0 mm
12:26 AM 41.5°F5.3°C 34.2°F1.2°C 75% 0.7 mph NE1.1 kmh NE 2.2 mph3.5 kmh 30.31 in1026.4 mb 0.00 in0.0 mm 0.00 in/hr0.0 mm/hr 0.00 in0.0 mm
12:27 AM 41.7°F5.4°C 34.4°F1.3°C 75% Calm Calm 2.2 mph3.5 kmh 30.30 in1026.1 mb 0.00 in0.0 mm 0.00 in/hr0.0 mm/hr 0.00 in0.0 mm
12:28 AM 41.7°F5.4°C 34.4°F1.3°C 75% Calm Calm 2.2 mph3.5 kmh 30.30 in1026.1 mb 0.00 in0.0 mm 0.00 in/hr0.0 mm/hr 0.00 in0.0 mm
12:29 AM 41.5°F5.3°C 34.2°F1.2°C 75% Calm Calm 2.2 mph3.5 kmh 30.30 in1026.1 mb 0.00 in0.0 mm 0.00 in/hr0.0 mm/hr 0.00 in0.0 mm
12:30 AM 41.5°F5.3°C 34.2°F1.2°C 75% Calm Calm 2.2 mph3.5 kmh 30.31 in1026.4 mb 0.00 in0.0 mm 0.00 in/hr0.0 mm/hr 0.00 in0.0 mm
12:31 AM 41.4°F5.2°C 34.0°F1.1°C 75% Calm Calm 1.6 mph2.6 kmh 30.31 in1026.4 mb 0.00 in0.0 mm 0.00 in/hr0.0 mm/hr 0.00 in0.0 mm
12:32 AM 41.4°F5.2°C 34.0°F1.1°C 75% Calm Calm 1.6 mph2.6 kmh 30.30 in1026.1 mb 0.00 in0.0 mm 0.00 in/hr0.0 mm/hr 0.00 in0.0 mm
12:33 AM 41.4°F5.2°C 34.0°F1.1°C 75% Calm Calm 1.6 mph2.6 kmh 30.30 in1026.1 mb 0.00 in0.0 mm 0.00 in/hr0.0 mm/hr 0.00 in0.0 mm
12:34 AM 41.4°F5.2°C 34.0°F1.1°C 75% 0.7 mph N1.1 kmh N 1.6 mph2.6 kmh 30.30 in1026.1 mb 0.00 in0.0 mm 0.00 in/hr0.0 mm/hr 0.00 in0.0 mm
12:35 AM 41.7°F5.4°C 34.4°F1.3°C 75% Calm Calm 1.6 mph2.6 kmh 30.30 in1026.1 mb 0.00 in0.0 mm 0.00 in/hr0.0 mm/hr 0.00 in0.0 mm
12:36 AM 41.5°F5.3°C 34.2°F1.2°C 75% Calm Calm 1.6 mph2.6 kmh 30.30 in1026.1 mb 0.00 in0.0 mm 0.00 in/hr0.0 mm/hr 0.00 in0.0 mm
12:37 AM 41.5°F5.3°C 34.2°F1.2°C 75% Calm Calm 1.6 mph2.6 kmh 30.30 in1026.1 mb 0.00 in0.0 mm 0.00 in/hr0.0 mm/hr 0.00 in0.0 mm
12:38 AM 41.4°F5.2°C 34.0°F1.1°C 75% Calm Calm 1.6 mph2.6 kmh 30.30 in1026.1 mb 0.00 in0.0 mm 0.00 in/hr0.0 mm/hr 0.00 in0.0 mm
12:39 AM 41.4°F5.2°C 34.0°F1.1°C 75% Calm Calm 1.6 mph2.6 kmh 30.30 in1026.1 mb 0.00 in0.0 mm 0.00 in/hr0.0 mm/hr 0.00 in0.0 mm
12:40 AM 41.4°F5.2°C 34.0°F1.1°C 75% Calm Calm 1.6 mph2.6 kmh 30.30 in1026.1 mb 0.00 in0.0 mm 0.00 in/hr0.0 mm/hr 0.00 in0.0 mm
12:41 AM 41.4°F5.2°C 34.0°F1.1°C 75% Calm Calm 1.6 mph2.6 kmh 30.30 in1026.1 mb 0.00 in0.0 mm 0.00 in/hr0.0 mm/hr 0.00 in0.0 mm
12:42 AM 41.4°F5.2°C 34.0°F1.1°C 75% Calm Calm 1.6 mph2.6 kmh 30.30 in1026.1 mb 0.00 in0.0 mm 0.00 in/hr0.0 mm/hr 0.00 in0.0 mm
12:43 AM 41.2°F5.1°C 34.2°F1.2°C 76% Calm Calm 1.6 mph2.6 kmh 30.30 in1026.1 mb 0.00 in0.0 mm 0.00 in/hr0.0 mm/hr 0.00 in0.0 mm
12:44 AM 41.4°F5.2°C 34.4°F1.3°C 76% Calm Calm 1.6 mph2.6 kmh 30.30 in1026.1 mb 0.00 in0.0 mm 0.00 in/hr0.0 mm/hr 0.00 in0.0 mm
12:45 AM 41.4°F5.2°C 34.4°F1.3°C 76% Calm Calm 1.6 mph2.6 kmh 30.30 in1026.1 mb 0.00 in0.0 mm 0.00 in/hr0.0 mm/hr 0.00 in0.0 mm
12:46 AM 41.4°F5.2°C 34.4°F1.3°C 76% 0.7 mph NE1.1 kmh NE 1.6 mph2.6 kmh 30.30 in1026.1 mb 0.00 in0.0 mm 0.00 in/hr0.0 mm/hr 0.00 in0.0 mm
12:47 AM 41.7°F5.4°C 34.7°F1.5°C 76% 0.7 mph NNE1.1 kmh NNE 1.6 mph2.6 kmh 30.30 in1026.1 mb 0.00 in0.0 mm 0.00 in/hr0.0 mm/hr 0.00 in0.0 mm
12:48 AM 41.5°F5.3°C 34.2°F1.2°C 75% Calm Calm 1.6 mph2.6 kmh 30.30 in1026.1 mb 0.00 in0.0 mm 0.00 in/hr0.0 mm/hr 0.00 in0.0 mm
12:49 AM 41.4°F5.2°C 34.0°F1.1°C 75% Calm Calm 1.6 mph2.6 kmh 30.31 in1026.4 mb 0.00 in0.0 mm 0.00 in/hr0.0 mm/hr 0.00 in0.0 mm
12:50 AM 41.4°F5.2°C 34.0°F1.1°C 75% 0.7 mph N1.1 kmh N 2.2 mph3.5 kmh 30.30 in1026.1 mb 0.00 in0.0 mm 0.00 in/hr0.0 mm/hr 0.00 in0.0 mm
12:51 AM 41.5°F5.3°C 34.2°F1.2°C 75% 0.7 mph N1.1 kmh N 2.2 mph3.5 kmh 30.30 in1026.1 mb 0.00 in0.0 mm 0.00 in/hr0.0 mm/hr 0.00 in0.0 mm
12:52 AM 42.1°F5.6°C 34.7°F1.5°C 75% 2.2 mph NE3.5 kmh NE 4.5 mph7.2 kmh 30.30 in1026.1 mb 0.00 in0.0 mm 0.00 in/hr0.0 mm/hr 0.00 in0.0 mm
12:53 AM 42.1°F5.6°C 34.7°F1.5°C 75% 3.1 mph NE5.0 kmh NE 4.5 mph7.2 kmh 30.30 in1026.1 mb 0.00 in0.0 mm 0.00 in/hr0.0 mm/hr 0.00 in0.0 mm
12:54 AM 42.4°F5.8°C 34.4°F1.3°C 73% 2.2 mph NE3.5 kmh NE 4.5 mph7.2 kmh 30.30 in1026.1 mb 0.00 in0.0 mm 0.00 in/hr0.0 mm/hr 0.00 in0.0 mm
12:55 AM 42.8°F6.0°C 34.4°F1.3°C 72% 1.6 mph NE2.6 kmh NE 4.5 mph7.2 kmh 30.30 in1026.1 mb 0.00 in0.0 mm 0.00 in/hr0.0 mm/hr 0.00 in0.0 mm
12:56 AM 42.3°F5.7°C 33.9°F1.1°C 72% 2.2 mph ENE3.5 kmh ENE 4.5 mph7.2 kmh 30.30 in1026.1 mb 0.00 in0.0 mm 0.00 in/hr0.0 mm/hr 0.00 in0.0 mm
12:57 AM 42.3°F5.7°C 33.9°F1.1°C 72% 1.6 mph ENE2.6 kmh ENE 4.5 mph7.2 kmh 30.30 in1026.1 mb 0.00 in0.0 mm 0.00 in/hr0.0 mm/hr 0.00 in0.0 mm
12:58 AM 42.3°F5.7°C 33.9°F1.1°C 72% Calm Calm 4.5 mph7.2 kmh 30.30 in1026.1 mb 0.00 in0.0 mm 0.00 in/hr0.0 mm/hr 0.00 in0.0 mm
12:59 AM 42.1°F5.6°C 33.7°F0.9°C 72% Calm Calm 4.5 mph7.2 kmh 30.30 in1026.1 mb 0.00 in0.0 mm 0.00 in/hr0.0 mm/hr 0.00 in0.0 mm
01:00 AM 41.9°F5.5°C 33.5°F0.8°C 72% Calm Calm 4.5 mph7.2 kmh 30.30 in1026.1 mb 0.00 in0.0 mm 0.00 in/hr0.0 mm/hr 0.00 in0.0 mm
01:01 AM 41.9°F5.5°C 33.5°F0.8°C 72% 1.6 mph ENE2.6 kmh ENE 4.5 mph7.2 kmh 30.30 in1026.1 mb 0.00 in0.0 mm 0.00 in/hr0.0 mm/hr 0.00 in0.0 mm
01:02 AM 41.9°F5.5°C 33.5°F0.8°C 72% 2.2 mph ENE3.5 kmh ENE 4.5 mph7.2 kmh 30.30 in1026.1 mb 0.00 in0.0 mm 0.00 in/hr0.0 mm/hr 0.00 in0.0 mm
01:03 AM 42.1°F5.6°C 33.7°F0.9°C 72% 1.6 mph ENE2.6 kmh ENE 4.5 mph7.2 kmh 30.30 in1026.1 mb 0.00 in0.0 mm 0.00 in/hr0.0 mm/hr 0.00 in0.0 mm
01:04 AM 41.9°F5.5°C 33.5°F0.8°C 72% 1.6 mph ENE2.6 kmh ENE 4.5 mph7.2 kmh 30.30 in1026.1 mb 0.00 in0.0 mm 0.00 in/hr0.0 mm/hr 0.00 in0.0 mm
01:05 AM 42.1°F5.6°C 33.7°F0.9°C 72% 0.7 mph ENE1.1 kmh ENE 4.5 mph7.2 kmh 30.30 in1026.1 mb 0.00 in0.0 mm 0.00 in/hr0.0 mm/hr 0.00 in0.0 mm
01:06 AM 41.7°F5.4°C 33.4°F0.8°C 72% 0.7 mph NE1.1 kmh NE 4.5 mph7.2 kmh 30.30 in1026.1 mb 0.00 in0.0 mm 0.00 in/hr0.0 mm/hr 0.00 in0.0 mm
01:07 AM 41.5°F5.3°C 33.2°F0.7°C 72% 1.6 mph NE2.6 kmh NE 4.5 mph7.2 kmh 30.30 in1026.1 mb 0.00 in0.0 mm 0.00 in/hr0.0 mm/hr 0.00 in0.0 mm
01:08 AM 41.9°F5.5°C 33.5°F0.8°C 72% 2.2 mph NE3.5 kmh NE 4.5 mph7.2 kmh 30.30 in1026.1 mb 0.00 in0.0 mm 0.00 in/hr0.0 mm/hr 0.00 in0.0 mm
01:09 AM 41.9°F5.5°C 33.5°F0.8°C 72% 2.2 mph NE3.5 kmh NE 4.5 mph7.2 kmh 30.30 in1026.1 mb 0.00 in0.0 mm 0.00 in/hr0.0 mm/hr 0.00 in0.0 mm
01:10 AM 41.9°F5.5°C 33.5°F0.8°C 72% 2.2 mph NE3.5 kmh NE 4.5 mph7.2 kmh 30.30 in1026.1 mb 0.00 in0.0 mm 0.00 in/hr0.0 mm/hr 0.00 in0.0 mm
01:11 AM 41.9°F5.5°C 33.5°F0.8°C 72% 3.1 mph NE5.0 kmh NE 4.5 mph7.2 kmh 30.30 in1026.1 mb 0.00 in0.0 mm 0.00 in/hr0.0 mm/hr 0.00 in0.0 mm
01:12 AM 41.9°F5.5°C 33.5°F0.8°C 72% 2.2 mph NE3.5 kmh NE 4.5 mph7.2 kmh 30.30 in1026.1 mb 0.00 in0.0 mm 0.00 in/hr0.0 mm/hr 0.00 in0.0 mm
01:13 AM 42.1°F5.6°C 33.7°F0.9°C 72% 2.2 mph NE3.5 kmh NE 4.5 mph7.2 kmh 30.30 in1026.1 mb 0.00 in0.0 mm 0.00 in/hr0.0 mm/hr 0.00 in0.0 mm
01:14 AM 41.9°F5.5°C 33.5°F0.8°C 72% 1.6 mph ENE2.6 kmh ENE 5.4 mph8.7 kmh 30.30 in1026.1 mb 0.00 in0.0 mm 0.00 in/hr0.0 mm/hr 0.00 in0.0 mm
01:15 AM 41.9°F5.5°C 33.5°F0.8°C 72% 4.5 mph ENE7.2 kmh ENE 6.0 mph9.7 kmh 30.30 in1026.1 mb 0.00 in0.0 mm 0.00 in/hr0.0 mm/hr 0.00 in0.0 mm
01:16 AM 42.1°F5.6°C 33.7°F0.9°C 72% 3.1 mph ENE5.0 kmh ENE 6.0 mph9.7 kmh 30.30 in1026.1 mb 0.00 in0.0 mm 0.00 in/hr0.0 mm/hr 0.00 in0.0 mm
01:17 AM 42.1°F5.6°C 33.7°F0.9°C 72% 3.8 mph ENE6.1 kmh ENE 6.0 mph9.7 kmh 30.30 in1026.1 mb 0.00 in0.0 mm 0.00 in/hr0.0 mm/hr 0.00 in0.0 mm
01:18 AM 42.3°F5.7°C 33.5°F0.8°C 71% 4.5 mph ENE7.2 kmh ENE 6.0 mph9.7 kmh 30.30 in1026.1 mb 0.00 in0.0 mm 0.00 in/hr0.0 mm/hr 0.00 in0.0 mm
01:19 AM 42.1°F5.6°C 33.4°F0.8°C 71% 4.5 mph ENE7.2 kmh ENE 6.0 mph9.7 kmh 30.30 in1026.1 mb 0.00 in0.0 mm 0.00 in/hr0.0 mm/hr 0.00 in0.0 mm
01:20 AM 41.9°F5.5°C 33.2°F0.7°C 71% 4.5 mph ENE7.2 kmh ENE 7.6 mph12.2 kmh 30.30 in1026.1 mb 0.00 in0.0 mm 0.00 in/hr0.0 mm/hr 0.00 in0.0 mm
01:21 AM 42.1°F5.6°C 33.7°F0.9°C 72% 4.5 mph ENE7.2 kmh ENE 7.6 mph12.2 kmh 30.30 in1026.1 mb 0.00 in0.0 mm 0.00 in/hr0.0 mm/hr 0.00 in0.0 mm
01:22 AM 42.1°F5.6°C 33.7°F0.9°C 72% 5.4 mph ENE8.7 kmh ENE 7.6 mph12.2 kmh 30.30 in1026.1 mb 0.00 in0.0 mm 0.00 in/hr0.0 mm/hr 0.00 in0.0 mm
01:23 AM 42.1°F5.6°C 33.7°F0.9°C 72% 3.1 mph ENE5.0 kmh ENE 7.6 mph12.2 kmh 30.30 in1026.1 mb 0.00 in0.0 mm 0.00 in/hr0.0 mm/hr 0.00 in0.0 mm
01:24 AM 41.9°F5.5°C 33.5°F0.8°C 72% 3.8 mph ENE6.1 kmh ENE 8.3 mph13.4 kmh 30.30 in1026.1 mb 0.00 in0.0 mm 0.00 in/hr0.0 mm/hr 0.00 in0.0 mm
01:25 AM 42.1°F5.6°C 33.7°F0.9°C 72% 2.2 mph NE3.5 kmh NE 8.3 mph13.4 kmh 30.30 in1026.1 mb 0.00 in0.0 mm 0.00 in/hr0.0 mm/hr 0.00 in0.0 mm
01:26 AM 41.7°F5.4°C 33.4°F0.8°C 72% 3.1 mph ENE5.0 kmh ENE 8.3 mph13.4 kmh 30.30 in1026.1 mb 0.00 in0.0 mm 0.00 in/hr0.0 mm/hr 0.00 in0.0 mm
01:27 AM 41.9°F5.5°C 33.5°F0.8°C 72% 2.2 mph ENE3.5 kmh ENE 8.3 mph13.4 kmh 30.30 in1026.1 mb 0.00 in0.0 mm 0.00 in/hr0.0 mm/hr 0.00 in0.0 mm
01:28 AM 41.7°F5.4°C 33.4°F0.8°C 72% 1.6 mph ENE2.6 kmh ENE 8.3 mph13.4 kmh 30.30 in1026.1 mb 0.00 in0.0 mm 0.00 in/hr0.0 mm/hr 0.00 in0.0 mm
01:29 AM 41.5°F5.3°C 33.2°F0.7°C 72% 2.2 mph ENE3.5 kmh ENE 8.3 mph13.4 kmh 30.30 in1026.1 mb 0.00 in0.0 mm 0.00 in/hr0.0 mm/hr 0.00 in0.0 mm
01:30 AM 41.5°F5.3°C 33.5°F0.8°C 73% 1.6 mph ENE2.6 kmh ENE 8.3 mph13.4 kmh 30.30 in1026.1 mb 0.00 in0.0 mm 0.00 in/hr0.0 mm/hr 0.00 in0.0 mm
01:31 AM 41.4°F5.2°C 33.4°F0.8°C 73% 1.6 mph NE2.6 kmh NE 8.3 mph13.4 kmh 30.30 in1026.1 mb 0.00 in0.0 mm 0.00 in/hr0.0 mm/hr 0.00 in0.0 mm
01:32 AM 41.4°F5.2°C 33.4°F0.8°C 73% 1.6 mph NE2.6 kmh NE 8.3 mph13.4 kmh 30.30 in1026.1 mb 0.00 in0.0 mm 0.00 in/hr0.0 mm/hr 0.00 in0.0 mm
01:33 AM 41.4°F5.2°C 33.4°F0.8°C 73% 0.7 mph NE1.1 kmh NE 8.3 mph13.4 kmh 30.30 in1026.1 mb 0.00 in0.0 mm 0.00 in/hr0.0 mm/hr 0.00 in0.0 mm
01:34 AM 41.2°F5.1°C 33.2°F0.7°C 73% Calm Calm 8.3 mph13.4 kmh 30.30 in1026.1 mb 0.00 in0.0 mm 0.00 in/hr0.0 mm/hr 0.00 in0.0 mm
01:35 AM 41.0°F5.0°C 33.0°F0.6°C 73% Calm Calm 4.5 mph7.2 kmh 30.30 in1026.1 mb 0.00 in0.0 mm 0.00 in/hr0.0 mm/hr 0.00 in0.0 mm
01:36 AM 41.0°F5.0°C 33.7°F0.9°C 75% Calm Calm 4.5 mph7.2 kmh 30.30 in1026.1 mb 0.00 in0.0 mm 0.00 in/hr0.0 mm/hr 0.00 in0.0 mm
01:37 AM 41.0°F5.0°C 33.7°F0.9°C 75% Calm Calm 3.8 mph6.1 kmh 30.30 in1026.1 mb 0.00 in0.0 mm 0.00 in/hr0.0 mm/hr 0.00 in0.0 mm
01:38 AM 41.0°F5.0°C 33.7°F0.9°C 75% 1.6 mph NE2.6 kmh NE 3.8 mph6.1 kmh 30.30 in1026.1 mb 0.00 in0.0 mm 0.00 in/hr0.0 mm/hr 0.00 in0.0 mm
01:39 AM 41.4°F5.2°C 34.0°F1.1°C 75% 1.6 mph NE2.6 kmh NE 3.8 mph6.1 kmh 30.30 in1026.1 mb 0.00 in0.0 mm 0.00 in/hr0.0 mm/hr 0.00 in0.0 mm
01:40 AM 41.5°F5.3°C 34.2°F1.2°C 75% Calm Calm 3.8 mph6.1 kmh 30.30 in1026.1 mb 0.00 in0.0 mm 0.00 in/hr0.0 mm/hr 0.00 in0.0 mm
01:41 AM 41.4°F5.2°C 34.0°F1.1°C 75% Calm Calm 3.1 mph5.0 kmh 30.30 in1026.1 mb 0.00 in0.0 mm 0.00 in/hr0.0 mm/hr 0.00 in0.0 mm
01:42 AM 41.4°F5.2°C 34.0°F1.1°C 75% Calm Calm 3.1 mph5.0 kmh 30.30 in1026.1 mb 0.00 in0.0 mm 0.00 in/hr0.0 mm/hr 0.00 in0.0 mm
01:43 AM 41.4°F5.2°C 34.0°F1.1°C 75% Calm Calm 3.1 mph5.0 kmh 30.30 in1026.1 mb 0.00 in0.0 mm 0.00 in/hr0.0 mm/hr 0.00 in0.0 mm
01:44 AM 41.7°F5.4°C 33.7°F0.9°C 73% 2.2 mph NE3.5 kmh NE 3.8 mph6.1 kmh 30.30 in1026.1 mb 0.00 in0.0 mm 0.00 in/hr0.0 mm/hr 0.00 in0.0 mm
01:45 AM 41.5°F5.3°C 33.5°F0.8°C 73% 1.6 mph NNE2.6 kmh NNE 3.8 mph6.1 kmh 30.30 in1026.1 mb 0.00 in0.0 mm 0.00 in/hr0.0 mm/hr 0.00 in0.0 mm
01:46 AM 41.5°F5.3°C 33.5°F0.8°C 73% 1.6 mph NNE2.6 kmh NNE 3.8 mph6.1 kmh 30.30 in1026.1 mb 0.00 in0.0 mm 0.00 in/hr0.0 mm/hr 0.00 in0.0 mm
01:47 AM 41.4°F5.2°C 33.4°F0.8°C 73% 1.6 mph NNE2.6 kmh NNE 3.8 mph6.1 kmh 30.30 in1026.1 mb 0.00 in0.0 mm 0.00 in/hr0.0 mm/hr 0.00 in0.0 mm
01:48 AM 41.4°F5.2°C 33.4°F0.8°C 73% 1.6 mph NNE2.6 kmh NNE 3.8 mph6.1 kmh 30.30 in1026.1 mb 0.00 in0.0 mm 0.00 in/hr0.0 mm/hr 0.00 in0.0 mm
01:49 AM 41.4°F5.2°C 33.4°F0.8°C 73% 2.2 mph N3.5 kmh N 3.8 mph6.1 kmh 30.30 in1026.1 mb 0.00 in0.0 mm 0.00 in/hr0.0 mm/hr 0.00 in0.0 mm
01:50 AM 41.5°F5.3°C 33.5°F0.8°C 73% 1.6 mph N2.6 kmh N 3.8 mph6.1 kmh 30.30 in1026.1 mb 0.00 in0.0 mm 0.00 in/hr0.0 mm/hr 0.00 in0.0 mm
01:51 AM 41.7°F5.4°C 33.7°F0.9°C 73% 3.1 mph N5.0 kmh N 4.5 mph7.2 kmh 30.30 in1026.1 mb 0.00 in0.0 mm 0.00 in/hr0.0 mm/hr 0.00 in0.0 mm
01:52 AM 41.5°F5.3°C 33.5°F0.8°C 73% 0.7 mph N1.1 kmh N 4.5 mph7.2 kmh 30.30 in1026.1 mb 0.00 in0.0 mm 0.00 in/hr0.0 mm/hr 0.00 in0.0 mm
01:53 AM 41.4°F5.2°C 33.4°F0.8°C 73% 0.7 mph N1.1 kmh N 4.5 mph7.2 kmh 30.30 in1026.1 mb 0.00 in0.0 mm 0.00 in/hr0.0 mm/hr 0.00 in0.0 mm
01:54 AM 41.4°F5.2°C 33.4°F0.8°C 73% 0.7 mph N1.1 kmh N 4.5 mph7.2 kmh 30.30 in1026.1 mb 0.00 in0.0 mm 0.00 in/hr0.0 mm/hr 0.00 in0.0 mm
01:55 AM 41.4°F5.2°C 33.4°F0.8°C 73% Calm Calm 4.5 mph7.2 kmh 30.31 in1026.4 mb 0.00 in0.0 mm 0.00 in/hr0.0 mm/hr 0.00 in0.0 mm
01:56 AM 41.2°F5.1°C 33.2°F0.7°C 73% 1.6 mph NNW2.6 kmh NNW 4.5 mph7.2 kmh 30.30 in1026.1 mb 0.00 in0.0 mm 0.00 in/hr0.0 mm/hr 0.00 in0.0 mm
01:57 AM 41.0°F5.0°C 33.0°F0.6°C 73% 1.6 mph N2.6 kmh N 4.5 mph7.2 kmh 30.30 in1026.1 mb 0.00 in0.0 mm 0.00 in/hr0.0 mm/hr 0.00 in0.0 mm
01:58 AM 40.8°F4.9°C 33.5°F0.8°C 75% 0.7 mph N1.1 kmh N 4.5 mph7.2 kmh 30.30 in1026.1 mb 0.00 in0.0 mm 0.00 in/hr0.0 mm/hr 0.00 in0.0 mm
01:59 AM 40.8°F4.9°C 33.9°F1.1°C 76% 1.6 mph N2.6 kmh N 4.5 mph7.2 kmh 30.30 in1026.1 mb 0.00 in0.0 mm 0.00 in/hr0.0 mm/hr 0.00 in0.0 mm
02:00 AM 40.8°F4.9°C 33.9°F1.1°C 76% 0.7 mph N1.1 kmh N 4.5 mph7.2 kmh 30.31 in1026.4 mb 0.00 in0.0 mm 0.00 in/hr0.0 mm/hr 0.00 in0.0 mm
02:01 AM 40.8°F4.9°C 33.9°F1.1°C 76% 0.7 mph N1.1 kmh N 3.8 mph6.1 kmh 30.31 in1026.4 mb 0.00 in0.0 mm 0.00 in/hr0.0 mm/hr 0.00 in0.0 mm
02:02 AM 40.8°F4.9°C 33.9°F1.1°C 76% 0.7 mph N1.1 kmh N 3.8 mph6.1 kmh 30.31 in1026.4 mb 0.00 in0.0 mm 0.00 in/hr0.0 mm/hr 0.00 in0.0 mm
02:03 AM 40.8°F4.9°C 33.9°F1.1°C 76% 0.7 mph N1.1 kmh N 3.8 mph6.1 kmh 30.30 in1026.1 mb 0.00 in0.0 mm 0.00 in/hr0.0 mm/hr 0.00 in0.0 mm
02:04 AM 40.8°F4.9°C 33.9°F1.1°C 76% 0.7 mph N1.1 kmh N 3.8 mph6.1 kmh 30.30 in1026.1 mb 0.00 in0.0 mm 0.00 in/hr0.0 mm/hr 0.00 in0.0 mm
02:05 AM 40.8°F4.9°C 33.9°F1.1°C 76% 0.7 mph N1.1 kmh N 3.8 mph6.1 kmh 30.30 in1026.1 mb 0.00 in0.0 mm 0.00 in/hr0.0 mm/hr 0.00 in0.0 mm
02:06 AM 40.8°F4.9°C 33.9°F1.1°C 76% 0.7 mph N1.1 kmh N 3.1 mph5.0 kmh 30.30 in1026.1 mb 0.00 in0.0 mm 0.00 in/hr0.0 mm/hr 0.00 in0.0 mm
02:07 AM 40.8°F4.9°C 33.9°F1.1°C 76% 0.7 mph N1.1 kmh N 3.1 mph5.0 kmh 30.30 in1026.1 mb 0.00 in0.0 mm 0.00 in/hr0.0 mm/hr 0.00 in0.0 mm
02:08 AM 40.6°F4.8°C 34.3°F1.3°C 78% 2.2 mph NNW3.5 kmh NNW 4.5 mph7.2 kmh 30.30 in1026.1 mb 0.00 in0.0 mm 0.00 in/hr0.0 mm/hr 0.00 in0.0 mm
02:09 AM 41.2°F5.1°C 34.2°F1.2°C 76% 2.2 mph NNW3.5 kmh NNW 4.5 mph7.2 kmh 30.30 in1026.1 mb 0.00 in0.0 mm 0.00 in/hr0.0 mm/hr 0.00 in0.0 mm
02:10 AM 41.2°F5.1°C 34.2°F1.2°C 76% 1.6 mph NNW2.6 kmh NNW 4.5 mph7.2 kmh 30.31 in1026.4 mb 0.00 in0.0 mm 0.00 in/hr0.0 mm/hr 0.00 in0.0 mm
02:11 AM 41.0°F5.0°C 33.7°F0.9°C 75% 0.7 mph NNW1.1 kmh NNW 4.5 mph7.2 kmh 30.31 in1026.4 mb 0.00 in0.0 mm 0.00 in/hr0.0 mm/hr 0.00 in0.0 mm
02:12 AM 40.8°F4.9°C 33.9°F1.1°C 76% 0.7 mph NNW1.1 kmh NNW 4.5 mph7.2 kmh 30.31 in1026.4 mb 0.00 in0.0 mm 0.00 in/hr0.0 mm/hr 0.00 in0.0 mm
02:13 AM 40.8°F4.9°C 33.9°F1.1°C 76% 1.6 mph NNW2.6 kmh NNW 4.5 mph7.2 kmh 30.31 in1026.4 mb 0.00 in0.0 mm 0.00 in/hr0.0 mm/hr 0.00 in0.0 mm
02:14 AM 40.8°F4.9°C 33.9°F1.1°C 76% 1.6 mph NNW2.6 kmh NNW 4.5 mph7.2 kmh 30.30 in1026.1 mb 0.00 in0.0 mm 0.00 in/hr0.0 mm/hr 0.00 in0.0 mm
02:15 AM 40.6°F4.8°C 33.7°F0.9°C 76% 2.2 mph NNW3.5 kmh NNW 4.5 mph7.2 kmh 30.31 in1026.4 mb 0.00 in0.0 mm 0.00 in/hr0.0 mm/hr 0.00 in0.0 mm
02:16 AM 41.0°F5.0°C 33.7°F0.9°C 75% 2.2 mph NNW3.5 kmh NNW 4.5 mph7.2 kmh 30.30 in1026.1 mb 0.00 in0.0 mm 0.00 in/hr0.0 mm/hr 0.00 in0.0 mm
02:17 AM 41.2°F5.1°C 33.9°F1.1°C 75% 2.2 mph NNW3.5 kmh NNW 4.5 mph7.2 kmh 30.30 in1026.1 mb 0.00 in0.0 mm 0.00 in/hr0.0 mm/hr 0.00 in0.0 mm
02:18 AM 41.0°F5.0°C 33.7°F0.9°C 75% 0.7 mph N1.1 kmh N 4.5 mph7.2 kmh 30.30 in1026.1 mb 0.00 in0.0 mm 0.00 in/hr0.0 mm/hr 0.00 in0.0 mm
02:19 AM 41.0°F5.0°C 33.0°F0.6°C 73% 2.2 mph N3.5 kmh N 4.5 mph7.2 kmh 30.30 in1026.1 mb 0.00 in0.0 mm 0.00 in/hr0.0 mm/hr 0.00 in0.0 mm
02:20 AM 41.2°F5.1°C 33.2°F0.7°C 73% 2.2 mph N3.5 kmh N 3.8 mph6.1 kmh 30.30 in1026.1 mb 0.00 in0.0 mm 0.00 in/hr0.0 mm/hr 0.00 in0.0 mm
02:21 AM 41.2°F5.1°C 33.2°F0.7°C 73% 2.2 mph N3.5 kmh N 3.8 mph6.1 kmh 30.30 in1026.1 mb 0.00 in0.0 mm 0.00 in/hr0.0 mm/hr 0.00 in0.0 mm
02:22 AM 41.0°F5.0°C 33.0°F0.6°C 73% 1.6 mph N2.6 kmh N 3.8 mph6.1 kmh 30.30 in1026.1 mb 0.00 in0.0 mm 0.00 in/hr0.0 mm/hr 0.00 in0.0 mm
02:23 AM 41.2°F5.1°C 33.2°F0.7°C 73% 2.2 mph N3.5 kmh N 3.8 mph6.1 kmh 30.30 in1026.1 mb 0.00 in0.0 mm 0.00 in/hr0.0 mm/hr 0.00 in0.0 mm
02:24 AM 41.0°F5.0°C 32.7°F0.4°C 72% 2.2 mph NNE3.5 kmh NNE 4.5 mph7.2 kmh 30.30 in1026.1 mb 0.00 in0.0 mm 0.00 in/hr0.0 mm/hr 0.00 in0.0 mm
02:25 AM 41.4°F5.2°C 33.0°F0.6°C 72% 3.8 mph NE6.1 kmh NE 6.0 mph9.7 kmh 30.30 in1026.1 mb 0.00 in0.0 mm 0.00 in/hr0.0 mm/hr 0.00 in0.0 mm
02:26 AM 41.5°F5.3°C 32.9°F0.5°C 71% 2.2 mph NE3.5 kmh NE 6.0 mph9.7 kmh 30.30 in1026.1 mb 0.00 in0.0 mm 0.00 in/hr0.0 mm/hr 0.00 in0.0 mm
02:27 AM 41.5°F5.3°C 32.9°F0.5°C 71% 2.2 mph NE3.5 kmh NE 6.0 mph9.7 kmh 30.30 in1026.1 mb 0.00 in0.0 mm 0.00 in/hr0.0 mm/hr 0.00 in0.0 mm
02:28 AM 41.5°F5.3°C 32.9°F0.5°C 71% 3.1 mph NE5.0 kmh NE 6.0 mph9.7 kmh 30.30 in1026.1 mb 0.00 in0.0 mm 0.00 in/hr0.0 mm/hr 0.00 in0.0 mm
02:29 AM 41.4°F5.2°C 32.3°F0.2°C 70% 0.7 mph NE1.1 kmh NE 6.0 mph9.7 kmh 30.30 in1026.1 mb 0.00 in0.0 mm 0.00 in/hr0.0 mm/hr 0.00 in0.0 mm
02:30 AM 41.4°F5.2°C 32.3°F0.2°C 70% 3.1 mph NNE5.0 kmh NNE 6.0 mph9.7 kmh 30.30 in1026.1 mb 0.00 in0.0 mm 0.00 in/hr0.0 mm/hr 0.00 in0.0 mm
02:31 AM 41.4°F5.2°C 32.3°F0.2°C 70% 2.2 mph NE3.5 kmh NE 6.0 mph9.7 kmh 30.30 in1026.1 mb 0.00 in0.0 mm 0.00 in/hr0.0 mm/hr 0.00 in0.0 mm
02:32 AM 41.4°F5.2°C 32.3°F0.2°C 70% 1.6 mph NE2.6 kmh NE 6.0 mph9.7 kmh 30.30 in1026.1 mb 0.00 in0.0 mm 0.00 in/hr0.0 mm/hr 0.00 in0.0 mm
02:33 AM 41.0°F5.0°C 32.0°F0.0°C 70% 0.7 mph NNE1.1 kmh NNE 6.0 mph9.7 kmh 30.30 in1026.1 mb 0.00 in0.0 mm 0.00 in/hr0.0 mm/hr 0.00 in0.0 mm
02:34 AM 41.0°F5.0°C 32.0°F0.0°C 70% 2.2 mph NNE3.5 kmh NNE 6.0 mph9.7 kmh 30.30 in1026.1 mb 0.00 in0.0 mm 0.00 in/hr0.0 mm/hr 0.00 in0.0 mm
02:35 AM 41.2°F5.1°C 32.2°F0.1°C 70% 3.8 mph N6.1 kmh N 6.0 mph9.7 kmh 30.30 in1026.1 mb 0.00 in0.0 mm 0.00 in/hr0.0 mm/hr 0.00 in0.0 mm
02:36 AM 41.4°F5.2°C 32.3°F0.2°C 70% 2.2 mph N3.5 kmh N 5.4 mph8.7 kmh 30.30 in1026.1 mb 0.00 in0.0 mm 0.00 in/hr0.0 mm/hr 0.00 in0.0 mm
02:37 AM 41.4°F5.2°C 32.3°F0.2°C 70% 1.6 mph N2.6 kmh N 5.4 mph8.7 kmh 30.30 in1026.1 mb 0.00 in0.0 mm 0.00 in/hr0.0 mm/hr 0.00 in0.0 mm
02:38 AM 41.2°F5.1°C 31.4°F-0.3°C 68% 1.6 mph N2.6 kmh N 5.4 mph8.7 kmh 30.30 in1026.1 mb 0.00 in0.0 mm 0.00 in/hr0.0 mm/hr 0.00 in0.0 mm
02:39 AM 41.0°F5.0°C 31.3°F-0.4°C 68% 1.6 mph N2.6 kmh N 5.4 mph8.7 kmh 30.30 in1026.1 mb 0.00 in0.0 mm 0.00 in/hr0.0 mm/hr 0.00 in0.0 mm
02:40 AM 41.2°F5.1°C 31.4°F-0.3°C 68% 2.2 mph N3.5 kmh N 5.4 mph8.7 kmh 30.30 in1026.1 mb 0.00 in0.0 mm 0.00 in/hr0.0 mm/hr 0.00 in0.0 mm
02:41 AM 41.0°F5.0°C 32.0°F0.0°C 70% 1.6 mph N2.6 kmh N 5.4 mph8.7 kmh 30.30 in1026.1 mb 0.00 in0.0 mm 0.00 in/hr0.0 mm/hr 0.00 in0.0 mm
02:42 AM 41.0°F5.0°C 32.0°F0.0°C 70% 0.7 mph N1.1 kmh N 5.4 mph8.7 kmh 30.30 in1026.1 mb 0.00 in0.0 mm 0.00 in/hr0.0 mm/hr 0.00 in0.0 mm
02:43 AM 41.0°F5.0°C 32.0°F0.0°C 70% 1.6 mph N2.6 kmh N 5.4 mph8.7 kmh 30.30 in1026.1 mb 0.00 in0.0 mm 0.00 in/hr0.0 mm/hr 0.00 in0.0 mm
02:44 AM 40.8°F4.9°C 32.2°F0.1°C 71% 2.2 mph N3.5 kmh N 5.4 mph8.7 kmh 30.30 in1026.1 mb 0.00 in0.0 mm 0.00 in/hr0.0 mm/hr 0.00 in0.0 mm
02:45 AM 41.0°F5.0°C 32.0°F0.0°C 70% 2.2 mph NNW3.5 kmh NNW 3.8 mph6.1 kmh 30.30 in1026.1 mb 0.00 in0.0 mm 0.00 in/hr0.0 mm/hr 0.00 in0.0 mm
02:46 AM 41.2°F5.1°C 31.4°F-0.3°C 68% 1.6 mph NNW2.6 kmh NNW 3.8 mph6.1 kmh 30.30 in1026.1 mb 0.00 in0.0 mm 0.00 in/hr0.0 mm/hr 0.00 in0.0 mm
02:47 AM 41.0°F5.0°C 31.3°F-0.4°C 68% 2.2 mph NNW3.5 kmh NNW 3.8 mph6.1 kmh 30.30 in1026.1 mb 0.00 in0.0 mm 0.00 in/hr0.0 mm/hr 0.00 in0.0 mm
02:48 AM 41.2°F5.1°C 31.4°F-0.3°C 68% 1.6 mph NNW2.6 kmh NNW 3.8 mph6.1 kmh 30.30 in1026.1 mb 0.00 in0.0 mm 0.00 in/hr0.0 mm/hr 0.00 in0.0 mm
02:49 AM 41.0°F5.0°C 31.3°F-0.4°C 68% 1.6 mph NNW2.6 kmh NNW 3.8 mph6.1 kmh 30.30 in1026.1 mb 0.00 in0.0 mm 0.00 in/hr0.0 mm/hr 0.00 in0.0 mm
02:50 AM 41.0°F5.0°C 31.3°F-0.4°C 68% 2.2 mph NNW3.5 kmh NNW 3.8 mph6.1 kmh 30.30 in1026.1 mb 0.00 in0.0 mm 0.00 in/hr0.0 mm/hr 0.00 in0.0 mm
02:51 AM 41.2°F5.1°C 31.4°F-0.3°C 68% 1.6 mph NNW2.6 kmh NNW 3.8 mph6.1 kmh 30.30 in1026.1 mb 0.00 in0.0 mm 0.00 in/hr0.0 mm/hr 0.00 in0.0 mm
02:52 AM 41.2°F5.1°C 31.4°F-0.3°C 68% 2.2 mph NNW3.5 kmh NNW 4.5 mph7.2 kmh 30.30 in1026.1 mb 0.00 in0.0 mm 0.00 in/hr0.0 mm/hr 0.00 in0.0 mm
02:53 AM 41.2°F5.1°C 31.1°F-0.5°C 67% 2.2 mph NNW3.5 kmh NNW 4.5 mph7.2 kmh 30.30 in1026.1 mb 0.00 in0.0 mm 0.00 in/hr0.0 mm/hr 0.00 in0.0 mm
02:54 AM 41.2°F5.1°C 30.7°F-0.7°C 66% 3.1 mph NNW5.0 kmh NNW 5.4 mph8.7 kmh 30.31 in1026.4 mb 0.00 in0.0 mm 0.00 in/hr0.0 mm/hr 0.00 in0.0 mm
02:55 AM 41.4°F5.2°C 30.9°F-0.6°C 66% 2.2 mph N3.5 kmh N 5.4 mph8.7 kmh 30.30 in1026.1 mb 0.00 in0.0 mm 0.00 in/hr0.0 mm/hr 0.00 in0.0 mm
02:56 AM 41.4°F5.2°C 30.9°F-0.6°C 66% 2.2 mph N3.5 kmh N 5.4 mph8.7 kmh 30.30 in1026.1 mb 0.00 in0.0 mm 0.00 in/hr0.0 mm/hr 0.00 in0.0 mm
02:57 AM 41.4°F5.2°C 30.5°F-0.8°C 65% 1.6 mph N2.6 kmh N 5.4 mph8.7 kmh 30.30 in1026.1 mb 0.00 in0.0 mm 0.00 in/hr0.0 mm/hr 0.00 in0.0 mm
02:58 AM 41.4°F5.2°C 30.5°F-0.8°C 65% 1.6 mph N2.6 kmh N 5.4 mph8.7 kmh 30.30 in1026.1 mb 0.00 in0.0 mm 0.00 in/hr0.0 mm/hr 0.00 in0.0 mm
02:59 AM 41.2°F5.1°C 29.6°F-1.3°C 63% 0.7 mph N1.1 kmh N 5.4 mph8.7 kmh 30.30 in1026.1 mb 0.00 in0.0 mm 0.00 in/hr0.0 mm/hr 0.00 in0.0 mm
03:00 AM 41.0°F5.0°C 29.4°F-1.4°C 63% 0.7 mph N1.1 kmh N 5.4 mph8.7 kmh 30.30 in1026.1 mb 0.00 in0.0 mm 0.00 in/hr0.0 mm/hr 0.00 in0.0 mm
03:01 AM 40.8°F4.9°C 30.4°F-0.9°C 66% 1.6 mph N2.6 kmh N 5.4 mph8.7 kmh 30.30 in1026.1 mb 0.00 in0.0 mm 0.00 in/hr0.0 mm/hr 0.00 in0.0 mm
03:02 AM 40.8°F4.9°C 30.4°F-0.9°C 66% 2.2 mph N3.5 kmh N 5.4 mph8.7 kmh 30.30 in1026.1 mb 0.00 in0.0 mm 0.00 in/hr0.0 mm/hr 0.00 in0.0 mm
03:03 AM 41.0°F5.0°C 29.4°F-1.4°C 63% 2.2 mph N3.5 kmh N 5.4 mph8.7 kmh 30.30 in1026.1 mb 0.00 in0.0 mm 0.00 in/hr0.0 mm/hr 0.00 in0.0 mm
03:04 AM 41.0°F5.0°C 29.4°F-1.4°C 63% 2.2 mph N3.5 kmh N 5.4 mph8.7 kmh 30.30 in1026.1 mb 0.00 in0.0 mm 0.00 in/hr0.0 mm/hr 0.00 in0.0 mm
03:05 AM 41.4°F5.2°C 29.3°F-1.5°C 62% 3.8 mph N6.1 kmh N 6.0 mph9.7 kmh 30.30 in1026.1 mb 0.00 in0.0 mm 0.00 in/hr0.0 mm/hr 0.00 in0.0 mm
03:06 AM 41.4°F5.2°C 28.9°F-1.7°C 61% 1.6 mph N2.6 kmh N 6.0 mph9.7 kmh 30.30 in1026.1 mb 0.00 in0.0 mm 0.00 in/hr0.0 mm/hr 0.00 in0.0 mm
03:07 AM 41.4°F5.2°C 28.9°F-1.7°C 61% 2.2 mph N3.5 kmh N 6.0 mph9.7 kmh 30.30 in1026.1 mb 0.00 in0.0 mm 0.00 in/hr0.0 mm/hr 0.00 in0.0 mm
03:08 AM 41.2°F5.1°C 28.8°F-1.8°C 61% 1.6 mph N2.6 kmh N 6.0 mph9.7 kmh 30.30 in1026.1 mb 0.00 in0.0 mm 0.00 in/hr0.0 mm/hr 0.00 in0.0 mm
03:09 AM 41.0°F5.0°C 28.2°F-2.1°C 60% 2.2 mph NNE3.5 kmh NNE 6.0 mph9.7 kmh 30.30 in1026.1 mb 0.00 in0.0 mm 0.00 in/hr0.0 mm/hr 0.00 in0.0 mm
03:10 AM 40.8°F4.9°C 28.4°F-2.0°C 61% 2.2 mph NE3.5 kmh NE 6.0 mph9.7 kmh 30.30 in1026.1 mb 0.00 in0.0 mm 0.00 in/hr0.0 mm/hr 0.00 in0.0 mm
03:11 AM 40.6°F4.8°C 28.7°F-1.8°C 62% 2.2 mph NE3.5 kmh NE 6.0 mph9.7 kmh 30.30 in1026.1 mb 0.00 in0.0 mm 0.00 in/hr0.0 mm/hr 0.00 in0.0 mm
03:12 AM 40.6°F4.8°C 28.7°F-1.8°C 62% 1.6 mph NE2.6 kmh NE 6.0 mph9.7 kmh 30.30 in1026.1 mb 0.00 in0.0 mm 0.00 in/hr0.0 mm/hr 0.00 in0.0 mm
03:13 AM 40.6°F4.8°C 28.7°F-1.8°C 62% 3.8 mph NE6.1 kmh NE 7.6 mph12.2 kmh 30.30 in1026.1 mb 0.00 in0.0 mm 0.00 in/hr0.0 mm/hr 0.00 in0.0 mm
03:14 AM 41.4°F5.2°C 28.5°F-1.9°C 60% 3.1 mph NE5.0 kmh NE 7.6 mph12.2 kmh 30.30 in1026.1 mb 0.00 in0.0 mm 0.00 in/hr0.0 mm/hr 0.00 in0.0 mm
03:15 AM 41.2°F5.1°C 27.5°F-2.5°C 58% 3.8 mph NE6.1 kmh NE 7.6 mph12.2 kmh 30.30 in1026.1 mb 0.00 in0.0 mm 0.00 in/hr0.0 mm/hr 0.00 in0.0 mm
03:16 AM 41.2°F5.1°C 27.5°F-2.5°C 58% 4.5 mph NE7.2 kmh NE 9.2 mph14.8 kmh 30.30 in1026.1 mb 0.00 in0.0 mm 0.00 in/hr0.0 mm/hr 0.00 in0.0 mm
03:17 AM 41.2°F5.1°C 27.1°F-2.7°C 57% 0.7 mph NE1.1 kmh NE 9.2 mph14.8 kmh 30.30 in1026.1 mb 0.00 in0.0 mm 0.00 in/hr0.0 mm/hr 0.00 in0.0 mm
03:18 AM 40.8°F4.9°C 27.2°F-2.7°C 58% 6.0 mph NE9.7 kmh NE 9.8 mph15.8 kmh 30.30 in1026.1 mb 0.00 in0.0 mm 0.00 in/hr0.0 mm/hr 0.00 in0.0 mm
03:19 AM 41.2°F5.1°C 27.1°F-2.7°C 57% 3.8 mph NE6.1 kmh NE 9.8 mph15.8 kmh 30.30 in1026.1 mb 0.00 in0.0 mm 0.00 in/hr0.0 mm/hr 0.00 in0.0 mm
03:20 AM 41.4°F5.2°C 26.9°F-2.8°C 56% 2.2 mph NE3.5 kmh NE 9.8 mph15.8 kmh 30.31 in1026.4 mb 0.00 in0.0 mm 0.00 in/hr0.0 mm/hr 0.00 in0.0 mm
03:21 AM 41.2°F5.1°C 26.7°F-2.9°C 56% 4.5 mph NE7.2 kmh NE 9.8 mph15.8 kmh 30.30 in1026.1 mb 0.00 in0.0 mm 0.00 in/hr0.0 mm/hr 0.00 in0.0 mm
03:22 AM 41.4°F5.2°C 26.9°F-2.8°C 56% 2.2 mph NE3.5 kmh NE 9.8 mph15.8 kmh 30.30 in1026.1 mb 0.00 in0.0 mm 0.00 in/hr0.0 mm/hr 0.00 in0.0 mm
03:23 AM 41.0°F5.0°C 26.5°F-3.1°C 56% 3.8 mph NE6.1 kmh NE 9.8 mph15.8 kmh 30.31 in1026.4 mb 0.00 in0.0 mm 0.00 in/hr0.0 mm/hr 0.00 in0.0 mm
03:24 AM 41.0°F5.0°C 26.5°F-3.1°C 56% 3.1 mph NNE5.0 kmh NNE 9.8 mph15.8 kmh 30.31 in1026.4 mb 0.00 in0.0 mm 0.00 in/hr0.0 mm/hr 0.00 in0.0 mm
03:25 AM 40.6°F4.8°C 26.6°F-3.0°C 57% 2.2 mph NE3.5 kmh NE 9.8 mph15.8 kmh 30.30 in1026.1 mb 0.00 in0.0 mm 0.00 in/hr0.0 mm/hr 0.00 in0.0 mm
03:26 AM 40.8°F4.9°C 26.8°F-2.9°C 57% 3.1 mph NE5.0 kmh NE 9.8 mph15.8 kmh 30.31 in1026.4 mb 0.00 in0.0 mm 0.00 in/hr0.0 mm/hr 0.00 in0.0 mm
03:27 AM 41.2°F5.1°C 26.7°F-2.9°C 56% 3.8 mph NE6.1 kmh NE 9.8 mph15.8 kmh 30.30 in1026.1 mb 0.00 in0.0 mm 0.00 in/hr0.0 mm/hr 0.00 in0.0 mm
03:28 AM 41.4°F5.2°C 26.9°F-2.8°C 56% 3.1 mph NNE5.0 kmh NNE 9.8 mph15.8 kmh 30.30 in1026.1 mb 0.00 in0.0 mm 0.00 in/hr0.0 mm/hr 0.00 in0.0 mm
03:29 AM 40.8°F4.9°C 26.8°F-2.9°C 57% 2.2 mph NNE3.5 kmh NNE 6.9 mph11.1 kmh 30.30 in1026.1 mb 0.00 in0.0 mm 0.00 in/hr0.0 mm/hr 0.00 in0.0 mm
03:30 AM 41.0°F5.0°C 26.5°F-3.1°C 56% 3.1 mph NE5.0 kmh NE 6.9 mph11.1 kmh 30.30 in1026.1 mb 0.00 in0.0 mm 0.00 in/hr0.0 mm/hr 0.00 in0.0 mm
03:31 AM 41.2°F5.1°C 26.3°F-3.2°C 55% 3.8 mph NNE6.1 kmh NNE 6.9 mph11.1 kmh 30.31 in1026.4 mb 0.00 in0.0 mm 0.00 in/hr0.0 mm/hr 0.00 in0.0 mm
03:32 AM 41.4°F5.2°C 25.5°F-3.6°C 53% 1.6 mph NE2.6 kmh NE 6.9 mph11.1 kmh 30.30 in1026.1 mb 0.00 in0.0 mm 0.00 in/hr0.0 mm/hr 0.00 in0.0 mm
03:33 AM 41.2°F5.1°C 25.4°F-3.7°C 53% 4.5 mph NE7.2 kmh NE 6.9 mph11.1 kmh 30.30 in1026.1 mb 0.00 in0.0 mm 0.00 in/hr0.0 mm/hr 0.00 in0.0 mm
03:34 AM 41.4°F5.2°C 25.1°F-3.8°C 52% 1.6 mph NE2.6 kmh NE 6.9 mph11.1 kmh 30.31 in1026.4 mb 0.00 in0.0 mm 0.00 in/hr0.0 mm/hr 0.00 in0.0 mm
03:35 AM 41.4°F5.2°C 25.1°F-3.8°C 52% 2.2 mph NNE3.5 kmh NNE 6.9 mph11.1 kmh 30.31 in1026.4 mb 0.00 in0.0 mm 0.00 in/hr0.0 mm/hr 0.00 in0.0 mm
03:36 AM 41.4°F5.2°C 24.6°F-4.1°C 51% 2.2 mph NNE3.5 kmh NNE 6.9 mph11.1 kmh 30.31 in1026.4 mb 0.00 in0.0 mm 0.00 in/hr0.0 mm/hr 0.00 in0.0 mm
03:37 AM 41.7°F5.4°C 24.5°F-4.2°C 50% 3.1 mph NNE5.0 kmh NNE 8.3 mph13.4 kmh 30.31 in1026.4 mb 0.00 in0.0 mm 0.00 in/hr0.0 mm/hr 0.00 in0.0 mm
03:38 AM 41.5°F5.3°C 24.3°F-4.3°C 50% 3.8 mph NE6.1 kmh NE 8.3 mph13.4 kmh 30.31 in1026.4 mb 0.00 in0.0 mm 0.00 in/hr0.0 mm/hr 0.00 in0.0 mm
03:39 AM 41.7°F5.4°C 24.5°F-4.2°C 50% 3.8 mph NE6.1 kmh NE 8.3 mph13.4 kmh 30.31 in1026.4 mb 0.00 in0.0 mm 0.00 in/hr0.0 mm/hr 0.00 in0.0 mm
03:40 AM 41.5°F5.3°C 24.3°F-4.3°C 50% 3.8 mph NNE6.1 kmh NNE 8.3 mph13.4 kmh 30.31 in1026.4 mb 0.00 in0.0 mm 0.00 in/hr0.0 mm/hr 0.00 in0.0 mm
03:41 AM 41.4°F5.2°C 24.1°F-4.4°C 50% 1.6 mph NNE2.6 kmh NNE 8.3 mph13.4 kmh 30.31 in1026.4 mb 0.00 in0.0 mm 0.00 in/hr0.0 mm/hr 0.00 in0.0 mm
03:42 AM 41.2°F5.1°C 24.0°F-4.4°C 50% 2.2 mph NNE3.5 kmh NNE 8.3 mph13.4 kmh 30.31 in1026.4 mb 0.00 in0.0 mm 0.00 in/hr0.0 mm/hr 0.00 in0.0 mm
03:43 AM 41.4°F5.2°C 24.1°F-4.4°C 50% 3.8 mph NNE6.1 kmh NNE 8.3 mph13.4 kmh 30.30 in1026.1 mb 0.00 in0.0 mm 0.00 in/hr0.0 mm/hr 0.00 in0.0 mm
03:44 AM 41.4°F5.2°C 24.1°F-4.4°C 50% 5.4 mph NE8.7 kmh NE 9.2 mph14.8 kmh 30.30 in1026.1 mb 0.00 in0.0 mm 0.00 in/hr0.0 mm/hr 0.00 in0.0 mm
03:45 AM 41.5°F5.3°C 24.3°F-4.3°C 50% 1.6 mph NE2.6 kmh NE 9.2 mph14.8 kmh 30.31 in1026.4 mb 0.00 in0.0 mm 0.00 in/hr0.0 mm/hr 0.00 in0.0 mm
03:46 AM 41.4°F5.2°C 24.1°F-4.4°C 50% 2.2 mph NE3.5 kmh NE 9.2 mph14.8 kmh 30.31 in1026.4 mb 0.00 in0.0 mm 0.00 in/hr0.0 mm/hr 0.00 in0.0 mm
03:47 AM 41.2°F5.1°C 24.0°F-4.4°C 50% 3.8 mph NE6.1 kmh NE 9.2 mph14.8 kmh 30.30 in1026.1 mb 0.00 in0.0 mm 0.00 in/hr0.0 mm/hr 0.00 in0.0 mm
03:48 AM 41.5°F5.3°C 24.3°F-4.3°C 50% 2.2 mph NE3.5 kmh NE 9.2 mph14.8 kmh 30.31 in1026.4 mb 0.00 in0.0 mm 0.00 in/hr0.0 mm/hr 0.00 in0.0 mm
03:49 AM 41.5°F5.3°C 23.3°F-4.8°C 48% 5.4 mph NE8.7 kmh NE 9.2 mph14.8 kmh 30.31 in1026.4 mb 0.00 in0.0 mm 0.00 in/hr0.0 mm/hr 0.00 in0.0 mm
03:50 AM 41.7°F5.4°C 23.5°F-4.7°C 48% 3.8 mph NE6.1 kmh NE 9.2 mph14.8 kmh 30.31 in1026.4 mb 0.00 in0.0 mm 0.00 in/hr0.0 mm/hr 0.00 in0.0 mm
03:51 AM 41.7°F5.4°C 23.5°F-4.7°C 48% 3.1 mph NE5.0 kmh NE 9.2 mph14.8 kmh 30.31 in1026.4 mb 0.00 in0.0 mm 0.00 in/hr0.0 mm/hr 0.00 in0.0 mm
03:52 AM 41.4°F5.2°C 23.2°F-4.9°C 48% 3.1 mph NE5.0 kmh NE 9.2 mph14.8 kmh 30.31 in1026.4 mb 0.00 in0.0 mm 0.00 in/hr0.0 mm/hr 0.00 in0.0 mm
03:53 AM 41.4°F5.2°C 23.2°F-4.9°C 48% 4.5 mph NE7.2 kmh NE 9.2 mph14.8 kmh 30.31 in1026.4 mb 0.00 in0.0 mm 0.00 in/hr0.0 mm/hr 0.00 in0.0 mm
03:54 AM 41.5°F5.3°C 23.3°F-4.8°C 48% 1.6 mph NNE2.6 kmh NNE 7.6 mph12.2 kmh 30.31 in1026.4 mb 0.00 in0.0 mm 0.00 in/hr0.0 mm/hr 0.00 in0.0 mm
03:55 AM 41.4°F5.2°C 23.2°F-4.9°C 48% 2.2 mph NNE3.5 kmh NNE 7.6 mph12.2 kmh 30.31 in1026.4 mb 0.00 in0.0 mm 0.00 in/hr0.0 mm/hr 0.00 in0.0 mm
03:56 AM 41.9°F5.5°C 23.2°F-4.9°C 47% 1.6 mph NNE2.6 kmh NNE 9.8 mph15.8 kmh 30.31 in1026.4 mb 0.00 in0.0 mm 0.00 in/hr0.0 mm/hr 0.00 in0.0 mm
03:57 AM 41.7°F5.4°C 23.0°F-5.0°C 47% 3.1 mph N5.0 kmh N 9.8 mph15.8 kmh 30.31 in1026.4 mb 0.00 in0.0 mm 0.00 in/hr0.0 mm/hr 0.00 in0.0 mm
03:58 AM 41.5°F5.3°C 22.8°F-5.1°C 47% 2.2 mph N3.5 kmh N 9.8 mph15.8 kmh 30.31 in1026.4 mb 0.00 in0.0 mm 0.00 in/hr0.0 mm/hr 0.00 in0.0 mm
03:59 AM 41.4°F5.2°C 22.7°F-5.2°C 47% 1.6 mph N2.6 kmh N 9.8 mph15.8 kmh 30.31 in1026.4 mb 0.00 in0.0 mm 0.00 in/hr0.0 mm/hr 0.00 in0.0 mm
04:00 AM 41.2°F5.1°C 22.5°F-5.3°C 47% 2.2 mph N3.5 kmh N 9.8 mph15.8 kmh 30.31 in1026.4 mb 0.00 in0.0 mm 0.00 in/hr0.0 mm/hr 0.00 in0.0 mm
04:01 AM 41.2°F5.1°C 22.5°F-5.3°C 47% 2.2 mph N3.5 kmh N 9.8 mph15.8 kmh 30.31 in1026.4 mb 0.00 in0.0 mm 0.00 in/hr0.0 mm/hr 0.00 in0.0 mm
04:02 AM 41.2°F5.1°C 22.5°F-5.3°C 47% 2.2 mph N3.5 kmh N 9.8 mph15.8 kmh 30.31 in1026.4 mb 0.00 in0.0 mm 0.00 in/hr0.0 mm/hr 0.00 in0.0 mm
04:03 AM 41.2°F5.1°C 22.5°F-5.3°C 47% 2.2 mph N3.5 kmh N 9.8 mph15.8 kmh 30.31 in1026.4 mb 0.00 in0.0 mm 0.00 in/hr0.0 mm/hr 0.00 in0.0 mm
04:04 AM 41.2°F5.1°C 22.5°F-5.3°C 47% 2.2 mph N3.5 kmh N 9.8 mph15.8 kmh 30.31 in1026.4 mb 0.00 in0.0 mm 0.00 in/hr0.0 mm/hr 0.00 in0.0 mm
04:05 AM 41.2°F5.1°C 22.5°F-5.3°C 47% 2.2 mph N3.5 kmh N 9.8 mph15.8 kmh 30.31 in1026.4 mb 0.00 in0.0 mm 0.00 in/hr0.0 mm/hr 0.00 in0.0 mm
04:06 AM 41.2°F5.1°C 22.5°F-5.3°C 47% 2.2 mph NNW3.5 kmh NNW 6.0 mph9.7 kmh 30.31 in1026.4 mb 0.00 in0.0 mm 0.00 in/hr0.0 mm/hr 0.00 in0.0 mm
04:07 AM 41.2°F5.1°C 22.5°F-5.3°C 47% 2.2 mph NNW3.5 kmh NNW 6.0 mph9.7 kmh 30.31 in1026.4 mb 0.00 in0.0 mm 0.00 in/hr0.0 mm/hr 0.00 in0.0 mm
04:08 AM 41.4°F5.2°C 22.7°F-5.2°C 47% 3.1 mph N5.0 kmh N 7.6 mph12.2 kmh 30.31 in1026.4 mb 0.00 in0.0 mm 0.00 in/hr0.0 mm/hr 0.00 in0.0 mm
04:09 AM 41.4°F5.2°C 22.7°F-5.2°C 47% 3.1 mph N5.0 kmh N 7.6 mph12.2 kmh 30.31 in1026.4 mb 0.00 in0.0 mm 0.00 in/hr0.0 mm/hr 0.00 in0.0 mm
04:10 AM 41.5°F5.3°C 22.3°F-5.4°C 46% 6.0 mph N9.7 kmh N 12.1 mph19.5 kmh 30.31 in1026.4 mb 0.00 in0.0 mm 0.00 in/hr0.0 mm/hr 0.00 in0.0 mm
04:11 AM 41.2°F5.1°C 22.0°F-5.6°C 46% 9.2 mph N14.8 kmh N 13.0 mph20.9 kmh 30.31 in1026.4 mb 0.00 in0.0 mm 0.00 in/hr0.0 mm/hr 0.00 in0.0 mm
04:12 AM 41.4°F5.2°C 22.2°F-5.4°C 46% 3.1 mph N5.0 kmh N 13.0 mph20.9 kmh 30.31 in1026.4 mb 0.00 in0.0 mm 0.00 in/hr0.0 mm/hr 0.00 in0.0 mm
04:13 AM 41.5°F5.3°C 22.3°F-5.4°C 46% 1.6 mph N2.6 kmh N 13.0 mph20.9 kmh 30.31 in1026.4 mb 0.00 in0.0 mm 0.00 in/hr0.0 mm/hr 0.00 in0.0 mm
04:14 AM 41.4°F5.2°C 22.2°F-5.4°C 46% 2.2 mph NNE3.5 kmh NNE 13.0 mph20.9 kmh 30.31 in1026.4 mb 0.00 in0.0 mm 0.00 in/hr0.0 mm/hr 0.00 in0.0 mm
04:15 AM 41.2°F5.1°C 22.0°F-5.6°C 46% 3.1 mph NNE5.0 kmh NNE 13.0 mph20.9 kmh 30.31 in1026.4 mb 0.00 in0.0 mm 0.00 in/hr0.0 mm/hr 0.00 in0.0 mm
04:16 AM 41.0°F5.0°C 21.8°F-5.7°C 46% 3.1 mph NNE5.0 kmh NNE 13.0 mph20.9 kmh 30.31 in1026.4 mb 0.00 in0.0 mm 0.00 in/hr0.0 mm/hr 0.00 in0.0 mm
04:17 AM 41.4°F5.2°C 22.2°F-5.4°C 46% 2.2 mph NNE3.5 kmh NNE 13.0 mph20.9 kmh 30.31 in1026.4 mb 0.00 in0.0 mm 0.00 in/hr0.0 mm/hr 0.00 in0.0 mm
04:18 AM 41.2°F5.1°C 22.0°F-5.6°C 46% 1.6 mph NNE2.6 kmh NNE 13.0 mph20.9 kmh 30.32 in1026.8 mb 0.00 in0.0 mm 0.00 in/hr0.0 mm/hr 0.00 in0.0 mm
04:19 AM 41.0°F5.0°C 21.8°F-5.7°C 46% 2.2 mph NNE3.5 kmh NNE 13.0 mph20.9 kmh 30.32 in1026.8 mb 0.00 in0.0 mm 0.00 in/hr0.0 mm/hr 0.00 in0.0 mm
04:20 AM 41.0°F5.0°C 21.8°F-5.7°C 46% 2.2 mph N3.5 kmh N 13.0 mph20.9 kmh 30.32 in1026.8 mb 0.00 in0.0 mm 0.00 in/hr0.0 mm/hr 0.00 in0.0 mm
04:21 AM 41.0°F5.0°C 21.8°F-5.7°C 46% 4.5 mph N7.2 kmh N 13.0 mph20.9 kmh 30.32 in1026.8 mb 0.00 in0.0 mm 0.00 in/hr0.0 mm/hr 0.00 in0.0 mm
04:22 AM 41.4°F5.2°C 22.2°F-5.4°C 46% 3.1 mph N5.0 kmh N 6.9 mph11.1 kmh 30.32 in1026.8 mb 0.00 in0.0 mm 0.00 in/hr0.0 mm/hr 0.00 in0.0 mm
04:23 AM 41.0°F5.0°C 21.8°F-5.7°C 46% 1.6 mph N2.6 kmh N 6.9 mph11.1 kmh 30.32 in1026.8 mb 0.00 in0.0 mm 0.00 in/hr0.0 mm/hr 0.00 in0.0 mm
04:24 AM 41.0°F5.0°C 21.8°F-5.7°C 46% 3.8 mph N6.1 kmh N 6.9 mph11.1 kmh 30.32 in1026.8 mb 0.00 in0.0 mm 0.00 in/hr0.0 mm/hr 0.00 in0.0 mm
04:25 AM 41.2°F5.1°C 22.0°F-5.6°C 46% 3.1 mph N5.0 kmh N 6.9 mph11.1 kmh 30.32 in1026.8 mb 0.00 in0.0 mm 0.00 in/hr0.0 mm/hr 0.00 in0.0 mm
04:26 AM 41.0°F5.0°C 21.8°F-5.7°C 46% 2.2 mph N3.5 kmh N 6.9 mph11.1 kmh 30.32 in1026.8 mb 0.00 in0.0 mm 0.00 in/hr0.0 mm/hr 0.00 in0.0 mm
04:27 AM 41.0°F5.0°C 21.8°F-5.7°C 46% 3.1 mph N5.0 kmh N 6.0 mph9.7 kmh 30.32 in1026.8 mb 0.00 in0.0 mm 0.00 in/hr0.0 mm/hr 0.00 in0.0 mm
04:28 AM 40.8°F4.9°C 22.2°F-5.4°C 47% 2.2 mph N3.5 kmh N 6.0 mph9.7 kmh 30.32 in1026.8 mb 0.00 in0.0 mm 0.00 in/hr0.0 mm/hr 0.00 in0.0 mm
04:29 AM 41.0°F5.0°C 21.8°F-5.7°C 46% 3.8 mph N6.1 kmh N 6.0 mph9.7 kmh 30.32 in1026.8 mb 0.00 in0.0 mm 0.00 in/hr0.0 mm/hr 0.00 in0.0 mm
04:30 AM 41.2°F5.1°C 22.0°F-5.6°C 46% 3.1 mph N5.0 kmh N 6.9 mph11.1 kmh 30.32 in1026.8 mb 0.00 in0.0 mm 0.00 in/hr0.0 mm/hr 0.00 in0.0 mm
04:31 AM 41.0°F5.0°C 21.8°F-5.7°C 46% 4.5 mph N7.2 kmh N 8.3 mph13.4 kmh 30.32 in1026.8 mb 0.00 in0.0 mm 0.00 in/hr0.0 mm/hr 0.00 in0.0 mm
04:32 AM 40.8°F4.9°C 22.2°F-5.4°C 47% 1.6 mph N2.6 kmh N 8.3 mph13.4 kmh 30.32 in1026.8 mb 0.00 in0.0 mm 0.00 in/hr0.0 mm/hr 0.00 in0.0 mm
04:33 AM 40.8°F4.9°C 22.2°F-5.4°C 47% 1.6 mph N2.6 kmh N 8.3 mph13.4 kmh 30.32 in1026.8 mb 0.00 in0.0 mm 0.00 in/hr0.0 mm/hr 0.00 in0.0 mm
04:34 AM 40.6°F4.8°C 22.0°F-5.6°C 47% 1.6 mph N2.6 kmh N 8.3 mph13.4 kmh 30.32 in1026.8 mb 0.00 in0.0 mm 0.00 in/hr0.0 mm/hr 0.00 in0.0 mm
04:35 AM 40.5°F4.7°C 21.8°F-5.7°C 47% 4.5 mph N7.2 kmh N 8.3 mph13.4 kmh 30.32 in1026.8 mb 0.00 in0.0 mm 0.00 in/hr0.0 mm/hr 0.00 in0.0 mm
04:36 AM 40.5°F4.7°C 21.8°F-5.7°C 47% 3.1 mph N5.0 kmh N 8.3 mph13.4 kmh 30.32 in1026.8 mb 0.00 in0.0 mm 0.00 in/hr0.0 mm/hr 0.00 in0.0 mm
04:37 AM 40.6°F4.8°C 22.0°F-5.6°C 47% 2.2 mph N3.5 kmh N 8.3 mph13.4 kmh 30.32 in1026.8 mb 0.00 in0.0 mm 0.00 in/hr0.0 mm/hr 0.00 in0.0 mm
04:38 AM 40.8°F4.9°C 22.2°F-5.4°C 47% 3.1 mph N5.0 kmh N 8.3 mph13.4 kmh 30.32 in1026.8 mb 0.00 in0.0 mm 0.00 in/hr0.0 mm/hr 0.00 in0.0 mm
04:39 AM 40.8°F4.9°C 22.2°F-5.4°C 47% 0.7 mph N1.1 kmh N 8.3 mph13.4 kmh 30.32 in1026.8 mb 0.00 in0.0 mm 0.00 in/hr0.0 mm/hr 0.00 in0.0 mm
04:40 AM 40.5°F4.7°C 21.8°F-5.7°C 47% 2.2 mph N3.5 kmh N 8.3 mph13.4 kmh 30.32 in1026.8 mb 0.00 in0.0 mm 0.00 in/hr0.0 mm/hr 0.00 in0.0 mm
04:41 AM 40.5°F4.7°C 21.8°F-5.7°C 47% 3.1 mph N5.0 kmh N 8.3 mph13.4 kmh 30.32 in1026.8 mb 0.00 in0.0 mm 0.00 in/hr0.0 mm/hr 0.00 in0.0 mm
04:42 AM 40.6°F4.8°C 22.0°F-5.6°C 47% 5.4 mph N8.7 kmh N 8.3 mph13.4 kmh 30.32 in1026.8 mb 0.00 in0.0 mm 0.00 in/hr0.0 mm/hr 0.00 in0.0 mm
04:43 AM 41.0°F5.0°C 21.3°F-5.9°C 45% 3.8 mph N6.1 kmh N 8.3 mph13.4 kmh 30.32 in1026.8 mb 0.00 in0.0 mm 0.00 in/hr0.0 mm/hr 0.00 in0.0 mm
04:44 AM 40.8°F4.9°C 21.7°F-5.7°C 46% 2.2 mph N3.5 kmh N 8.3 mph13.4 kmh 30.32 in1026.8 mb 0.00 in0.0 mm 0.00 in/hr0.0 mm/hr 0.00 in0.0 mm
04:45 AM 41.0°F5.0°C 21.3°F-5.9°C 45% 2.2 mph N3.5 kmh N 6.9 mph11.1 kmh 30.32 in1026.8 mb 0.00 in0.0 mm 0.00 in/hr0.0 mm/hr 0.00 in0.0 mm
04:46 AM 40.8°F4.9°C 21.7°F-5.7°C 46% 2.2 mph NNW3.5 kmh NNW 6.9 mph11.1 kmh 30.32 in1026.8 mb 0.00 in0.0 mm 0.00 in/hr0.0 mm/hr 0.00 in0.0 mm
04:47 AM 40.5°F4.7°C 21.3°F-5.9°C 46% 1.6 mph NNW2.6 kmh NNW 6.9 mph11.1 kmh 30.32 in1026.8 mb 0.00 in0.0 mm 0.00 in/hr0.0 mm/hr 0.00 in0.0 mm
04:48 AM 40.3°F4.6°C 21.2°F-6.0°C 46% 2.2 mph NNW3.5 kmh NNW 6.9 mph11.1 kmh 30.33 in1027.1 mb 0.00 in0.0 mm 0.00 in/hr0.0 mm/hr 0.00 in0.0 mm
04:49 AM 40.1°F4.5°C 21.5°F-5.8°C 47% 2.2 mph N3.5 kmh N 6.9 mph11.1 kmh 30.33 in1027.1 mb 0.00 in0.0 mm 0.00 in/hr0.0 mm/hr 0.00 in0.0 mm
04:50 AM 40.1°F4.5°C 21.5°F-5.8°C 47% 1.6 mph N2.6 kmh N 6.9 mph11.1 kmh 30.32 in1026.8 mb 0.00 in0.0 mm 0.00 in/hr0.0 mm/hr 0.00 in0.0 mm
04:51 AM 39.9°F4.4°C 21.3°F-5.9°C 47% 1.6 mph N2.6 kmh N 6.9 mph11.1 kmh 30.32 in1026.8 mb 0.00 in0.0 mm 0.00 in/hr0.0 mm/hr 0.00 in0.0 mm
04:52 AM 39.9°F4.4°C 21.3°F-5.9°C 47% 1.6 mph N2.6 kmh N 6.9 mph11.1 kmh 30.32 in1026.8 mb 0.00 in0.0 mm 0.00 in/hr0.0 mm/hr 0.00 in0.0 mm
04:53 AM 39.9°F4.4°C 21.3°F-5.9°C 47% 1.6 mph N2.6 kmh N 5.4 mph8.7 kmh 30.32 in1026.8 mb 0.00 in0.0 mm 0.00 in/hr0.0 mm/hr 0.00 in0.0 mm
04:54 AM 39.9°F4.4°C 21.3°F-5.9°C 47% 1.6 mph N2.6 kmh N 5.4 mph8.7 kmh 30.33 in1027.1 mb 0.00 in0.0 mm 0.00 in/hr0.0 mm/hr 0.00 in0.0 mm
04:55 AM 39.9°F4.4°C 21.3°F-5.9°C 47% 1.6 mph N2.6 kmh N 5.4 mph8.7 kmh 30.33 in1027.1 mb 0.00 in0.0 mm 0.00 in/hr0.0 mm/hr 0.00 in0.0 mm
04:56 AM 39.7°F4.3°C 21.2°F-6.0°C 47% 1.6 mph N2.6 kmh N 5.4 mph8.7 kmh 30.33 in1027.1 mb 0.00 in0.0 mm 0.00 in/hr0.0 mm/hr 0.00 in0.0 mm
04:57 AM 39.7°F4.3°C 21.2°F-6.0°C 47% 0.7 mph N1.1 kmh N 3.8 mph6.1 kmh 30.33 in1027.1 mb 0.00 in0.0 mm 0.00 in/hr0.0 mm/hr 0.00 in0.0 mm
04:58 AM 39.6°F4.2°C 21.0°F-6.1°C 47% 2.2 mph N3.5 kmh N 3.8 mph6.1 kmh 30.33 in1027.1 mb 0.00 in0.0 mm 0.00 in/hr0.0 mm/hr 0.00 in0.0 mm
04:59 AM 39.7°F4.3°C 21.2°F-6.0°C 47% 2.2 mph N3.5 kmh N 3.8 mph6.1 kmh 30.33 in1027.1 mb 0.00 in0.0 mm 0.00 in/hr0.0 mm/hr 0.00 in0.0 mm
05:00 AM 40.5°F4.7°C 21.8°F-5.7°C 47% 3.8 mph N6.1 kmh N 6.0 mph9.7 kmh 30.33 in1027.1 mb 0.00 in0.0 mm 0.00 in/hr0.0 mm/hr 0.00 in0.0 mm
05:01 AM 40.6°F4.8°C 21.5°F-5.8°C 46% 2.2 mph N3.5 kmh N 6.0 mph9.7 kmh 30.33 in1027.1 mb 0.00 in0.0 mm 0.00 in/hr0.0 mm/hr 0.00 in0.0 mm
05:02 AM 40.3°F4.6°C 21.2°F-6.0°C 46% 3.1 mph NNW5.0 kmh NNW 6.0 mph9.7 kmh 30.33 in1027.1 mb 0.00 in0.0 mm 0.00 in/hr0.0 mm/hr 0.00 in0.0 mm
05:03 AM 40.5°F4.7°C 21.3°F-5.9°C 46% 2.2 mph N3.5 kmh N 6.0 mph9.7 kmh 30.33 in1027.1 mb 0.00 in0.0 mm 0.00 in/hr0.0 mm/hr 0.00 in0.0 mm
05:04 AM 40.1°F4.5°C 21.0°F-6.1°C 46% 1.6 mph N2.6 kmh N 6.0 mph9.7 kmh 30.33 in1027.1 mb 0.00 in0.0 mm 0.00 in/hr0.0 mm/hr 0.00 in0.0 mm
05:05 AM 39.9°F4.4°C 20.8°F-6.2°C 46% 1.6 mph N2.6 kmh N 6.0 mph9.7 kmh 30.33 in1027.1 mb 0.00 in0.0 mm 0.00 in/hr0.0 mm/hr 0.00 in0.0 mm
05:06 AM 39.7°F4.3°C 20.7°F-6.3°C 46% 2.2 mph N3.5 kmh N 6.0 mph9.7 kmh 30.33 in1027.1 mb 0.00 in0.0 mm 0.00 in/hr0.0 mm/hr 0.00 in0.0 mm
05:07 AM 39.9°F4.4°C 20.8°F-6.2°C 46% 1.6 mph NNW2.6 kmh NNW 6.0 mph9.7 kmh 30.33 in1027.1 mb 0.00 in0.0 mm 0.00 in/hr0.0 mm/hr 0.00 in0.0 mm
05:08 AM 39.9°F4.4°C 20.8°F-6.2°C 46% 3.1 mph NNW5.0 kmh NNW 6.0 mph9.7 kmh 30.33 in1027.1 mb 0.00 in0.0 mm 0.00 in/hr0.0 mm/hr 0.00 in0.0 mm
05:09 AM 40.1°F4.5°C 21.0°F-6.1°C 46% 2.2 mph NNW3.5 kmh NNW 6.0 mph9.7 kmh 30.34 in1027.4 mb 0.00 in0.0 mm 0.00 in/hr0.0 mm/hr 0.00 in0.0 mm
05:10 AM 40.1°F4.5°C 21.0°F-6.1°C 46% 2.2 mph NNW3.5 kmh NNW 5.4 mph8.7 kmh 30.34 in1027.4 mb 0.00 in0.0 mm 0.00 in/hr0.0 mm/hr 0.00 in0.0 mm
05:11 AM 39.9°F4.4°C 20.8°F-6.2°C 46% 2.2 mph NNW3.5 kmh NNW 5.4 mph8.7 kmh 30.34 in1027.4 mb 0.00 in0.0 mm 0.00 in/hr0.0 mm/hr 0.00 in0.0 mm
05:12 AM 39.9°F4.4°C 20.8°F-6.2°C 46% 1.6 mph NNW2.6 kmh NNW 5.4 mph8.7 kmh 30.34 in1027.4 mb 0.00 in0.0 mm 0.00 in/hr0.0 mm/hr 0.00 in0.0 mm
05:13 AM 39.7°F4.3°C 20.7°F-6.3°C 46% 1.6 mph NNW2.6 kmh NNW 4.5 mph7.2 kmh 30.34 in1027.4 mb 0.00 in0.0 mm 0.00 in/hr0.0 mm/hr 0.00 in0.0 mm
05:14 AM 39.7°F4.3°C 20.7°F-6.3°C 46% 1.6 mph NNW2.6 kmh NNW 4.5 mph7.2 kmh 30.34 in1027.4 mb 0.00 in0.0 mm 0.00 in/hr0.0 mm/hr 0.00 in0.0 mm
05:15 AM 39.7°F4.3°C 20.7°F-6.3°C 46% 1.6 mph NNW2.6 kmh NNW 4.5 mph7.2 kmh 30.34 in1027.4 mb 0.00 in0.0 mm 0.00 in/hr0.0 mm/hr 0.00 in0.0 mm
05:16 AM 39.7°F4.3°C 20.7°F-6.3°C 46% 1.6 mph N2.6 kmh N 4.5 mph7.2 kmh 30.34 in1027.4 mb 0.00 in0.0 mm 0.00 in/hr0.0 mm/hr 0.00 in0.0 mm
05:17 AM 39.6°F4.2°C 20.5°F-6.4°C 46% 2.2 mph N3.5 kmh N 4.5 mph7.2 kmh 30.34 in1027.4 mb 0.00 in0.0 mm 0.00 in/hr0.0 mm/hr 0.00 in0.0 mm
05:18 AM 39.7°F4.3°C 20.7°F-6.3°C 46% 2.2 mph N3.5 kmh N 4.5 mph7.2 kmh 30.34 in1027.4 mb 0.00 in0.0 mm 0.00 in/hr0.0 mm/hr 0.00 in0.0 mm
05:19 AM 39.9°F4.4°C 20.8°F-6.2°C 46% 3.1 mph N5.0 kmh N 4.5 mph7.2 kmh 30.34 in1027.4 mb 0.00 in0.0 mm 0.00 in/hr0.0 mm/hr 0.00 in0.0 mm
05:20 AM 39.9°F4.4°C 20.8°F-6.2°C 46% 3.8 mph N6.1 kmh N 4.5 mph7.2 kmh 30.34 in1027.4 mb 0.00 in0.0 mm 0.00 in/hr0.0 mm/hr 0.00 in0.0 mm
05:21 AM 40.1°F4.5°C 21.0°F-6.1°C 46% 3.8 mph NNW6.1 kmh NNW 5.4 mph8.7 kmh 30.34 in1027.4 mb 0.00 in0.0 mm 0.00 in/hr0.0 mm/hr 0.00 in0.0 mm
05:22 AM 40.1°F4.5°C 21.0°F-6.1°C 46% 3.1 mph NNW5.0 kmh NNW 5.4 mph8.7 kmh 30.34 in1027.4 mb 0.00 in0.0 mm 0.00 in/hr0.0 mm/hr 0.00 in0.0 mm
05:23 AM 40.1°F4.5°C 20.5°F-6.4°C 45% 2.2 mph NNW3.5 kmh NNW 5.4 mph8.7 kmh 30.34 in1027.4 mb 0.00 in0.0 mm 0.00 in/hr0.0 mm/hr 0.00 in0.0 mm
05:24 AM 39.9°F4.4°C 20.3°F-6.5°C 45% 2.2 mph N3.5 kmh N 5.4 mph8.7 kmh 30.34 in1027.4 mb 0.00 in0.0 mm 0.00 in/hr0.0 mm/hr 0.00 in0.0 mm
05:25 AM 39.9°F4.4°C 20.3°F-6.5°C 45% 3.8 mph N6.1 kmh N 5.4 mph8.7 kmh 30.34 in1027.4 mb 0.00 in0.0 mm 0.00 in/hr0.0 mm/hr 0.00 in0.0 mm
05:26 AM 39.9°F4.4°C 20.3°F-6.5°C 45% 3.1 mph NNW5.0 kmh NNW 5.4 mph8.7 kmh 30.34 in1027.4 mb 0.00 in0.0 mm 0.00 in/hr0.0 mm/hr 0.00 in0.0 mm
05:27 AM 39.9°F4.4°C 20.3°F-6.5°C 45% 3.1 mph NNW5.0 kmh NNW 5.4 mph8.7 kmh 30.34 in1027.4 mb 0.00 in0.0 mm 0.00 in/hr0.0 mm/hr 0.00 in0.0 mm
05:28 AM 39.9°F4.4°C 20.3°F-6.5°C 45% 3.8 mph NNW6.1 kmh NNW 6.0 mph9.7 kmh 30.34 in1027.4 mb 0.00 in0.0 mm 0.00 in/hr0.0 mm/hr 0.00 in0.0 mm
05:29 AM 39.6°F4.2°C 20.0°F-6.7°C 45% 2.2 mph NNW3.5 kmh NNW 6.0 mph9.7 kmh 30.34 in1027.4 mb 0.00 in0.0 mm 0.00 in/hr0.0 mm/hr 0.00 in0.0 mm
05:30 AM 39.4°F4.1°C 19.8°F-6.8°C 45% 1.6 mph NNW2.6 kmh NNW 6.0 mph9.7 kmh 30.34 in1027.4 mb 0.00 in0.0 mm 0.00 in/hr0.0 mm/hr 0.00 in0.0 mm
05:31 AM 39.4°F4.1°C 19.8°F-6.8°C 45% 2.2 mph N3.5 kmh N 6.0 mph9.7 kmh 30.35 in1027.8 mb 0.00 in0.0 mm 0.00 in/hr0.0 mm/hr 0.00 in0.0 mm
05:32 AM 39.2°F4.0°C 20.2°F-6.6°C 46% 2.2 mph N3.5 kmh N 6.0 mph9.7 kmh 30.35 in1027.8 mb 0.00 in0.0 mm 0.00 in/hr0.0 mm/hr 0.00 in0.0 mm
05:33 AM 39.2°F4.0°C 20.2°F-6.6°C 46% 3.8 mph N6.1 kmh N 6.9 mph11.1 kmh 30.34 in1027.4 mb 0.00 in0.0 mm 0.00 in/hr0.0 mm/hr 0.00 in0.0 mm
05:34 AM 39.4°F4.1°C 20.3°F-6.5°C 46% 2.2 mph N3.5 kmh N 6.9 mph11.1 kmh 30.34 in1027.4 mb 0.00 in0.0 mm 0.00 in/hr0.0 mm/hr 0.00 in0.0 mm
05:35 AM 39.4°F4.1°C 20.3°F-6.5°C 46% 2.2 mph N3.5 kmh N 6.9 mph11.1 kmh 30.34 in1027.4 mb 0.00 in0.0 mm 0.00 in/hr0.0 mm/hr 0.00 in0.0 mm
05:36 AM 39.6°F4.2°C 20.5°F-6.4°C 46% 2.2 mph N3.5 kmh N 6.9 mph11.1 kmh 30.34 in1027.4 mb 0.00 in0.0 mm 0.00 in/hr0.0 mm/hr 0.00 in0.0 mm
05:37 AM 39.4°F4.1°C 20.3°F-6.5°C 46% 6.0 mph N9.7 kmh N 9.2 mph14.8 kmh 30.35 in1027.8 mb 0.00 in0.0 mm 0.00 in/hr0.0 mm/hr 0.00 in0.0 mm
05:38 AM 39.6°F4.2°C 20.5°F-6.4°C 46% 3.1 mph N5.0 kmh N 9.2 mph14.8 kmh 30.35 in1027.8 mb 0.00 in0.0 mm 0.00 in/hr0.0 mm/hr 0.00 in0.0 mm
05:39 AM 39.6°F4.2°C 20.0°F-6.7°C 45% 3.1 mph N5.0 kmh N 9.2 mph14.8 kmh 30.35 in1027.8 mb 0.00 in0.0 mm 0.00 in/hr0.0 mm/hr 0.00 in0.0 mm
05:40 AM 39.6°F4.2°C 20.5°F-6.4°C 46% 3.8 mph NNE6.1 kmh NNE 9.2 mph14.8 kmh 30.35 in1027.8 mb 0.00 in0.0 mm 0.00 in/hr0.0 mm/hr 0.00 in0.0 mm
05:41 AM 39.2°F4.0°C 20.2°F-6.6°C 46% 2.2 mph NNE3.5 kmh NNE 9.2 mph14.8 kmh 30.35 in1027.8 mb 0.00 in0.0 mm 0.00 in/hr0.0 mm/hr 0.00 in0.0 mm
05:42 AM 39.0°F3.9°C 20.5°F-6.4°C 47% 1.6 mph N2.6 kmh N 9.2 mph14.8 kmh 30.35 in1027.8 mb 0.00 in0.0 mm 0.00 in/hr0.0 mm/hr 0.00 in0.0 mm
05:43 AM 39.0°F3.9°C 20.5°F-6.4°C 47% 3.1 mph N5.0 kmh N 9.2 mph14.8 kmh 30.35 in1027.8 mb 0.00 in0.0 mm 0.00 in/hr0.0 mm/hr 0.00 in0.0 mm
05:44 AM 39.0°F3.9°C 20.5°F-6.4°C 47% 3.8 mph NNE6.1 kmh NNE 9.2 mph14.8 kmh 30.35 in1027.8 mb 0.00 in0.0 mm 0.00 in/hr0.0 mm/hr 0.00 in0.0 mm
05:45 AM 38.7°F3.7°C 20.2°F-6.6°C 47% 0.7 mph NNE1.1 kmh NNE 9.2 mph14.8 kmh 30.35 in1027.8 mb 0.00 in0.0 mm 0.00 in/hr0.0 mm/hr 0.00 in0.0 mm
05:46 AM 38.3°F3.5°C 20.4°F-6.4°C 48% 2.2 mph NNE3.5 kmh NNE 9.2 mph14.8 kmh 30.35 in1027.8 mb 0.00 in0.0 mm 0.00 in/hr0.0 mm/hr 0.00 in0.0 mm
05:47 AM 38.7°F3.7°C 20.7°F-6.3°C 48% 3.1 mph NE5.0 kmh NE 9.2 mph14.8 kmh 30.35 in1027.8 mb 0.00 in0.0 mm 0.00 in/hr0.0 mm/hr 0.00 in0.0 mm
05:48 AM 38.8°F3.8°C 20.8°F-6.2°C 48% 3.1 mph NE5.0 kmh NE 6.0 mph9.7 kmh 30.35 in1027.8 mb 0.00 in0.0 mm 0.00 in/hr0.0 mm/hr 0.00 in0.0 mm
05:49 AM 38.8°F3.8°C 20.8°F-6.2°C 48% 2.2 mph NE3.5 kmh NE 6.0 mph9.7 kmh 30.35 in1027.8 mb 0.00 in0.0 mm 0.00 in/hr0.0 mm/hr 0.00 in0.0 mm
05:50 AM 39.0°F3.9°C 21.0°F-6.1°C 48% 2.2 mph NE3.5 kmh NE 6.0 mph9.7 kmh 30.35 in1027.8 mb 0.00 in0.0 mm 0.00 in/hr0.0 mm/hr 0.00 in0.0 mm
05:51 AM 39.0°F3.9°C 21.0°F-6.1°C 48% 3.1 mph NE5.0 kmh NE 6.0 mph9.7 kmh 30.35 in1027.8 mb 0.00 in0.0 mm 0.00 in/hr0.0 mm/hr 0.00 in0.0 mm
05:52 AM 39.0°F3.9°C 21.0°F-6.1°C 48% 3.1 mph NE5.0 kmh NE 6.0 mph9.7 kmh 30.35 in1027.8 mb 0.00 in0.0 mm 0.00 in/hr0.0 mm/hr 0.00 in0.0 mm
05:53 AM 39.0°F3.9°C 21.0°F-6.1°C 48% 2.2 mph NE3.5 kmh NE 6.0 mph9.7 kmh 30.35 in1027.8 mb 0.00 in0.0 mm 0.00 in/hr0.0 mm/hr 0.00 in0.0 mm
05:54 AM 38.7°F3.7°C 20.7°F-6.3°C 48% 3.1 mph NNE5.0 kmh NNE 6.0 mph9.7 kmh 30.35 in1027.8 mb 0.00 in0.0 mm 0.00 in/hr0.0 mm/hr 0.00 in0.0 mm
05:55 AM 38.8°F3.8°C 20.8°F-6.2°C 48% 3.1 mph N5.0 kmh N 6.0 mph9.7 kmh 30.36 in1028.1 mb 0.00 in0.0 mm 0.00 in/hr0.0 mm/hr 0.00 in0.0 mm
05:56 AM 39.0°F3.9°C 21.0°F-6.1°C 48% 3.1 mph NNE5.0 kmh NNE 6.0 mph9.7 kmh 30.35 in1027.8 mb 0.00 in0.0 mm 0.00 in/hr0.0 mm/hr 0.00 in0.0 mm
05:57 AM 39.2°F4.0°C 20.2°F-6.6°C 46% 2.2 mph N3.5 kmh N 6.0 mph9.7 kmh 30.35 in1027.8 mb 0.00 in0.0 mm 0.00 in/hr0.0 mm/hr 0.00 in0.0 mm
05:58 AM 39.0°F3.9°C 20.5°F-6.4°C 47% 3.1 mph N5.0 kmh N 6.9 mph11.1 kmh 30.36 in1028.1 mb 0.00 in0.0 mm 0.00 in/hr0.0 mm/hr 0.00 in0.0 mm
05:59 AM 39.0°F3.9°C 20.5°F-6.4°C 47% 2.2 mph N3.5 kmh N 6.9 mph11.1 kmh 30.35 in1027.8 mb 0.00 in0.0 mm 0.00 in/hr0.0 mm/hr 0.00 in0.0 mm
06:00 AM 38.8°F3.8°C 20.4°F-6.4°C 47% 3.8 mph N6.1 kmh N 6.9 mph11.1 kmh 30.36 in1028.1 mb 0.00 in0.0 mm 0.00 in/hr0.0 mm/hr 0.00 in0.0 mm
06:01 AM 38.8°F3.8°C 20.4°F-6.4°C 47% 3.8 mph NNW6.1 kmh NNW 6.9 mph11.1 kmh 30.36 in1028.1 mb 0.00 in0.0 mm 0.00 in/hr0.0 mm/hr 0.00 in0.0 mm
06:02 AM 38.8°F3.8°C 20.4°F-6.4°C 47% 3.8 mph NW6.1 kmh NW 6.9 mph11.1 kmh 30.36 in1028.1 mb 0.00 in0.0 mm 0.00 in/hr0.0 mm/hr 0.00 in0.0 mm
06:03 AM 38.8°F3.8°C 20.4°F-6.4°C 47% 3.8 mph WNW6.1 kmh WNW 6.9 mph11.1 kmh 30.36 in1028.1 mb 0.00 in0.0 mm 0.00 in/hr0.0 mm/hr 0.00 in0.0 mm
06:04 AM 38.8°F3.8°C 20.4°F-6.4°C 47% 3.8 mph W6.1 kmh W 6.9 mph11.1 kmh 30.36 in1028.1 mb 0.00 in0.0 mm 0.00 in/hr0.0 mm/hr 0.00 in0.0 mm
06:05 AM 38.8°F3.8°C 20.4°F-6.4°C 47% 3.8 mph W6.1 kmh W 6.9 mph11.1 kmh 30.36 in1028.1 mb 0.00 in0.0 mm 0.00 in/hr0.0 mm/hr 0.00 in0.0 mm
06:06 AM 38.8°F3.8°C 20.4°F-6.4°C 47% 3.8 mph W6.1 kmh W 6.9 mph11.1 kmh 30.36 in1028.1 mb 0.00 in0.0 mm 0.00 in/hr0.0 mm/hr 0.00 in0.0 mm
06:07 AM 38.8°F3.8°C 20.4°F-6.4°C 47% 3.8 mph WSW6.1 kmh WSW 6.9 mph11.1 kmh 30.36 in1028.1 mb 0.00 in0.0 mm 0.00 in/hr0.0 mm/hr 0.00 in0.0 mm
06:08 AM 39.0°F3.9°C 20.5°F-6.4°C 47% 1.6 mph WSW2.6 kmh WSW 6.9 mph11.1 kmh 30.36 in1028.1 mb 0.00 in0.0 mm 0.00 in/hr0.0 mm/hr 0.00 in0.0 mm
06:09 AM 38.8°F3.8°C 20.4°F-6.4°C 47% 4.5 mph WSW7.2 kmh WSW 7.6 mph12.2 kmh 30.36 in1028.1 mb 0.00 in0.0 mm 0.00 in/hr0.0 mm/hr 0.00 in0.0 mm
06:10 AM 39.0°F3.9°C 20.5°F-6.4°C 47% 2.2 mph WSW3.5 kmh WSW 7.6 mph12.2 kmh 30.36 in1028.1 mb 0.00 in0.0 mm 0.00 in/hr0.0 mm/hr 0.00 in0.0 mm
06:11 AM 38.8°F3.8°C 20.4°F-6.4°C 47% 1.6 mph WSW2.6 kmh WSW 7.6 mph12.2 kmh 30.36 in1028.1 mb 0.00 in0.0 mm 0.00 in/hr0.0 mm/hr 0.00 in0.0 mm
06:12 AM 38.8°F3.8°C 20.4°F-6.4°C 47% 1.6 mph W2.6 kmh W 7.6 mph12.2 kmh 30.36 in1028.1 mb 0.00 in0.0 mm 0.00 in/hr0.0 mm/hr 0.00 in0.0 mm
06:13 AM 38.8°F3.8°C 20.4°F-6.4°C 47% 3.8 mph WNW6.1 kmh WNW 7.6 mph12.2 kmh 30.36 in1028.1 mb 0.00 in0.0 mm 0.00 in/hr0.0 mm/hr 0.00 in0.0 mm
06:14 AM 39.0°F3.9°C 20.5°F-6.4°C 47% 2.2 mph NW3.5 kmh NW 7.6 mph12.2 kmh 30.36 in1028.1 mb 0.00 in0.0 mm 0.00 in/hr0.0 mm/hr 0.00 in0.0 mm
06:15 AM 39.2°F4.0°C 19.7°F-6.8°C 45% 6.0 mph NNW9.7 kmh NNW 9.2 mph14.8 kmh 30.36 in1028.1 mb 0.00 in0.0 mm 0.00 in/hr0.0 mm/hr 0.00 in0.0 mm
06:16 AM 39.6°F4.2°C 20.0°F-6.7°C 45% 3.8 mph N6.1 kmh N 9.2 mph14.8 kmh 30.36 in1028.1 mb 0.00 in0.0 mm 0.00 in/hr0.0 mm/hr 0.00 in0.0 mm
06:17 AM 39.0°F3.9°C 20.0°F-6.7°C 46% 1.6 mph N2.6 kmh N 9.2 mph14.8 kmh 30.36 in1028.1 mb 0.00 in0.0 mm 0.00 in/hr0.0 mm/hr 0.00 in0.0 mm
06:18 AM 38.7°F3.7°C 19.7°F-6.8°C 46% 1.6 mph N2.6 kmh N 9.2 mph14.8 kmh 30.36 in1028.1 mb 0.00 in0.0 mm 0.00 in/hr0.0 mm/hr 0.00 in0.0 mm
06:19 AM 38.8°F3.8°C 19.9°F-6.7°C 46% 1.6 mph N2.6 kmh N 9.2 mph14.8 kmh 30.36 in1028.1 mb 0.00 in0.0 mm 0.00 in/hr0.0 mm/hr 0.00 in0.0 mm
06:20 AM 38.7°F3.7°C 19.7°F-6.8°C 46% 1.6 mph N2.6 kmh N 9.2 mph14.8 kmh 30.36 in1028.1 mb 0.00 in0.0 mm 0.00 in/hr0.0 mm/hr 0.00 in0.0 mm
06:21 AM 38.8°F3.8°C 19.9°F-6.7°C 46% 1.6 mph N2.6 kmh N 9.2 mph14.8 kmh 30.36 in1028.1 mb 0.00 in0.0 mm 0.00 in/hr0.0 mm/hr 0.00 in0.0 mm
06:22 AM 38.5°F3.6°C 20.0°F-6.7°C 47% 1.6 mph N2.6 kmh N 9.2 mph14.8 kmh 30.36 in1028.1 mb 0.00 in0.0 mm 0.00 in/hr0.0 mm/hr 0.00 in0.0 mm
06:23 AM 38.5°F3.6°C 20.0°F-6.7°C 47% 3.1 mph N5.0 kmh N 9.2 mph14.8 kmh 30.37 in1028.4 mb 0.00 in0.0 mm 0.00 in/hr0.0 mm/hr 0.00 in0.0 mm
06:24 AM 38.8°F3.8°C 20.4°F-6.4°C 47% 3.8 mph NNE6.1 kmh NNE 9.2 mph14.8 kmh 30.37 in1028.4 mb 0.00 in0.0 mm 0.00 in/hr0.0 mm/hr 0.00 in0.0 mm
06:25 AM 39.0°F3.9°C 20.0°F-6.7°C 46% 2.2 mph N3.5 kmh N 6.9 mph11.1 kmh 30.37 in1028.4 mb 0.00 in0.0 mm 0.00 in/hr0.0 mm/hr 0.00 in0.0 mm
06:26 AM 39.0°F3.9°C 20.0°F-6.7°C 46% 2.2 mph N3.5 kmh N 6.9 mph11.1 kmh 30.37 in1028.4 mb 0.00 in0.0 mm 0.00 in/hr0.0 mm/hr 0.00 in0.0 mm
06:27 AM 39.0°F3.9°C 20.0°F-6.7°C 46% 2.2 mph N3.5 kmh N 6.9 mph11.1 kmh 30.37 in1028.4 mb 0.00 in0.0 mm 0.00 in/hr0.0 mm/hr 0.00 in0.0 mm
06:28 AM 38.8°F3.8°C 19.9°F-6.7°C 46% 1.6 mph N2.6 kmh N 6.9 mph11.1 kmh 30.37 in1028.4 mb 0.00 in0.0 mm 0.00 in/hr0.0 mm/hr 0.00 in0.0 mm
06:29 AM 38.7°F3.7°C 19.7°F-6.8°C 46% 2.2 mph N3.5 kmh N 6.9 mph11.1 kmh 30.37 in1028.4 mb 0.00 in0.0 mm 0.00 in/hr0.0 mm/hr 0.00 in0.0 mm
06:30 AM 38.7°F3.7°C 19.7°F-6.8°C 46% 1.6 mph N2.6 kmh N 6.9 mph11.1 kmh 30.37 in1028.4 mb 0.00 in0.0 mm 0.00 in/hr0.0 mm/hr 0.00 in0.0 mm
06:31 AM 38.7°F3.7°C 20.2°F-6.6°C 47% 3.1 mph N5.0 kmh N 6.9 mph11.1 kmh 30.37 in1028.4 mb 0.00 in0.0 mm 0.00 in/hr0.0 mm/hr 0.00 in0.0 mm
06:32 AM 38.8°F3.8°C 19.9°F-6.7°C 46% 2.2 mph NNE3.5 kmh NNE 6.9 mph11.1 kmh 30.37 in1028.4 mb 0.00 in0.0 mm 0.00 in/hr0.0 mm/hr 0.00 in0.0 mm
06:33 AM 38.7°F3.7°C 19.7°F-6.8°C 46% 2.2 mph NNE3.5 kmh NNE 6.9 mph11.1 kmh 30.37 in1028.4 mb 0.00 in0.0 mm 0.00 in/hr0.0 mm/hr 0.00 in0.0 mm
06:34 AM 38.7°F3.7°C 20.2°F-6.6°C 47% 1.6 mph N2.6 kmh N 6.9 mph11.1 kmh 30.37 in1028.4 mb 0.00 in0.0 mm 0.00 in/hr0.0 mm/hr 0.00 in0.0 mm
06:35 AM 38.5°F3.6°C 20.0°F-6.7°C 47% 1.6 mph N2.6 kmh N 6.9 mph11.1 kmh 30.37 in1028.4 mb 0.00 in0.0 mm 0.00 in/hr0.0 mm/hr 0.00 in0.0 mm
06:36 AM 38.3°F3.5°C 19.9°F-6.7°C 47% 1.6 mph N2.6 kmh N 6.9 mph11.1 kmh 30.37 in1028.4 mb 0.00 in0.0 mm 0.00 in/hr0.0 mm/hr 0.00 in0.0 mm
06:37 AM 38.8°F3.8°C 20.4°F-6.4°C 47% 2.2 mph NNE3.5 kmh NNE 6.9 mph11.1 kmh 30.37 in1028.4 mb 0.00 in0.0 mm 0.00 in/hr0.0 mm/hr 0.00 in0.0 mm
06:38 AM 38.7°F3.7°C 20.2°F-6.6°C 47% 1.6 mph NNE2.6 kmh NNE 6.9 mph11.1 kmh 30.38 in1028.8 mb 0.00 in0.0 mm 0.00 in/hr0.0 mm/hr 0.00 in0.0 mm
06:39 AM 38.5°F3.6°C 20.0°F-6.7°C 47% 1.6 mph NNE2.6 kmh NNE 6.9 mph11.1 kmh 30.37 in1028.4 mb 0.00 in0.0 mm 0.00 in/hr0.0 mm/hr 0.00 in0.0 mm
06:40 AM 38.5°F3.6°C 20.0°F-6.7°C 47% 1.6 mph NNE2.6 kmh NNE 6.9 mph11.1 kmh 30.37 in1028.4 mb 0.00 in0.0 mm 0.00 in/hr0.0 mm/hr 0.00 in0.0 mm
06:41 AM 38.5°F3.6°C 20.0°F-6.7°C 47% 1.6 mph N2.6 kmh N 6.9 mph11.1 kmh 30.37 in1028.4 mb 0.00 in0.0 mm 0.00 in/hr0.0 mm/hr 0.00 in0.0 mm
06:42 AM 38.5°F3.6°C 20.0°F-6.7°C 47% 3.8 mph N6.1 kmh N 6.9 mph11.1 kmh 30.37 in1028.4 mb 0.00 in0.0 mm 0.00 in/hr0.0 mm/hr 0.00 in0.0 mm
06:43 AM 38.7°F3.7°C 20.2°F-6.6°C 47% 3.1 mph N5.0 kmh N 6.9 mph11.1 kmh 30.38 in1028.8 mb 0.00 in0.0 mm 0.00 in/hr0.0 mm/hr 0.00 in0.0 mm
06:44 AM 38.7°F3.7°C 20.2°F-6.6°C 47% 2.2 mph N3.5 kmh N 6.9 mph11.1 kmh 30.38 in1028.8 mb 0.00 in0.0 mm 0.00 in/hr0.0 mm/hr 0.00 in0.0 mm
06:45 AM 38.3°F3.5°C 19.9°F-6.7°C 47% 2.2 mph N3.5 kmh N 6.9 mph11.1 kmh 30.37 in1028.4 mb 0.00 in0.0 mm 0.00 in/hr0.0 mm/hr 0.00 in0.0 mm
06:46 AM 38.5°F3.6°C 20.0°F-6.7°C 47% 3.1 mph N5.0 kmh N 6.9 mph11.1 kmh 30.38 in1028.8 mb 0.00 in0.0 mm 0.00 in/hr0.0 mm/hr 0.00 in0.0 mm
06:47 AM 38.8°F3.8°C 20.4°F-6.4°C 47% 3.8 mph N6.1 kmh N 6.9 mph11.1 kmh 30.38 in1028.8 mb 0.00 in0.0 mm 0.00 in/hr0.0 mm/hr 0.00 in0.0 mm
06:48 AM 39.0°F3.9°C 20.5°F-6.4°C 47% 2.2 mph N3.5 kmh N 6.9 mph11.1 kmh 30.38 in1028.8 mb 0.00 in0.0 mm 0.00 in/hr0.0 mm/hr 0.00 in0.0 mm
06:49 AM 38.7°F3.7°C 20.2°F-6.6°C 47% 3.1 mph N5.0 kmh N 6.9 mph11.1 kmh 30.38 in1028.8 mb 0.00 in0.0 mm 0.00 in/hr0.0 mm/hr 0.00 in0.0 mm
06:50 AM 38.7°F3.7°C 20.2°F-6.6°C 47% 1.6 mph N2.6 kmh N 6.9 mph11.1 kmh 30.38 in1028.8 mb 0.00 in0.0 mm 0.00 in/hr0.0 mm/hr 0.00 in0.0 mm
06:51 AM 38.7°F3.7°C 20.2°F-6.6°C 47% 3.1 mph N5.0 kmh N 6.9 mph11.1 kmh 30.38 in1028.8 mb 0.00 in0.0 mm 0.00 in/hr0.0 mm/hr 0.00 in0.0 mm
06:52 AM 38.8°F3.8°C 20.4°F-6.4°C 47% 1.6 mph N2.6 kmh N 6.9 mph11.1 kmh 30.38 in1028.8 mb 0.00 in0.0 mm 0.00 in/hr0.0 mm/hr 0.00 in0.0 mm
06:53 AM 38.8°F3.8°C 20.4°F-6.4°C 47% 5.4 mph N8.7 kmh N 6.9 mph11.1 kmh 30.38 in1028.8 mb 0.00 in0.0 mm 0.00 in/hr0.0 mm/hr 0.00 in0.0 mm
06:54 AM 39.2°F4.0°C 20.2°F-6.6°C 46% 3.8 mph N6.1 kmh N 6.9 mph11.1 kmh 30.38 in1028.8 mb 0.00 in0.0 mm 0.00 in/hr0.0 mm/hr 0.00 in0.0 mm
06:55 AM 39.0°F3.9°C 20.5°F-6.4°C 47% 3.1 mph N5.0 kmh N 6.9 mph11.1 kmh 30.38 in1028.8 mb 0.00 in0.0 mm 0.00 in/hr0.0 mm/hr 0.00 in0.0 mm
06:56 AM 39.2°F4.0°C 20.2°F-6.6°C 46% 4.5 mph N7.2 kmh N 7.6 mph12.2 kmh 30.38 in1028.8 mb 0.00 in0.0 mm 0.00 in/hr0.0 mm/hr 0.00 in0.0 mm
06:57 AM 39.0°F3.9°C 20.5°F-6.4°C 47% 3.1 mph N5.0 kmh N 7.6 mph12.2 kmh 30.38 in1028.8 mb 0.00 in0.0 mm 0.00 in/hr0.0 mm/hr 0.00 in0.0 mm
06:58 AM 39.2°F4.0°C 20.2°F-6.6°C 46% 3.1 mph N5.0 kmh N 7.6 mph12.2 kmh 30.38 in1028.8 mb 0.00 in0.0 mm 0.00 in/hr0.0 mm/hr 0.00 in0.0 mm
06:59 AM 39.2°F4.0°C 20.2°F-6.6°C 46% 2.2 mph N3.5 kmh N 7.6 mph12.2 kmh 30.38 in1028.8 mb 0.00 in0.0 mm 0.00 in/hr0.0 mm/hr 0.00 in0.0 mm
07:00 AM 39.2°F4.0°C 20.2°F-6.6°C 46% 3.8 mph N6.1 kmh N 7.6 mph12.2 kmh 30.38 in1028.8 mb 0.00 in0.0 mm 0.00 in/hr0.0 mm/hr 0.00 in0.0 mm
07:01 AM 39.2°F4.0°C 20.2°F-6.6°C 46% 3.1 mph N5.0 kmh N 7.6 mph12.2 kmh 30.38 in1028.8 mb 0.00 in0.0 mm 0.00 in/hr0.0 mm/hr 0.00 in0.0 mm
07:02 AM 39.4°F4.1°C 20.3°F-6.5°C 46% 3.1 mph N5.0 kmh N 7.6 mph12.2 kmh 30.38 in1028.8 mb 0.00 in0.0 mm 0.00 in/hr0.0 mm/hr 0.00 in0.0 mm
07:03 AM 39.4°F4.1°C 20.3°F-6.5°C 46% 3.1 mph N5.0 kmh N 7.6 mph12.2 kmh 30.39 in1029.1 mb 0.00 in0.0 mm 0.00 in/hr0.0 mm/hr 0.00 in0.0 mm
07:04 AM 39.4°F4.1°C 19.8°F-6.8°C 45% 3.1 mph N5.0 kmh N 7.6 mph12.2 kmh 30.38 in1028.8 mb 0.00 in0.0 mm 0.00 in/hr0.0 mm/hr 0.00 in0.0 mm
07:05 AM 39.4°F4.1°C 20.3°F-6.5°C 46% 3.1 mph N5.0 kmh N 7.6 mph12.2 kmh 30.39 in1029.1 mb 0.00 in0.0 mm 0.00 in/hr0.0 mm/hr 0.00 in0.0 mm
07:06 AM 39.4°F4.1°C 20.3°F-6.5°C 46% 2.2 mph N3.5 kmh N 5.4 mph8.7 kmh 30.39 in1029.1 mb 0.00 in0.0 mm 0.00 in/hr0.0 mm/hr 0.00 in0.0 mm
07:07 AM 39.4°F4.1°C 19.8°F-6.8°C 45% 3.1 mph NNE5.0 kmh NNE 5.4 mph8.7 kmh 30.39 in1029.1 mb 0.00 in0.0 mm 0.00 in/hr0.0 mm/hr 0.00 in0.0 mm
07:08 AM 39.4°F4.1°C 20.3°F-6.5°C 46% 3.8 mph NNE6.1 kmh NNE 5.4 mph8.7 kmh 30.39 in1029.1 mb 0.00 in0.0 mm 0.00 in/hr0.0 mm/hr 0.00 in0.0 mm
07:09 AM 39.4°F4.1°C 20.3°F-6.5°C 46% 4.5 mph N7.2 kmh N 6.0 mph9.7 kmh 30.39 in1029.1 mb 0.00 in0.0 mm 0.00 in/hr0.0 mm/hr 0.00 in0.0 mm
07:10 AM 39.6°F4.2°C 20.5°F-6.4°C 46% 3.8 mph N6.1 kmh N 6.0 mph9.7 kmh 30.39 in1029.1 mb 0.00 in0.0 mm 0.00 in/hr0.0 mm/hr 0.00 in0.0 mm
07:11 AM 39.6°F4.2°C 20.5°F-6.4°C 46% 4.5 mph NNE7.2 kmh NNE 6.9 mph11.1 kmh 30.39 in1029.1 mb 0.00 in0.0 mm 0.00 in/hr0.0 mm/hr 0.00 in0.0 mm
07:12 AM 39.7°F4.3°C 20.2°F-6.6°C 45% 4.5 mph NNE7.2 kmh NNE 6.9 mph11.1 kmh 30.39 in1029.1 mb 0.00 in0.0 mm 0.00 in/hr0.0 mm/hr 0.00 in0.0 mm
07:13 AM 39.7°F4.3°C 20.2°F-6.6°C 45% 3.8 mph N6.1 kmh N 6.9 mph11.1 kmh 30.39 in1029.1 mb 0.00 in0.0 mm 0.00 in/hr0.0 mm/hr 0.00 in0.0 mm
07:14 AM 39.9°F4.4°C 20.3°F-6.5°C 45% 2.2 mph N3.5 kmh N 6.9 mph11.1 kmh 30.39 in1029.1 mb 0.00 in0.0 mm 0.00 in/hr0.0 mm/hr 0.00 in0.0 mm
07:15 AM 39.9°F4.4°C 20.3°F-6.5°C 45% 3.1 mph NNE5.0 kmh NNE 6.9 mph11.1 kmh 30.39 in1029.1 mb 0.00 in0.0 mm 0.00 in/hr0.0 mm/hr 0.00 in0.0 mm
07:16 AM 40.1°F4.5°C 20.5°F-6.4°C 45% 3.1 mph NNE5.0 kmh NNE 6.9 mph11.1 kmh 30.39 in1029.1 mb 0.00 in0.0 mm 0.00 in/hr0.0 mm/hr 0.00 in0.0 mm
07:17 AM 40.1°F4.5°C 20.5°F-6.4°C 45% 3.8 mph NNE6.1 kmh NNE 6.9 mph11.1 kmh 30.39 in1029.1 mb 0.00 in0.0 mm 0.00 in/hr0.0 mm/hr 0.00 in0.0 mm
07:18 AM 40.1°F4.5°C 20.5°F-6.4°C 45% 4.5 mph NNE7.2 kmh NNE 11.4 mph18.3 kmh 30.39 in1029.1 mb 0.00 in0.0 mm 0.00 in/hr0.0 mm/hr 0.00 in0.0 mm
07:19 AM 40.3°F4.6°C 20.7°F-6.3°C 45% 3.8 mph NNE6.1 kmh NNE 11.4 mph18.3 kmh 30.39 in1029.1 mb 0.00 in0.0 mm 0.00 in/hr0.0 mm/hr 0.00 in0.0 mm
07:20 AM 40.3°F4.6°C 20.7°F-6.3°C 45% 3.8 mph NNE6.1 kmh NNE 11.4 mph18.3 kmh 30.39 in1029.1 mb 0.00 in0.0 mm 0.00 in/hr0.0 mm/hr 0.00 in0.0 mm
07:21 AM 40.3°F4.6°C 20.7°F-6.3°C 45% 6.0 mph N9.7 kmh N 11.4 mph18.3 kmh 30.39 in1029.1 mb 0.00 in0.0 mm 0.00 in/hr0.0 mm/hr 0.00 in0.0 mm
07:22 AM 40.5°F4.7°C 20.8°F-6.2°C 45% 4.5 mph N7.2 kmh N 11.4 mph18.3 kmh 30.39 in1029.1 mb 0.00 in0.0 mm 0.00 in/hr0.0 mm/hr 0.00 in0.0 mm
07:23 AM 40.5°F4.7°C 20.8°F-6.2°C 45% 3.1 mph N5.0 kmh N 11.4 mph18.3 kmh 30.39 in1029.1 mb 0.00 in0.0 mm 0.00 in/hr0.0 mm/hr 0.00 in0.0 mm
07:24 AM 40.5°F4.7°C 20.8°F-6.2°C 45% 3.8 mph N6.1 kmh N 11.4 mph18.3 kmh 30.39 in1029.1 mb 0.00 in0.0 mm 0.00 in/hr0.0 mm/hr 0.00 in0.0 mm
07:25 AM 40.6°F4.8°C 21.0°F-6.1°C 45% 3.8 mph N6.1 kmh N 11.4 mph18.3 kmh 30.39 in1029.1 mb 0.00 in0.0 mm 0.00 in/hr0.0 mm/hr 0.00 in0.0 mm
07:26 AM 41.0°F5.0°C 20.2°F-6.6°C 43% 3.8 mph N6.1 kmh N 11.4 mph18.3 kmh 30.39 in1029.1 mb 0.00 in0.0 mm 0.00 in/hr0.0 mm/hr 0.00 in0.0 mm
07:27 AM 41.2°F5.1°C 20.4°F-6.4°C 43% 1.6 mph NNW2.6 kmh NNW 11.4 mph18.3 kmh 30.39 in1029.1 mb 0.00 in0.0 mm 0.00 in/hr0.0 mm/hr 0.00 in0.0 mm
07:28 AM 41.2°F5.1°C 20.4°F-6.4°C 43% 3.1 mph NNW5.0 kmh NNW 11.4 mph18.3 kmh 30.39 in1029.1 mb 0.00 in0.0 mm 0.00 in/hr0.0 mm/hr 0.00 in0.0 mm
07:29 AM 41.0°F5.0°C 20.2°F-6.6°C 43% 1.6 mph N2.6 kmh N 9.8 mph15.8 kmh 30.39 in1029.1 mb 0.00 in0.0 mm 0.00 in/hr0.0 mm/hr 0.00 in0.0 mm
07:30 AM 41.2°F5.1°C 20.4°F-6.4°C 43% 3.1 mph N5.0 kmh N 9.8 mph15.8 kmh 30.39 in1029.1 mb 0.00 in0.0 mm 0.00 in/hr0.0 mm/hr 0.00 in0.0 mm
07:31 AM 41.2°F5.1°C 20.4°F-6.4°C 43% 3.8 mph N6.1 kmh N 9.8 mph15.8 kmh 30.39 in1029.1 mb 0.00 in0.0 mm 0.00 in/hr0.0 mm/hr 0.00 in0.0 mm
07:32 AM 41.4°F5.2°C 20.6°F-6.3°C 43% 6.0 mph N9.7 kmh N 9.2 mph14.8 kmh 30.40 in1029.5 mb 0.00 in0.0 mm 0.00 in/hr0.0 mm/hr 0.00 in0.0 mm
07:33 AM 41.4°F5.2°C 19.5°F-6.9°C 41% 4.5 mph N7.2 kmh N 9.2 mph14.8 kmh 30.39 in1029.1 mb 0.00 in0.0 mm 0.00 in/hr0.0 mm/hr 0.00 in0.0 mm
07:34 AM 41.4°F5.2°C 18.9°F-7.3°C 40% 3.8 mph N6.1 kmh N 9.2 mph14.8 kmh 30.39 in1029.1 mb 0.00 in0.0 mm 0.00 in/hr0.0 mm/hr 0.00 in0.0 mm
07:35 AM 41.4°F5.2°C 19.5°F-6.9°C 41% 3.1 mph N5.0 kmh N 9.2 mph14.8 kmh 30.40 in1029.5 mb 0.00 in0.0 mm 0.00 in/hr0.0 mm/hr 0.00 in0.0 mm
07:36 AM 41.7°F5.4°C 19.8°F-6.8°C 41% 4.5 mph N7.2 kmh N 9.8 mph15.8 kmh 30.40 in1029.5 mb 0.00 in0.0 mm 0.00 in/hr0.0 mm/hr 0.00 in0.0 mm
07:37 AM 41.5°F5.3°C 19.6°F-6.9°C 41% 6.0 mph N9.7 kmh N 10.7 mph17.2 kmh 30.40 in1029.5 mb 0.00 in0.0 mm 0.00 in/hr0.0 mm/hr 0.00 in0.0 mm
07:38 AM 41.5°F5.3°C 19.0°F-7.2°C 40% 6.0 mph NNE9.7 kmh NNE 10.7 mph17.2 kmh 30.40 in1029.5 mb 0.00 in0.0 mm 0.00 in/hr0.0 mm/hr 0.00 in0.0 mm
07:39 AM 41.7°F5.4°C 18.0°F-7.8°C 38% 3.1 mph NNE5.0 kmh NNE 10.7 mph17.2 kmh 30.39 in1029.1 mb 0.00 in0.0 mm 0.00 in/hr0.0 mm/hr 0.00 in0.0 mm
07:40 AM 41.9°F5.5°C 19.4°F-7.0°C 40% 3.1 mph NNE5.0 kmh NNE 10.7 mph17.2 kmh 30.40 in1029.5 mb 0.00 in0.0 mm 0.00 in/hr0.0 mm/hr 0.00 in0.0 mm
07:41 AM 41.9°F5.5°C 19.4°F-7.0°C 40% 4.5 mph NNE7.2 kmh NNE 10.7 mph17.2 kmh 30.40 in1029.5 mb 0.00 in0.0 mm 0.00 in/hr0.0 mm/hr 0.00 in0.0 mm
07:42 AM 41.9°F5.5°C 19.4°F-7.0°C 40% 3.8 mph N6.1 kmh N 10.7 mph17.2 kmh 30.40 in1029.5 mb 0.00 in0.0 mm 0.00 in/hr0.0 mm/hr 0.00 in0.0 mm
07:43 AM 41.7°F5.4°C 19.2°F-7.1°C 40% 4.5 mph N7.2 kmh N 10.7 mph17.2 kmh 30.40 in1029.5 mb 0.00 in0.0 mm 0.00 in/hr0.0 mm/hr 0.00 in0.0 mm
07:44 AM 42.1°F5.6°C 18.3°F-7.6°C 38% 4.5 mph N7.2 kmh N 10.7 mph17.2 kmh 30.40 in1029.5 mb 0.00 in0.0 mm 0.00 in/hr0.0 mm/hr 0.00 in0.0 mm
07:45 AM 42.1°F5.6°C 18.3°F-7.6°C 38% 3.8 mph N6.1 kmh N 10.7 mph17.2 kmh 30.40 in1029.5 mb 0.00 in0.0 mm 0.00 in/hr0.0 mm/hr 0.00 in0.0 mm
07:46 AM 42.1°F5.6°C 18.3°F-7.6°C 38% 4.5 mph N7.2 kmh N 10.7 mph17.2 kmh 30.40 in1029.5 mb 0.00 in0.0 mm 0.00 in/hr0.0 mm/hr 0.00 in0.0 mm
07:47 AM 42.1°F5.6°C 17.7°F-7.9°C 37% 5.4 mph N8.7 kmh N 10.7 mph17.2 kmh 30.40 in1029.5 mb 0.00 in0.0 mm 0.00 in/hr0.0 mm/hr 0.00 in0.0 mm
07:48 AM 42.1°F5.6°C 17.7°F-7.9°C 37% 3.8 mph N6.1 kmh N 9.2 mph14.8 kmh 30.40 in1029.5 mb 0.00 in0.0 mm 0.00 in/hr0.0 mm/hr 0.00 in0.0 mm
07:49 AM 42.1°F5.6°C 18.3°F-7.6°C 38% 3.1 mph N5.0 kmh N 9.2 mph14.8 kmh 30.40 in1029.5 mb 0.00 in0.0 mm 0.00 in/hr0.0 mm/hr 0.00 in0.0 mm
07:50 AM 42.3°F5.7°C 18.5°F-7.5°C 38% 5.4 mph N8.7 kmh N 9.2 mph14.8 kmh 30.40 in1029.5 mb 0.00 in0.0 mm 0.00 in/hr0.0 mm/hr 0.00 in0.0 mm
07:51 AM 42.1°F5.6°C 17.7°F-7.9°C 37% 6.9 mph N11.1 kmh N 9.8 mph15.8 kmh 30.40 in1029.5 mb 0.00 in0.0 mm 0.00 in/hr0.0 mm/hr 0.00 in0.0 mm
07:52 AM 42.3°F5.7°C 17.2°F-8.2°C 36% 3.8 mph N6.1 kmh N 9.8 mph15.8 kmh 30.40 in1029.5 mb 0.00 in0.0 mm 0.00 in/hr0.0 mm/hr 0.00 in0.0 mm
07:53 AM 42.3°F5.7°C 17.2°F-8.2°C 36% 5.4 mph N8.7 kmh N 9.8 mph15.8 kmh 30.41 in1029.8 mb 0.00 in0.0 mm 0.00 in/hr0.0 mm/hr 0.00 in0.0 mm
07:54 AM 42.3°F5.7°C 16.6°F-8.6°C 35% 6.9 mph N11.1 kmh N 12.1 mph19.5 kmh 30.41 in1029.8 mb 0.00 in0.0 mm 0.00 in/hr0.0 mm/hr 0.00 in0.0 mm
07:55 AM 42.1°F5.6°C 15.1°F-9.4°C 33% 6.0 mph N9.7 kmh N 12.1 mph19.5 kmh 30.41 in1029.8 mb 0.00 in0.0 mm 0.00 in/hr0.0 mm/hr 0.00 in0.0 mm
07:56 AM 42.1°F5.6°C 15.1°F-9.4°C 33% 5.4 mph N8.7 kmh N 12.1 mph19.5 kmh 30.40 in1029.5 mb 0.00 in0.0 mm 0.00 in/hr0.0 mm/hr 0.00 in0.0 mm
07:57 AM 42.3°F5.7°C 15.2°F-9.3°C 33% 5.4 mph N8.7 kmh N 12.1 mph19.5 kmh 30.40 in1029.5 mb 0.00 in0.0 mm 0.00 in/hr0.0 mm/hr 0.00 in0.0 mm
07:58 AM 42.3°F5.7°C 15.2°F-9.3°C 33% 5.4 mph N8.7 kmh N 12.1 mph19.5 kmh 30.40 in1029.5 mb 0.00 in0.0 mm 0.00 in/hr0.0 mm/hr 0.00 in0.0 mm
07:59 AM 42.3°F5.7°C 15.2°F-9.3°C 33% 3.1 mph N5.0 kmh N 12.1 mph19.5 kmh 30.40 in1029.5 mb 0.00 in0.0 mm 0.00 in/hr0.0 mm/hr 0.00 in0.0 mm
08:00 AM 42.6°F5.9°C 16.9°F-8.4°C 35% 6.9 mph N11.1 kmh N 13.0 mph20.9 kmh 30.40 in1029.5 mb 0.00 in0.0 mm 0.00 in/hr0.0 mm/hr 0.00 in0.0 mm
08:01 AM 42.6°F5.9°C 16.9°F-8.4°C 35% 6.9 mph N11.1 kmh N 13.0 mph20.9 kmh 30.40 in1029.5 mb 0.00 in0.0 mm 0.00 in/hr0.0 mm/hr 0.00 in0.0 mm
08:02 AM 42.3°F5.7°C 15.2°F-9.3°C 33% 8.3 mph N13.4 kmh N 13.0 mph20.9 kmh 30.40 in1029.5 mb 0.00 in0.0 mm 0.00 in/hr0.0 mm/hr 0.00 in0.0 mm
08:03 AM 42.3°F5.7°C 14.5°F-9.7°C 32% 7.6 mph N12.2 kmh N 13.0 mph20.9 kmh 30.41 in1029.8 mb 0.00 in0.0 mm 0.00 in/hr0.0 mm/hr 0.00 in0.0 mm
08:04 AM 42.6°F5.9°C 14.9°F-9.5°C 32% 6.9 mph N11.1 kmh N 13.0 mph20.9 kmh 30.40 in1029.5 mb 0.00 in0.0 mm 0.00 in/hr0.0 mm/hr 0.00 in0.0 mm
08:05 AM 43.0°F6.1°C 15.2°F-9.3°C 32% 4.5 mph N7.2 kmh N 13.0 mph20.9 kmh 30.40 in1029.5 mb 0.00 in0.0 mm 0.00 in/hr0.0 mm/hr 0.00 in0.0 mm
08:06 AM 42.8°F6.0°C 14.3°F-9.8°C 31% 5.4 mph N8.7 kmh N 13.0 mph20.9 kmh 30.40 in1029.5 mb 0.00 in0.0 mm 0.00 in/hr0.0 mm/hr 0.00 in0.0 mm
08:07 AM 42.4°F5.8°C 14.7°F-9.6°C 32% 3.8 mph N6.1 kmh N 13.0 mph20.9 kmh 30.40 in1029.5 mb 0.00 in0.0 mm 0.00 in/hr0.0 mm/hr 0.00 in0.0 mm
08:08 AM 42.8°F6.0°C 15.0°F-9.4°C 32% 7.6 mph N12.2 kmh N 13.0 mph20.9 kmh 30.40 in1029.5 mb 0.00 in0.0 mm 0.00 in/hr0.0 mm/hr 0.00 in0.0 mm
08:09 AM 42.6°F5.9°C 14.9°F-9.5°C 32% 6.9 mph N11.1 kmh N 13.0 mph20.9 kmh 30.40 in1029.5 mb 0.00 in0.0 mm 0.00 in/hr0.0 mm/hr 0.00 in0.0 mm
08:10 AM 42.6°F5.9°C 14.9°F-9.5°C 32% 3.8 mph N6.1 kmh N 13.0 mph20.9 kmh 30.40 in1029.5 mb 0.00 in0.0 mm 0.00 in/hr0.0 mm/hr 0.00 in0.0 mm
08:11 AM 43.0°F6.1°C 14.4°F-9.8°C 31% 4.5 mph N7.2 kmh N 13.0 mph20.9 kmh 30.41 in1029.8 mb 0.00 in0.0 mm 0.00 in/hr0.0 mm/hr 0.00 in0.0 mm
08:12 AM 43.2°F6.2°C 14.6°F-9.7°C 31% 7.6 mph NNE12.2 kmh NNE 12.1 mph19.5 kmh 30.41 in1029.8 mb 0.00 in0.0 mm 0.00 in/hr0.0 mm/hr 0.00 in0.0 mm
08:13 AM 43.0°F6.1°C 14.4°F-9.8°C 31% 6.0 mph NNE9.7 kmh NNE 12.1 mph19.5 kmh 30.41 in1029.8 mb 0.00 in0.0 mm 0.00 in/hr0.0 mm/hr 0.00 in0.0 mm
08:14 AM 42.8°F6.0°C 14.3°F-9.8°C 31% 11.4 mph NNE18.3 kmh NNE 16.8 mph27.0 kmh 30.41 in1029.8 mb 0.00 in0.0 mm 0.00 in/hr0.0 mm/hr 0.00 in0.0 mm
08:15 AM 42.6°F5.9°C 14.1°F-9.9°C 31% 7.6 mph NNE12.2 kmh NNE 16.8 mph27.0 kmh 30.40 in1029.5 mb 0.00 in0.0 mm 0.00 in/hr0.0 mm/hr 0.00 in0.0 mm
08:16 AM 42.8°F6.0°C 13.5°F-10.3°C 30% 4.5 mph N7.2 kmh N 16.8 mph27.0 kmh 30.41 in1029.8 mb 0.00 in0.0 mm 0.00 in/hr0.0 mm/hr 0.00 in0.0 mm
08:17 AM 43.0°F6.1°C 13.7°F-10.2°C 30% 5.4 mph N8.7 kmh N 16.8 mph27.0 kmh 30.41 in1029.8 mb 0.00 in0.0 mm 0.00 in/hr0.0 mm/hr 0.00 in0.0 mm
08:18 AM 43.0°F6.1°C 13.7°F-10.2°C 30% 5.4 mph N8.7 kmh N 16.8 mph27.0 kmh 30.41 in1029.8 mb 0.00 in0.0 mm 0.00 in/hr0.0 mm/hr 0.00 in0.0 mm
08:19 AM 43.0°F6.1°C 13.7°F-10.2°C 30% 8.3 mph NNE13.4 kmh NNE 16.8 mph27.0 kmh 30.41 in1029.8 mb 0.00 in0.0 mm 0.00 in/hr0.0 mm/hr 0.00 in0.0 mm
08:20 AM 42.8°F6.0°C 11.2°F-11.6°C 27% 5.4 mph NNE8.7 kmh NNE 16.8 mph27.0 kmh 30.41 in1029.8 mb 0.00 in0.0 mm 0.00 in/hr0.0 mm/hr 0.00 in0.0 mm
08:21 AM 43.2°F6.2°C 12.3°F-10.9°C 28% 7.6 mph NNE12.2 kmh NNE 16.8 mph27.0 kmh 30.41 in1029.8 mb 0.00 in0.0 mm 0.00 in/hr0.0 mm/hr 0.00 in0.0 mm
08:22 AM 43.0°F6.1°C 12.1°F-11.1°C 28% 6.0 mph N9.7 kmh N 16.8 mph27.0 kmh 30.41 in1029.8 mb 0.00 in0.0 mm 0.00 in/hr0.0 mm/hr 0.00 in0.0 mm
08:23 AM 43.0°F6.1°C 11.3°F-11.5°C 27% 6.0 mph N9.7 kmh N 16.8 mph27.0 kmh 30.41 in1029.8 mb 0.00 in0.0 mm 0.00 in/hr0.0 mm/hr 0.00 in0.0 mm
08:24 AM 43.7°F6.5°C 12.8°F-10.7°C 28% 3.1 mph N5.0 kmh N 16.8 mph27.0 kmh 30.41 in1029.8 mb 0.00 in0.0 mm 0.00 in/hr0.0 mm/hr 0.00 in0.0 mm
08:25 AM 43.9°F6.6°C 14.5°F-9.7°C 30% 2.2 mph N3.5 kmh N 13.0 mph20.9 kmh 30.41 in1029.8 mb 0.00 in0.0 mm 0.00 in/hr0.0 mm/hr 0.00 in0.0 mm
08:26 AM 44.4°F6.9°C 15.0°F-9.4°C 30% 4.5 mph N7.2 kmh N 13.6 mph21.9 kmh 30.41 in1029.8 mb 0.00 in0.0 mm 0.00 in/hr0.0 mm/hr 0.00 in0.0 mm
08:27 AM 44.1°F6.7°C 14.6°F-9.7°C 30% 7.6 mph NNE12.2 kmh NNE 17.4 mph28.0 kmh 30.41 in1029.8 mb 0.00 in0.0 mm 0.00 in/hr0.0 mm/hr 0.00 in0.0 mm
08:28 AM 43.9°F6.6°C 14.5°F-9.7°C 30% 6.9 mph NE11.1 kmh NE 17.4 mph28.0 kmh 30.41 in1029.8 mb 0.00 in0.0 mm 0.00 in/hr0.0 mm/hr 0.00 in0.0 mm
08:29 AM 43.7°F6.5°C 14.3°F-9.8°C 30% 5.4 mph NNE8.7 kmh NNE 17.4 mph28.0 kmh 30.41 in1029.8 mb 0.00 in0.0 mm 0.00 in/hr0.0 mm/hr 0.00 in0.0 mm
08:30 AM 43.9°F6.6°C 14.5°F-9.7°C 30% 6.9 mph NNE11.1 kmh NNE 17.4 mph28.0 kmh 30.41 in1029.8 mb 0.00 in0.0 mm 0.00 in/hr0.0 mm/hr 0.00 in0.0 mm
08:31 AM 43.5°F6.4°C 12.6°F-10.8°C 28% 3.8 mph NE6.1 kmh NE 17.4 mph28.0 kmh 30.41 in1029.8 mb 0.00 in0.0 mm 0.00 in/hr0.0 mm/hr 0.00 in0.0 mm
08:32 AM 43.7°F6.5°C 12.8°F-10.7°C 28% 6.0 mph NE9.7 kmh NE 17.4 mph28.0 kmh 30.41 in1029.8 mb 0.00 in0.0 mm 0.00 in/hr0.0 mm/hr 0.00 in0.0 mm
08:33 AM 43.9°F6.6°C 12.9°F-10.6°C 28% 4.5 mph NE7.2 kmh NE 17.4 mph28.0 kmh 30.41 in1029.8 mb 0.00 in0.0 mm 0.00 in/hr0.0 mm/hr 0.00 in0.0 mm
08:34 AM 43.9°F6.6°C 12.9°F-10.6°C 28% 9.8 mph NE15.8 kmh NE 17.4 mph28.0 kmh 30.41 in1029.8 mb 0.00 in0.0 mm 0.00 in/hr0.0 mm/hr 0.00 in0.0 mm
08:35 AM 43.5°F6.4°C 11.8°F-11.2°C 27% 6.9 mph NE11.1 kmh NE 17.4 mph28.0 kmh 30.41 in1029.8 mb 0.00 in0.0 mm 0.00 in/hr0.0 mm/hr 0.00 in0.0 mm
08:36 AM 43.9°F6.6°C 12.1°F-11.1°C 27% 6.0 mph NE9.7 kmh NE 17.4 mph28.0 kmh 30.41 in1029.8 mb 0.00 in0.0 mm 0.00 in/hr0.0 mm/hr 0.00 in0.0 mm
08:37 AM 44.1°F6.7°C 11.4°F-11.4°C 26% 7.6 mph NNE12.2 kmh NNE 14.5 mph23.3 kmh 30.41 in1029.8 mb 0.00 in0.0 mm 0.00 in/hr0.0 mm/hr 0.00 in0.0 mm
08:38 AM 43.7°F6.5°C 11.1°F-11.6°C 26% 9.2 mph N14.8 kmh N 13.0 mph20.9 kmh 30.41 in1029.8 mb 0.00 in0.0 mm 0.00 in/hr0.0 mm/hr 0.00 in0.0 mm
08:39 AM 43.7°F6.5°C 10.2°F-12.1°C 25% 7.6 mph N12.2 kmh N 13.0 mph20.9 kmh 30.41 in1029.8 mb 0.00 in0.0 mm 0.00 in/hr0.0 mm/hr 0.00 in0.0 mm
08:40 AM 43.5°F6.4°C 10.1°F-12.2°C 25% 7.6 mph N12.2 kmh N 16.8 mph27.0 kmh 30.41 in1029.8 mb 0.00 in0.0 mm 0.00 in/hr0.0 mm/hr 0.00 in0.0 mm
08:41 AM 44.1°F6.7°C 10.5°F-11.9°C 25% 13.6 mph N21.9 kmh N 19.7 mph31.7 kmh 30.41 in1029.8 mb 0.00 in0.0 mm 0.00 in/hr0.0 mm/hr 0.00 in0.0 mm
08:42 AM 43.3°F6.3°C 9.9°F-12.3°C 25% 9.2 mph N14.8 kmh N 19.7 mph31.7 kmh 30.41 in1029.8 mb 0.00 in0.0 mm 0.00 in/hr0.0 mm/hr 0.00 in0.0 mm
08:43 AM 43.9°F6.6°C 10.4°F-12.0°C 25% 6.9 mph N11.1 kmh N 19.7 mph31.7 kmh 30.41 in1029.8 mb 0.00 in0.0 mm 0.00 in/hr0.0 mm/hr 0.00 in0.0 mm
08:44 AM 44.1°F6.7°C 10.5°F-11.9°C 25% 6.0 mph N9.7 kmh N 19.7 mph31.7 kmh 30.41 in1029.8 mb 0.00 in0.0 mm 0.00 in/hr0.0 mm/hr 0.00 in0.0 mm
08:45 AM 44.6°F7.0°C 11.0°F-11.7°C 25% 8.3 mph NNW13.4 kmh NNW 19.7 mph31.7 kmh 30.41 in1029.8 mb 0.00 in0.0 mm 0.00 in/hr0.0 mm/hr 0.00 in0.0 mm
08:46 AM 43.9°F6.6°C 10.4°F-12.0°C 25% 6.0 mph NNW9.7 kmh NNW 19.7 mph31.7 kmh 30.41 in1029.8 mb 0.00 in0.0 mm 0.00 in/hr0.0 mm/hr 0.00 in0.0 mm
08:47 AM 44.1°F6.7°C 10.5°F-11.9°C 25% 12.1 mph N19.5 kmh N 19.7 mph31.7 kmh 30.41 in1029.8 mb 0.00 in0.0 mm 0.00 in/hr0.0 mm/hr 0.00 in0.0 mm
08:48 AM 43.5°F6.4°C 10.1°F-12.2°C 25% 13.0 mph N20.9 kmh N 19.7 mph31.7 kmh 30.41 in1029.8 mb 0.00 in0.0 mm 0.00 in/hr0.0 mm/hr 0.00 in0.0 mm
08:49 AM 43.7°F6.5°C 8.4°F-13.1°C 23% 5.4 mph N8.7 kmh N 19.7 mph31.7 kmh 30.41 in1029.8 mb 0.00 in0.0 mm 0.00 in/hr0.0 mm/hr 0.00 in0.0 mm
08:50 AM 43.9°F6.6°C 8.5°F-13.1°C 23% 5.4 mph N8.7 kmh N 19.7 mph31.7 kmh 30.42 in1030.1 mb 0.00 in0.0 mm 0.00 in/hr0.0 mm/hr 0.00 in0.0 mm
08:51 AM 44.4°F6.9°C 10.8°F-11.8°C 25% 7.6 mph N12.2 kmh N 19.7 mph31.7 kmh 30.41 in1029.8 mb 0.00 in0.0 mm 0.00 in/hr0.0 mm/hr 0.00 in0.0 mm
08:52 AM 44.4°F6.9°C 10.8°F-11.8°C 25% 8.3 mph N13.4 kmh N 18.3 mph29.5 kmh 30.42 in1030.1 mb 0.00 in0.0 mm 0.00 in/hr0.0 mm/hr 0.00 in0.0 mm
08:53 AM 44.8°F7.1°C 9.3°F-12.6°C 23% 6.9 mph N11.1 kmh N 18.3 mph29.5 kmh 30.42 in1030.1 mb 0.00 in0.0 mm 0.00 in/hr0.0 mm/hr 0.00 in0.0 mm
08:54 AM 44.2°F6.8°C 8.8°F-12.9°C 23% 6.0 mph N9.7 kmh N 18.3 mph29.5 kmh 30.42 in1030.1 mb 0.00 in0.0 mm 0.00 in/hr0.0 mm/hr 0.00 in0.0 mm
08:55 AM 44.6°F7.0°C 8.1°F-13.3°C 22% 11.4 mph NNE18.3 kmh NNE 18.3 mph29.5 kmh 30.42 in1030.1 mb 0.00 in0.0 mm 0.00 in/hr0.0 mm/hr 0.00 in0.0 mm
08:56 AM 43.9°F6.6°C 8.5°F-13.1°C 23% 9.2 mph NE14.8 kmh NE 18.3 mph29.5 kmh 30.42 in1030.1 mb 0.00 in0.0 mm 0.00 in/hr0.0 mm/hr 0.00 in0.0 mm
08:57 AM 44.2°F6.8°C 10.7°F-11.8°C 25% 9.8 mph NE15.8 kmh NE 18.3 mph29.5 kmh 30.42 in1030.1 mb 0.00 in0.0 mm 0.00 in/hr0.0 mm/hr 0.00 in0.0 mm
08:58 AM 44.1°F6.7°C 8.7°F-12.9°C 23% 9.8 mph NE15.8 kmh NE 18.3 mph29.5 kmh 30.42 in1030.1 mb 0.00 in0.0 mm 0.00 in/hr0.0 mm/hr 0.00 in0.0 mm
08:59 AM 44.6°F7.0°C 9.1°F-12.7°C 23% 9.8 mph NE15.8 kmh NE 18.3 mph29.5 kmh 30.42 in1030.1 mb 0.00 in0.0 mm 0.00 in/hr0.0 mm/hr 0.00 in0.0 mm
09:00 AM 44.6°F7.0°C 9.1°F-12.7°C 23% 6.0 mph ENE9.7 kmh ENE 18.3 mph29.5 kmh 30.42 in1030.1 mb 0.00 in0.0 mm 0.00 in/hr0.0 mm/hr 0.00 in0.0 mm
09:01 AM 44.6°F7.0°C 9.1°F-12.7°C 23% 7.6 mph NE12.2 kmh NE 18.3 mph29.5 kmh 30.42 in1030.1 mb 0.00 in0.0 mm 0.00 in/hr0.0 mm/hr 0.00 in0.0 mm
09:02 AM 44.8°F7.1°C 9.3°F-12.6°C 23% 9.2 mph NE14.8 kmh NE 18.3 mph29.5 kmh 30.42 in1030.1 mb 0.00 in0.0 mm 0.00 in/hr0.0 mm/hr 0.00 in0.0 mm
09:03 AM 44.8°F7.1°C 9.3°F-12.6°C 23% 12.1 mph NE19.5 kmh NE 18.3 mph29.5 kmh 30.42 in1030.1 mb 0.00 in0.0 mm 0.00 in/hr0.0 mm/hr 0.00 in0.0 mm
09:04 AM 44.4°F6.9°C 10.8°F-11.8°C 25% 9.2 mph NE14.8 kmh NE 18.3 mph29.5 kmh 30.42 in1030.1 mb 0.00 in0.0 mm 0.00 in/hr0.0 mm/hr 0.00 in0.0 mm
09:05 AM 45.0°F7.2°C 9.4°F-12.6°C 23% 5.4 mph NE8.7 kmh NE 16.8 mph27.0 kmh 30.42 in1030.1 mb 0.00 in0.0 mm 0.00 in/hr0.0 mm/hr 0.00 in0.0 mm
09:06 AM 45.0°F7.2°C 9.4°F-12.6°C 23% 9.2 mph NE14.8 kmh NE 16.8 mph27.0 kmh 30.41 in1029.8 mb 0.00 in0.0 mm 0.00 in/hr0.0 mm/hr 0.00 in0.0 mm
09:07 AM 44.8°F7.1°C 8.3°F-13.2°C 22% 7.6 mph NE12.2 kmh NE 16.8 mph27.0 kmh 30.42 in1030.1 mb 0.00 in0.0 mm 0.00 in/hr0.0 mm/hr 0.00 in0.0 mm
09:08 AM 44.8°F7.1°C 8.3°F-13.2°C 22% 4.5 mph NE7.2 kmh NE 16.8 mph27.0 kmh 30.42 in1030.1 mb 0.00 in0.0 mm 0.00 in/hr0.0 mm/hr 0.00 in0.0 mm
09:09 AM 45.1°F7.3°C 9.6°F-12.4°C 23% 5.4 mph NE8.7 kmh NE 16.8 mph27.0 kmh 30.42 in1030.1 mb 0.00 in0.0 mm 0.00 in/hr0.0 mm/hr 0.00 in0.0 mm
09:10 AM 45.5°F7.5°C 9.9°F-12.3°C 23% 6.0 mph NE9.7 kmh NE 16.8 mph27.0 kmh 30.42 in1030.1 mb 0.00 in0.0 mm 0.00 in/hr0.0 mm/hr 0.00 in0.0 mm
09:11 AM 46.0°F7.8°C 10.3°F-12.1°C 23% 6.0 mph NE9.7 kmh NE 16.8 mph27.0 kmh 30.41 in1029.8 mb 0.00 in0.0 mm 0.00 in/hr0.0 mm/hr 0.00 in0.0 mm
09:12 AM 46.6°F8.1°C 14.4°F-9.8°C 27% 6.9 mph ENE11.1 kmh ENE 16.8 mph27.0 kmh 30.42 in1030.1 mb 0.00 in0.0 mm 0.00 in/hr0.0 mm/hr 0.00 in0.0 mm
09:13 AM 45.7°F7.6°C 10.0°F-12.2°C 23% 6.0 mph ENE9.7 kmh ENE 17.4 mph28.0 kmh 30.41 in1029.8 mb 0.00 in0.0 mm 0.00 in/hr0.0 mm/hr 0.00 in0.0 mm
09:14 AM 45.7°F7.6°C 10.0°F-12.2°C 23% 7.6 mph NE12.2 kmh NE 17.4 mph28.0 kmh 30.41 in1029.8 mb 0.00 in0.0 mm 0.00 in/hr0.0 mm/hr 0.00 in0.0 mm
09:15 AM 45.3°F7.4°C 9.7°F-12.4°C 23% 7.6 mph NE12.2 kmh NE 17.4 mph28.0 kmh 30.41 in1029.8 mb 0.00 in0.0 mm 0.00 in/hr0.0 mm/hr 0.00 in0.0 mm
09:16 AM 45.3°F7.4°C 8.7°F-12.9°C 22% 9.2 mph NE14.8 kmh NE 17.4 mph28.0 kmh 30.41 in1029.8 mb 0.00 in0.0 mm 0.00 in/hr0.0 mm/hr 0.00 in0.0 mm
09:17 AM 45.0°F7.2°C 8.4°F-13.1°C 22% 8.3 mph NE13.4 kmh NE 17.4 mph28.0 kmh 30.42 in1030.1 mb 0.00 in0.0 mm 0.00 in/hr0.0 mm/hr 0.00 in0.0 mm
09:18 AM 45.1°F7.3°C 8.6°F-13.0°C 22% 6.0 mph NE9.7 kmh NE 17.4 mph28.0 kmh 30.41 in1029.8 mb 0.00 in0.0 mm 0.00 in/hr0.0 mm/hr 0.00 in0.0 mm
09:19 AM 45.7°F7.6°C 9.0°F-12.8°C 22% 4.5 mph NE7.2 kmh NE 17.4 mph28.0 kmh 30.41 in1029.8 mb 0.00 in0.0 mm 0.00 in/hr0.0 mm/hr 0.00 in0.0 mm
09:20 AM 46.0°F7.8°C 10.3°F-12.1°C 23% 6.0 mph NE9.7 kmh NE 17.4 mph28.0 kmh 30.41 in1029.8 mb 0.00 in0.0 mm 0.00 in/hr0.0 mm/hr 0.00 in0.0 mm
09:21 AM 46.2°F7.9°C 10.5°F-11.9°C 23% 12.1 mph NE19.5 kmh NE 17.4 mph28.0 kmh 30.41 in1029.8 mb 0.00 in0.0 mm 0.00 in/hr0.0 mm/hr 0.00 in0.0 mm
09:22 AM 45.3°F7.4°C 8.7°F-12.9°C 22% 9.8 mph NE15.8 kmh NE 17.4 mph28.0 kmh 30.42 in1030.1 mb 0.00 in0.0 mm 0.00 in/hr0.0 mm/hr 0.00 in0.0 mm
09:23 AM 45.7°F7.6°C 9.0°F-12.8°C 22% 9.8 mph NNE15.8 kmh NNE 16.8 mph27.0 kmh 30.41 in1029.8 mb 0.00 in0.0 mm 0.00 in/hr0.0 mm/hr 0.00 in0.0 mm
09:24 AM 45.3°F7.4°C 7.7°F-13.5°C 21% 7.6 mph NE12.2 kmh NE 16.8 mph27.0 kmh 30.41 in1029.8 mb 0.00 in0.0 mm 0.00 in/hr0.0 mm/hr 0.00 in0.0 mm
09:25 AM 46.0°F7.8°C 9.3°F-12.6°C 22% 7.6 mph NE12.2 kmh NE 16.8 mph27.0 kmh 30.42 in1030.1 mb 0.00 in0.0 mm 0.00 in/hr0.0 mm/hr 0.00 in0.0 mm
09:26 AM 45.7°F7.6°C 9.0°F-12.8°C 22% 9.2 mph NNE14.8 kmh NNE 26.6 mph42.8 kmh 30.41 in1029.8 mb 0.00 in0.0 mm 0.00 in/hr0.0 mm/hr 0.00 in0.0 mm
09:27 AM 45.7°F7.6°C 8.0°F-13.3°C 21% 9.8 mph NE15.8 kmh NE 26.6 mph42.8 kmh 30.41 in1029.8 mb 0.00 in0.0 mm 0.00 in/hr0.0 mm/hr 0.00 in0.0 mm
09:28 AM 45.5°F7.5°C 7.9°F-13.4°C 21% 12.1 mph NNE19.5 kmh NNE 26.6 mph42.8 kmh 30.41 in1029.8 mb 0.00 in0.0 mm 0.00 in/hr0.0 mm/hr 0.00 in0.0 mm
09:29 AM 45.7°F7.6°C 8.0°F-13.3°C 21% 9.2 mph NNE14.8 kmh NNE 26.6 mph42.8 kmh 30.41 in1029.8 mb 0.00 in0.0 mm 0.00 in/hr0.0 mm/hr 0.00 in0.0 mm
09:30 AM 45.7°F7.6°C 8.0°F-13.3°C 21% 7.6 mph NNE12.2 kmh NNE 26.6 mph42.8 kmh 30.42 in1030.1 mb 0.00 in0.0 mm 0.00 in/hr0.0 mm/hr 0.00 in0.0 mm
09:31 AM 45.7°F7.6°C 8.0°F-13.3°C 21% 9.8 mph NNE15.8 kmh NNE 26.6 mph42.8 kmh 30.42 in1030.1 mb 0.00 in0.0 mm 0.00 in/hr0.0 mm/hr 0.00 in0.0 mm
09:32 AM 45.5°F7.5°C 6.8°F-14.0°C 20% 6.9 mph N11.1 kmh N 26.6 mph42.8 kmh 30.42 in1030.1 mb 0.00 in0.0 mm 0.00 in/hr0.0 mm/hr 0.00 in0.0 mm
09:33 AM 45.9°F7.7°C 7.1°F-13.8°C 20% 7.6 mph N12.2 kmh N 26.6 mph42.8 kmh 30.42 in1030.1 mb 0.00 in0.0 mm 0.00 in/hr0.0 mm/hr 0.00 in0.0 mm
09:34 AM 46.0°F7.8°C 7.2°F-13.8°C 20% 5.4 mph NNE8.7 kmh NNE 26.6 mph42.8 kmh 30.42 in1030.1 mb 0.00 in0.0 mm 0.00 in/hr0.0 mm/hr 0.00 in0.0 mm
09:35 AM 46.2°F7.9°C 8.5°F-13.1°C 21% 7.6 mph NNE12.2 kmh NNE 26.6 mph42.8 kmh 30.41 in1029.8 mb 0.00 in0.0 mm 0.00 in/hr0.0 mm/hr 0.00 in0.0 mm
09:36 AM 46.6°F8.1°C 12.7°F-10.7°C 25% 9.8 mph NNE15.8 kmh NNE 26.6 mph42.8 kmh 30.41 in1029.8 mb 0.00 in0.0 mm 0.00 in/hr0.0 mm/hr 0.00 in0.0 mm
09:37 AM 46.8°F8.2°C 12.8°F-10.7°C 25% 7.6 mph NNE12.2 kmh NNE 18.3 mph29.5 kmh 30.42 in1030.1 mb 0.00 in0.0 mm 0.00 in/hr0.0 mm/hr 0.00 in0.0 mm
09:38 AM 46.2°F7.9°C 8.5°F-13.1°C 21% 7.6 mph NNE12.2 kmh NNE 14.5 mph23.3 kmh 30.41 in1029.8 mb 0.00 in0.0 mm 0.00 in/hr0.0 mm/hr 0.00 in0.0 mm
09:39 AM 45.9°F7.7°C 7.1°F-13.8°C 20% 7.6 mph NNE12.2 kmh NNE 15.2 mph24.5 kmh 30.42 in1030.1 mb 0.00 in0.0 mm 0.00 in/hr0.0 mm/hr 0.00 in0.0 mm
09:40 AM 46.0°F7.8°C 7.2°F-13.8°C 20% 9.2 mph NE14.8 kmh NE 15.2 mph24.5 kmh 30.41 in1029.8 mb 0.00 in0.0 mm 0.00 in/hr0.0 mm/hr 0.00 in0.0 mm
09:41 AM 46.6°F8.1°C 10.8°F-11.8°C 23% 12.1 mph NE19.5 kmh NE 19.0 mph30.6 kmh 30.42 in1030.1 mb 0.00 in0.0 mm 0.00 in/hr0.0 mm/hr 0.00 in0.0 mm
09:42 AM 46.6°F8.1°C 10.8°F-11.8°C 23% 6.9 mph NE11.1 kmh NE 19.0 mph30.6 kmh 30.41 in1029.8 mb 0.00 in0.0 mm 0.00 in/hr0.0 mm/hr 0.00 in0.0 mm
09:43 AM 46.8°F8.2°C 10.9°F-11.7°C 23% 8.3 mph NE13.4 kmh NE 19.0 mph30.6 kmh 30.41 in1029.8 mb 0.00 in0.0 mm 0.00 in/hr0.0 mm/hr 0.00 in0.0 mm
09:44 AM 46.4°F8.0°C 10.6°F-11.9°C 23% 5.4 mph NE8.7 kmh NE 19.0 mph30.6 kmh 30.41 in1029.8 mb 0.00 in0.0 mm 0.00 in/hr0.0 mm/hr 0.00 in0.0 mm
09:45 AM 46.4°F8.0°C 9.7°F-12.4°C 22% 12.1 mph NE19.5 kmh NE 21.3 mph34.3 kmh 30.41 in1029.8 mb 0.00 in0.0 mm 0.00 in/hr0.0 mm/hr 0.00 in0.0 mm
09:46 AM 46.2°F7.9°C 7.4°F-13.7°C 20% 7.6 mph NE12.2 kmh NE 21.3 mph34.3 kmh 30.42 in1030.1 mb 0.00 in0.0 mm 0.00 in/hr0.0 mm/hr 0.00 in0.0 mm
09:47 AM 46.8°F8.2°C 10.9°F-11.7°C 23% 8.3 mph NE13.4 kmh NE 21.3 mph34.3 kmh 30.42 in1030.1 mb 0.00 in0.0 mm 0.00 in/hr0.0 mm/hr 0.00 in0.0 mm
09:48 AM 46.4°F8.0°C 10.6°F-11.9°C 23% 3.8 mph NE6.1 kmh NE 21.3 mph34.3 kmh 30.42 in1030.1 mb 0.00 in0.0 mm 0.00 in/hr0.0 mm/hr 0.00 in0.0 mm
09:49 AM 47.8°F8.8°C 13.7°F-10.2°C 25% 2.2 mph NE3.5 kmh NE 21.3 mph34.3 kmh 30.42 in1030.1 mb 0.00 in0.0 mm 0.00 in/hr0.0 mm/hr 0.00 in0.0 mm
09:50 AM 48.4°F9.1°C 14.2°F-9.9°C 25% 9.2 mph NE14.8 kmh NE 21.3 mph34.3 kmh 30.42 in1030.1 mb 0.00 in0.0 mm 0.00 in/hr0.0 mm/hr 0.00 in0.0 mm
09:51 AM 46.9°F8.3°C 13.0°F-10.6°C 25% 7.6 mph NE12.2 kmh NE 21.3 mph34.3 kmh 30.42 in1030.1 mb 0.00 in0.0 mm 0.00 in/hr0.0 mm/hr 0.00 in0.0 mm
09:52 AM 46.9°F8.3°C 11.1°F-11.6°C 23% 6.0 mph NE9.7 kmh NE 21.3 mph34.3 kmh 30.42 in1030.1 mb 0.00 in0.0 mm 0.00 in/hr0.0 mm/hr 0.00 in0.0 mm
09:53 AM 47.8°F8.8°C 13.7°F-10.2°C 25% 5.4 mph NNE8.7 kmh NNE 21.3 mph34.3 kmh 30.42 in1030.1 mb 0.00 in0.0 mm 0.00 in/hr0.0 mm/hr 0.00 in0.0 mm
09:54 AM 47.7°F8.7°C 13.6°F-10.2°C 25% 7.6 mph NNE12.2 kmh NNE 21.3 mph34.3 kmh 30.42 in1030.1 mb 0.00 in0.0 mm 0.00 in/hr0.0 mm/hr 0.00 in0.0 mm
09:55 AM 47.5°F8.6°C 13.4°F-10.3°C 25% 9.8 mph NNE15.8 kmh NNE 21.3 mph34.3 kmh 30.42 in1030.1 mb 0.00 in0.0 mm 0.00 in/hr0.0 mm/hr 0.00 in0.0 mm
09:56 AM 47.3°F8.5°C 11.4°F-11.4°C 23% 6.9 mph N11.1 kmh N 15.9 mph25.6 kmh 30.42 in1030.1 mb 0.00 in0.0 mm 0.00 in/hr0.0 mm/hr 0.00 in0.0 mm
09:57 AM 47.7°F8.7°C 11.7°F-11.3°C 23% 8.3 mph N13.4 kmh N 16.8 mph27.0 kmh 30.42 in1030.1 mb 0.00 in0.0 mm 0.00 in/hr0.0 mm/hr 0.00 in0.0 mm
09:58 AM 47.1°F8.4°C 11.3°F-11.5°C 23% 11.4 mph N18.3 kmh N 16.8 mph27.0 kmh 30.42 in1030.1 mb 0.00 in0.0 mm 0.00 in/hr0.0 mm/hr 0.00 in0.0 mm
09:59 AM 47.3°F8.5°C 10.4°F-12.0°C 22% 7.6 mph N12.2 kmh N 16.8 mph27.0 kmh 30.42 in1030.1 mb 0.00 in0.0 mm 0.00 in/hr0.0 mm/hr 0.00 in0.0 mm
10:00 AM 47.5°F8.6°C 11.6°F-11.3°C 23% 9.8 mph N15.8 kmh N 16.8 mph27.0 kmh 30.42 in1030.1 mb 0.00 in0.0 mm 0.00 in/hr0.0 mm/hr 0.00 in0.0 mm
10:01 AM 46.9°F8.3°C 10.1°F-12.2°C 22% 11.4 mph N18.3 kmh N 16.8 mph27.0 kmh 30.42 in1030.1 mb 0.00 in0.0 mm 0.00 in/hr0.0 mm/hr 0.00 in0.0 mm
10:02 AM 46.9°F8.3°C 10.1°F-12.2°C 22% 7.6 mph NNE12.2 kmh NNE 16.8 mph27.0 kmh 30.42 in1030.1 mb 0.00 in0.0 mm 0.00 in/hr0.0 mm/hr 0.00 in0.0 mm
10:03 AM 46.9°F8.3°C 10.1°F-12.2°C 22% 6.0 mph NNE9.7 kmh NNE 16.8 mph27.0 kmh 30.42 in1030.1 mb 0.00 in0.0 mm 0.00 in/hr0.0 mm/hr 0.00 in0.0 mm
10:04 AM 48.0°F8.9°C 11.0°F-11.7°C 22% 4.5 mph NE7.2 kmh NE 16.8 mph27.0 kmh 30.42 in1030.1 mb 0.00 in0.0 mm 0.00 in/hr0.0 mm/hr 0.00 in0.0 mm
10:05 AM 48.4°F9.1°C 10.3°F-12.1°C 21% 6.0 mph NE9.7 kmh NE 16.8 mph27.0 kmh 30.42 in1030.1 mb 0.00 in0.0 mm 0.00 in/hr0.0 mm/hr 0.00 in0.0 mm
10:06 AM 48.2°F9.0°C 10.1°F-12.2°C 21% 3.8 mph NE6.1 kmh NE 16.8 mph27.0 kmh 30.42 in1030.1 mb 0.00 in0.0 mm 0.00 in/hr0.0 mm/hr 0.00 in0.0 mm
10:07 AM 48.7°F9.3°C 11.6°F-11.3°C 22% 6.0 mph NE9.7 kmh NE 16.8 mph27.0 kmh 30.42 in1030.1 mb 0.00 in0.0 mm 0.00 in/hr0.0 mm/hr 0.00 in0.0 mm
10:08 AM 48.4°F9.1°C 10.3°F-12.1°C 21% 6.0 mph ENE9.7 kmh ENE 16.8 mph27.0 kmh 30.42 in1030.1 mb 0.00 in0.0 mm 0.00 in/hr0.0 mm/hr 0.00 in0.0 mm
10:09 AM 49.1°F9.5°C 11.9°F-11.2°C 22% 5.4 mph NE8.7 kmh NE 16.8 mph27.0 kmh 30.41 in1029.8 mb 0.00 in0.0 mm 0.00 in/hr0.0 mm/hr 0.00 in0.0 mm
10:10 AM 48.2°F9.0°C 11.2°F-11.6°C 22% 7.6 mph NE12.2 kmh NE 15.2 mph24.5 kmh 30.42 in1030.1 mb 0.00 in0.0 mm 0.00 in/hr0.0 mm/hr 0.00 in0.0 mm
10:11 AM 47.1°F8.4°C 10.3°F-12.1°C 22% 7.6 mph NE12.2 kmh NE 15.2 mph24.5 kmh 30.42 in1030.1 mb 0.00 in0.0 mm 0.00 in/hr0.0 mm/hr 0.00 in0.0 mm
10:12 AM 47.7°F8.7°C 10.7°F-11.8°C 22% 6.0 mph NNE9.7 kmh NNE 12.1 mph19.5 kmh 30.42 in1030.1 mb 0.00 in0.0 mm 0.00 in/hr0.0 mm/hr 0.00 in0.0 mm
10:13 AM 47.8°F8.8°C 10.9°F-11.7°C 22% 8.3 mph NNE13.4 kmh NNE 13.6 mph21.9 kmh 30.42 in1030.1 mb 0.00 in0.0 mm 0.00 in/hr0.0 mm/hr 0.00 in0.0 mm
10:14 AM 48.2°F9.0°C 10.1°F-12.2°C 21% 6.0 mph N9.7 kmh N 13.6 mph21.9 kmh 30.42 in1030.1 mb 0.00 in0.0 mm 0.00 in/hr0.0 mm/hr 0.00 in0.0 mm
10:15 AM 48.4°F9.1°C 10.3°F-12.1°C 21% 6.9 mph N11.1 kmh N 13.6 mph21.9 kmh 30.42 in1030.1 mb 0.00 in0.0 mm 0.00 in/hr0.0 mm/hr 0.00 in0.0 mm
10:16 AM 48.4°F9.1°C 10.3°F-12.1°C 21% 6.9 mph N11.1 kmh N 13.6 mph21.9 kmh 30.41 in1029.8 mb 0.00 in0.0 mm 0.00 in/hr0.0 mm/hr 0.00 in0.0 mm
10:17 AM 48.2°F9.0°C 10.1°F-12.2°C 21% 8.3 mph NNW13.4 kmh NNW 13.6 mph21.9 kmh 30.41 in1029.8 mb 0.00 in0.0 mm 0.00 in/hr0.0 mm/hr 0.00 in0.0 mm
10:18 AM 47.7°F8.7°C 10.7°F-11.8°C 22% 7.6 mph NNW12.2 kmh NNW 13.6 mph21.9 kmh 30.41 in1029.8 mb 0.00 in0.0 mm 0.00 in/hr0.0 mm/hr 0.00 in0.0 mm
10:19 AM 47.5°F8.6°C 10.6°F-11.9°C 22% 7.6 mph NNW12.2 kmh NNW 13.6 mph21.9 kmh 30.41 in1029.8 mb 0.00 in0.0 mm 0.00 in/hr0.0 mm/hr 0.00 in0.0 mm
10:20 AM 49.1°F9.5°C 10.9°F-11.7°C 21% 3.8 mph NNW6.1 kmh NNW 13.6 mph21.9 kmh 30.41 in1029.8 mb 0.00 in0.0 mm 0.00 in/hr0.0 mm/hr 0.00 in0.0 mm
10:21 AM 49.6°F9.8°C 12.4°F-10.9°C 22% 9.2 mph NW14.8 kmh NW 14.5 mph23.3 kmh 30.41 in1029.8 mb 0.00 in0.0 mm 0.00 in/hr0.0 mm/hr 0.00 in0.0 mm
10:22 AM 48.6°F9.2°C 10.4°F-12.0°C 21% 10.7 mph NW17.2 kmh NW 15.9 mph25.6 kmh 30.41 in1029.8 mb 0.00 in0.0 mm 0.00 in/hr0.0 mm/hr 0.00 in0.0 mm
10:23 AM 48.2°F9.0°C 10.1°F-12.2°C 21% 9.8 mph NNW15.8 kmh NNW 15.9 mph25.6 kmh 30.41 in1029.8 mb 0.00 in0.0 mm 0.00 in/hr0.0 mm/hr 0.00 in0.0 mm
10:24 AM 48.0°F8.9°C 11.0°F-11.7°C 22% 6.0 mph NNW9.7 kmh NNW 15.9 mph25.6 kmh 30.41 in1029.8 mb 0.00 in0.0 mm 0.00 in/hr0.0 mm/hr 0.00 in0.0 mm
10:25 AM 48.7°F9.3°C 10.6°F-11.9°C 21% 9.2 mph N14.8 kmh N 15.9 mph25.6 kmh 30.42 in1030.1 mb 0.00 in0.0 mm 0.00 in/hr0.0 mm/hr 0.00 in0.0 mm
10:26 AM 48.6°F9.2°C 10.4°F-12.0°C 21% 9.8 mph N15.8 kmh N 15.9 mph25.6 kmh 30.41 in1029.8 mb 0.00 in0.0 mm 0.00 in/hr0.0 mm/hr 0.00 in0.0 mm
10:27 AM 47.8°F8.8°C 9.8°F-12.3°C 21% 9.2 mph NE14.8 kmh NE 16.8 mph27.0 kmh 30.41 in1029.8 mb 0.00 in0.0 mm 0.00 in/hr0.0 mm/hr 0.00 in0.0 mm
10:28 AM 47.7°F8.7°C 9.7°F-12.4°C 21% 9.8 mph NE15.8 kmh NE 19.7 mph31.7 kmh 30.42 in1030.1 mb 0.00 in0.0 mm 0.00 in/hr0.0 mm/hr 0.00 in0.0 mm
10:29 AM 48.0°F8.9°C 10.0°F-12.2°C 21% 5.4 mph NE8.7 kmh NE 19.7 mph31.7 kmh 30.41 in1029.8 mb 0.00 in0.0 mm 0.00 in/hr0.0 mm/hr 0.00 in0.0 mm
10:30 AM 48.9°F9.4°C 10.7°F-11.8°C 21% 7.6 mph NE12.2 kmh NE 19.7 mph31.7 kmh 30.41 in1029.8 mb 0.00 in0.0 mm 0.00 in/hr0.0 mm/hr 0.00 in0.0 mm
10:31 AM 48.6°F9.2°C 9.3°F-12.6°C 20% 3.8 mph NE6.1 kmh NE 19.7 mph31.7 kmh 30.41 in1029.8 mb 0.00 in0.0 mm 0.00 in/hr0.0 mm/hr 0.00 in0.0 mm
10:32 AM 49.8°F9.9°C 11.5°F-11.4°C 21% 6.9 mph NE11.1 kmh NE 19.7 mph31.7 kmh 30.42 in1030.1 mb 0.00 in0.0 mm 0.00 in/hr0.0 mm/hr 0.00 in0.0 mm
10:33 AM 49.8°F9.9°C 11.5°F-11.4°C 21% 6.9 mph NE11.1 kmh NE 19.7 mph31.7 kmh 30.41 in1029.8 mb 0.00 in0.0 mm 0.00 in/hr0.0 mm/hr 0.00 in0.0 mm
10:34 AM 49.1°F9.5°C 10.9°F-11.7°C 21% 5.4 mph NE8.7 kmh NE 19.7 mph31.7 kmh 30.41 in1029.8 mb 0.00 in0.0 mm 0.00 in/hr0.0 mm/hr 0.00 in0.0 mm
10:35 AM 49.3°F9.6°C 11.0°F-11.7°C 21% 9.8 mph NE15.8 kmh NE 19.7 mph31.7 kmh 30.41 in1029.8 mb 0.00 in0.0 mm 0.00 in/hr0.0 mm/hr 0.00 in0.0 mm
10:36 AM 49.5°F9.7°C 11.2°F-11.6°C 21% 15.9 mph NE25.6 kmh NE 25.1 mph40.4 kmh 30.42 in1030.1 mb 0.00 in0.0 mm 0.00 in/hr0.0 mm/hr 0.00 in0.0 mm
10:37 AM 49.3°F9.6°C 11.0°F-11.7°C 21% 6.9 mph N11.1 kmh N 25.1 mph40.4 kmh 30.42 in1030.1 mb 0.00 in0.0 mm 0.00 in/hr0.0 mm/hr 0.00 in0.0 mm
10:38 AM 50.0°F10.0°C 10.5°F-11.9°C 20% 8.3 mph N13.4 kmh N 25.1 mph40.4 kmh 30.42 in1030.1 mb 0.00 in0.0 mm 0.00 in/hr0.0 mm/hr 0.00 in0.0 mm
10:39 AM 49.6°F9.8°C 11.3°F-11.5°C 21% 8.3 mph N13.4 kmh N 25.1 mph40.4 kmh 30.42 in1030.1 mb 0.00 in0.0 mm 0.00 in/hr0.0 mm/hr 0.00 in0.0 mm
10:40 AM 48.7°F9.3°C 9.5°F-12.5°C 20% 8.3 mph N13.4 kmh N 25.1 mph40.4 kmh 30.42 in1030.1 mb 0.00 in0.0 mm 0.00 in/hr0.0 mm/hr 0.00 in0.0 mm
10:41 AM 49.6°F9.8°C 11.3°F-11.5°C 21% 7.6 mph N12.2 kmh N 25.1 mph40.4 kmh 30.42 in1030.1 mb 0.00 in0.0 mm 0.00 in/hr0.0 mm/hr 0.00 in0.0 mm
10:42 AM 49.8°F9.9°C 11.5°F-11.4°C 21% 9.8 mph N15.8 kmh N 25.1 mph40.4 kmh 30.42 in1030.1 mb 0.00 in0.0 mm 0.00 in/hr0.0 mm/hr 0.00 in0.0 mm
10:43 AM 49.6°F9.8°C 11.3°F-11.5°C 21% 6.0 mph N9.7 kmh N 25.1 mph40.4 kmh 30.41 in1029.8 mb 0.00 in0.0 mm 0.00 in/hr0.0 mm/hr 0.00 in0.0 mm
10:44 AM 49.3°F9.6°C 9.9°F-12.3°C 20% 7.6 mph N12.2 kmh N 25.1 mph40.4 kmh 30.41 in1029.8 mb 0.00 in0.0 mm 0.00 in/hr0.0 mm/hr 0.00 in0.0 mm
10:45 AM 49.6°F9.8°C 10.2°F-12.1°C 20% 4.5 mph N7.2 kmh N 25.1 mph40.4 kmh 30.42 in1030.1 mb 0.00 in0.0 mm 0.00 in/hr0.0 mm/hr 0.00 in0.0 mm
10:46 AM 50.2°F10.1°C 10.7°F-11.8°C 20% 9.8 mph NNE15.8 kmh NNE 25.1 mph40.4 kmh 30.41 in1029.8 mb 0.00 in0.0 mm 0.00 in/hr0.0 mm/hr 0.00 in0.0 mm
10:47 AM 49.1°F9.5°C 9.8°F-12.3°C 20% 7.6 mph NNE12.2 kmh NNE 18.3 mph29.5 kmh 30.41 in1029.8 mb 0.00 in0.0 mm 0.00 in/hr0.0 mm/hr 0.00 in0.0 mm
10:48 AM 48.7°F9.3°C 9.5°F-12.5°C 20% 10.7 mph NE17.2 kmh NE 18.3 mph29.5 kmh 30.41 in1029.8 mb 0.00 in0.0 mm 0.00 in/hr0.0 mm/hr 0.00 in0.0 mm
10:49 AM 50.0°F10.0°C 10.5°F-11.9°C 20% 7.6 mph NE12.2 kmh NE 18.3 mph29.5 kmh 30.41 in1029.8 mb 0.00 in0.0 mm 0.00 in/hr0.0 mm/hr 0.00 in0.0 mm
10:50 AM 49.5°F9.7°C 10.1°F-12.2°C 20% 7.6 mph NE12.2 kmh NE 18.3 mph29.5 kmh 30.41 in1029.8 mb 0.00 in0.0 mm 0.00 in/hr0.0 mm/hr 0.00 in0.0 mm
10:51 AM 50.0°F10.0°C 8.2°F-13.2°C 18% 7.6 mph NE12.2 kmh NE 18.3 mph29.5 kmh 30.41 in1029.8 mb 0.00 in0.0 mm 0.00 in/hr0.0 mm/hr 0.00 in0.0 mm
10:52 AM 49.8°F9.9°C 11.5°F-11.4°C 21% 7.6 mph NE12.2 kmh NE 18.3 mph29.5 kmh 30.41 in1029.8 mb 0.00 in0.0 mm 0.00 in/hr0.0 mm/hr 0.00 in0.0 mm
10:53 AM 49.3°F9.6°C 9.9°F-12.3°C 20% 8.3 mph NNE13.4 kmh NNE 18.3 mph29.5 kmh 30.41 in1029.8 mb 0.00 in0.0 mm 0.00 in/hr0.0 mm/hr 0.00 in0.0 mm
10:54 AM 49.3°F9.6°C 9.9°F-12.3°C 20% 6.9 mph NNE11.1 kmh NNE 18.3 mph29.5 kmh 30.41 in1029.8 mb 0.00 in0.0 mm 0.00 in/hr0.0 mm/hr 0.00 in0.0 mm
10:55 AM 49.6°F9.8°C 10.2°F-12.1°C 20% 8.3 mph NNE13.4 kmh NNE 18.3 mph29.5 kmh 30.41 in1029.8 mb 0.00 in0.0 mm 0.00 in/hr0.0 mm/hr 0.00 in0.0 mm
10:56 AM 49.1°F9.5°C 9.8°F-12.3°C 20% 9.8 mph NNE15.8 kmh NNE 18.3 mph29.5 kmh 30.41 in1029.8 mb 0.00 in0.0 mm 0.00 in/hr0.0 mm/hr 0.00 in0.0 mm
10:57 AM 49.6°F9.8°C 10.2°F-12.1°C 20% 6.9 mph N11.1 kmh N 18.3 mph29.5 kmh 30.41 in1029.8 mb 0.00 in0.0 mm 0.00 in/hr0.0 mm/hr 0.00 in0.0 mm
10:58 AM 49.6°F9.8°C 10.2°F-12.1°C 20% 8.3 mph N13.4 kmh N 18.3 mph29.5 kmh 30.42 in1030.1 mb 0.00 in0.0 mm 0.00 in/hr0.0 mm/hr 0.00 in0.0 mm
10:59 AM 49.6°F9.8°C 10.2°F-12.1°C 20% 11.4 mph N18.3 kmh N 18.3 mph29.5 kmh 30.42 in1030.1 mb 0.00 in0.0 mm 0.00 in/hr0.0 mm/hr 0.00 in0.0 mm
11:00 AM 48.6°F9.2°C 9.3°F-12.6°C 20% 5.4 mph N8.7 kmh N 18.3 mph29.5 kmh 30.42 in1030.1 mb 0.00 in0.0 mm 0.00 in/hr0.0 mm/hr 0.00 in0.0 mm
11:01 AM 49.6°F9.8°C 10.2°F-12.1°C 20% 7.6 mph NNE12.2 kmh NNE 18.3 mph29.5 kmh 30.42 in1030.1 mb 0.00 in0.0 mm 0.00 in/hr0.0 mm/hr 0.00 in0.0 mm
11:02 AM 50.7°F10.4°C 8.8°F-12.9°C 18% 10.7 mph NNE17.2 kmh NNE 18.3 mph29.5 kmh 30.41 in1029.8 mb 0.00 in0.0 mm 0.00 in/hr0.0 mm/hr 0.00 in0.0 mm
11:03 AM 50.4°F10.2°C 8.5°F-13.1°C 18% 9.2 mph NE14.8 kmh NE 18.3 mph29.5 kmh 30.41 in1029.8 mb 0.00 in0.0 mm 0.00 in/hr0.0 mm/hr 0.00 in0.0 mm
11:04 AM 50.5°F10.3°C 8.6°F-13.0°C 18% 13.6 mph NE21.9 kmh NE 18.3 mph29.5 kmh 30.41 in1029.8 mb 0.00 in0.0 mm 0.00 in/hr0.0 mm/hr 0.00 in0.0 mm
11:05 AM 50.0°F10.0°C 8.2°F-13.2°C 18% 5.4 mph NE8.7 kmh NE 18.3 mph29.5 kmh 30.41 in1029.8 mb 0.00 in0.0 mm 0.00 in/hr0.0 mm/hr 0.00 in0.0 mm
11:06 AM 50.2°F10.1°C 8.3°F-13.2°C 18% 9.8 mph NE15.8 kmh NE 18.3 mph29.5 kmh 30.41 in1029.8 mb 0.00 in0.0 mm 0.00 in/hr0.0 mm/hr 0.00 in0.0 mm
11:07 AM 50.4°F10.2°C 8.5°F-13.1°C 18% 7.6 mph NE12.2 kmh NE 18.3 mph29.5 kmh 30.41 in1029.8 mb 0.00 in0.0 mm 0.00 in/hr0.0 mm/hr 0.00 in0.0 mm
11:08 AM 50.0°F10.0°C 8.2°F-13.2°C 18% 6.9 mph NE11.1 kmh NE 18.3 mph29.5 kmh 30.41 in1029.8 mb 0.00 in0.0 mm 0.00 in/hr0.0 mm/hr 0.00 in0.0 mm
11:09 AM 50.2°F10.1°C 8.3°F-13.2°C 18% 6.9 mph NE11.1 kmh NE 18.3 mph29.5 kmh 30.41 in1029.8 mb 0.00 in0.0 mm 0.00 in/hr0.0 mm/hr 0.00 in0.0 mm
11:10 AM 50.7°F10.4°C 8.8°F-12.9°C 18% 7.6 mph NE12.2 kmh NE 18.3 mph29.5 kmh 30.42 in1030.1 mb 0.00 in0.0 mm 0.00 in/hr0.0 mm/hr 0.00 in0.0 mm
11:11 AM 50.5°F10.3°C 8.6°F-13.0°C 18% 10.7 mph NE17.2 kmh NE 18.3 mph29.5 kmh 30.42 in1030.1 mb 0.00 in0.0 mm 0.00 in/hr0.0 mm/hr 0.00 in0.0 mm
11:12 AM 50.0°F10.0°C 8.2°F-13.2°C 18% 9.8 mph NNE15.8 kmh NNE 18.3 mph29.5 kmh 30.41 in1029.8 mb 0.00 in0.0 mm 0.00 in/hr0.0 mm/hr 0.00 in0.0 mm
11:13 AM 50.2°F10.1°C 8.3°F-13.2°C 18% 7.6 mph NNE12.2 kmh NNE 18.3 mph29.5 kmh 30.41 in1029.8 mb 0.00 in0.0 mm 0.00 in/hr0.0 mm/hr 0.00 in0.0 mm
11:14 AM 50.4°F10.2°C 8.5°F-13.1°C 18% 10.7 mph N17.2 kmh N 18.3 mph29.5 kmh 30.42 in1030.1 mb 0.00 in0.0 mm 0.00 in/hr0.0 mm/hr 0.00 in0.0 mm
11:15 AM 49.6°F9.8°C 10.2°F-12.1°C 20% 10.7 mph N17.2 kmh N 20.6 mph33.2 kmh 30.42 in1030.1 mb 0.00 in0.0 mm 0.00 in/hr0.0 mm/hr 0.00 in0.0 mm
11:16 AM 49.6°F9.8°C 7.9°F-13.4°C 18% 6.9 mph N11.1 kmh N 20.6 mph33.2 kmh 30.41 in1029.8 mb 0.00 in0.0 mm 0.00 in/hr0.0 mm/hr 0.00 in0.0 mm
11:17 AM 50.5°F10.3°C 8.6°F-13.0°C 18% 9.2 mph NNW14.8 kmh NNW 20.6 mph33.2 kmh 30.41 in1029.8 mb 0.00 in0.0 mm 0.00 in/hr0.0 mm/hr 0.00 in0.0 mm
11:18 AM 50.5°F10.3°C 8.6°F-13.0°C 18% 10.7 mph N17.2 kmh N 20.6 mph33.2 kmh 30.42 in1030.1 mb 0.00 in0.0 mm 0.00 in/hr0.0 mm/hr 0.00 in0.0 mm
11:19 AM 51.3°F10.7°C 9.2°F-12.7°C 18% 7.6 mph N12.2 kmh N 20.6 mph33.2 kmh 30.41 in1029.8 mb 0.00 in0.0 mm 0.00 in/hr0.0 mm/hr 0.00 in0.0 mm
11:20 AM 49.5°F9.7°C 7.8°F-13.4°C 18% 5.4 mph N8.7 kmh N 20.6 mph33.2 kmh 30.41 in1029.8 mb 0.00 in0.0 mm 0.00 in/hr0.0 mm/hr 0.00 in0.0 mm
11:21 AM 50.9°F10.5°C 8.9°F-12.8°C 18% 15.2 mph NNE24.5 kmh NNE 23.5 mph37.8 kmh 30.41 in1029.8 mb 0.00 in0.0 mm 0.00 in/hr0.0 mm/hr 0.00 in0.0 mm
11:22 AM 50.2°F10.1°C 8.3°F-13.2°C 18% 9.8 mph NNE15.8 kmh NNE 23.5 mph37.8 kmh 30.41 in1029.8 mb 0.00 in0.0 mm 0.00 in/hr0.0 mm/hr 0.00 in0.0 mm
11:23 AM 50.9°F10.5°C 8.9°F-12.8°C 18% 12.1 mph NE19.5 kmh NE 24.4 mph39.3 kmh 30.41 in1029.8 mb 0.00 in0.0 mm 0.00 in/hr0.0 mm/hr 0.00 in0.0 mm
11:24 AM 51.1°F10.6°C 9.1°F-12.7°C 18% 9.8 mph NE15.8 kmh NE 24.4 mph39.3 kmh 30.41 in1029.8 mb 0.00 in0.0 mm 0.00 in/hr0.0 mm/hr 0.00 in0.0 mm
11:25 AM 49.6°F9.8°C 7.9°F-13.4°C 18% 6.9 mph NE11.1 kmh NE 24.4 mph39.3 kmh 30.41 in1029.8 mb 0.00 in0.0 mm 0.00 in/hr0.0 mm/hr 0.00 in0.0 mm
11:26 AM 50.2°F10.1°C 7.1°F-13.8°C 17% 11.4 mph NE18.3 kmh NE 24.4 mph39.3 kmh 30.41 in1029.8 mb 0.00 in0.0 mm 0.00 in/hr0.0 mm/hr 0.00 in0.0 mm
11:27 AM 50.0°F10.0°C 6.9°F-13.9°C 17% 13.0 mph NE20.9 kmh NE 24.4 mph39.3 kmh 30.42 in1030.1 mb 0.00 in0.0 mm 0.00 in/hr0.0 mm/hr 0.00 in0.0 mm
11:28 AM 51.1°F10.6°C 9.1°F-12.7°C 18% 6.9 mph NE11.1 kmh NE 24.4 mph39.3 kmh 30.41 in1029.8 mb 0.00 in0.0 mm 0.00 in/hr0.0 mm/hr 0.00 in0.0 mm
11:29 AM 51.4°F10.8°C 9.4°F-12.6°C 18% 3.8 mph NE6.1 kmh NE 24.4 mph39.3 kmh 30.41 in1029.8 mb 0.00 in0.0 mm 0.00 in/hr0.0 mm/hr 0.00 in0.0 mm
11:30 AM 52.7°F11.5°C 9.1°F-12.7°C 17% 5.4 mph NE8.7 kmh NE 24.4 mph39.3 kmh 30.41 in1029.8 mb 0.00 in0.0 mm 0.00 in/hr0.0 mm/hr 0.00 in0.0 mm
11:31 AM 51.4°F10.8°C 9.4°F-12.6°C 18% 9.8 mph NE15.8 kmh NE 24.4 mph39.3 kmh 30.41 in1029.8 mb 0.00 in0.0 mm 0.00 in/hr0.0 mm/hr 0.00 in0.0 mm
11:32 AM 51.6°F10.9°C 9.5°F-12.5°C 18% 7.6 mph NE12.2 kmh NE 24.4 mph39.3 kmh 30.41 in1029.8 mb 0.00 in0.0 mm 0.00 in/hr0.0 mm/hr 0.00 in0.0 mm
11:33 AM 52.2°F11.2°C 8.7°F-12.9°C 17% 8.3 mph NE13.4 kmh NE 21.3 mph34.3 kmh 30.41 in1029.8 mb 0.00 in0.0 mm 0.00 in/hr0.0 mm/hr 0.00 in0.0 mm
11:34 AM 51.6°F10.9°C 9.5°F-12.5°C 18% 14.5 mph NE23.3 kmh NE 21.3 mph34.3 kmh 30.41 in1029.8 mb 0.00 in0.0 mm 0.00 in/hr0.0 mm/hr 0.00 in0.0 mm
11:35 AM 51.3°F10.7°C 9.2°F-12.7°C 18% 14.5 mph NE23.3 kmh NE 21.3 mph34.3 kmh 30.41 in1029.8 mb 0.00 in0.0 mm 0.00 in/hr0.0 mm/hr 0.00 in0.0 mm
11:36 AM 51.6°F10.9°C 9.5°F-12.5°C 18% 9.2 mph NE14.8 kmh NE 21.3 mph34.3 kmh 30.41 in1029.8 mb 0.00 in0.0 mm 0.00 in/hr0.0 mm/hr 0.00 in0.0 mm
11:37 AM 51.6°F10.9°C 9.5°F-12.5°C 18% 9.8 mph NE15.8 kmh NE 19.0 mph30.6 kmh 30.41 in1029.8 mb 0.00 in0.0 mm 0.00 in/hr0.0 mm/hr 0.00 in0.0 mm
11:38 AM 51.4°F10.8°C 9.4°F-12.6°C 18% 7.6 mph NE12.2 kmh NE 19.0 mph30.6 kmh 30.41 in1029.8 mb 0.00 in0.0 mm 0.00 in/hr0.0 mm/hr 0.00 in0.0 mm
11:39 AM 52.3°F11.3°C 8.8°F-12.9°C 17% 6.0 mph NE9.7 kmh NE 19.0 mph30.6 kmh 30.41 in1029.8 mb 0.00 in0.0 mm 0.00 in/hr0.0 mm/hr 0.00 in0.0 mm
11:40 AM 51.6°F10.9°C 9.5°F-12.5°C 18% 13.0 mph NNE20.9 kmh NNE 19.7 mph31.7 kmh 30.41 in1029.8 mb 0.00 in0.0 mm 0.00 in/hr0.0 mm/hr 0.00 in0.0 mm
11:41 AM 50.9°F10.5°C 7.7°F-13.5°C 17% 7.6 mph NNE12.2 kmh NNE 19.7 mph31.7 kmh 30.41 in1029.8 mb 0.00 in0.0 mm 0.00 in/hr0.0 mm/hr 0.00 in0.0 mm
11:42 AM 52.0°F11.1°C 7.2°F-13.8°C 16% 15.9 mph NNE25.6 kmh NNE 24.4 mph39.3 kmh 30.41 in1029.8 mb 0.00 in0.0 mm 0.00 in/hr0.0 mm/hr 0.00 in0.0 mm
11:43 AM 50.5°F10.3°C 7.4°F-13.7°C 17% 11.4 mph NNE18.3 kmh NNE 24.4 mph39.3 kmh 30.41 in1029.8 mb 0.00 in0.0 mm 0.00 in/hr0.0 mm/hr 0.00 in0.0 mm
11:44 AM 52.2°F11.2°C 7.4°F-13.7°C 16% 14.5 mph NNE23.3 kmh NNE 24.4 mph39.3 kmh 30.41 in1029.8 mb 0.00 in0.0 mm 0.00 in/hr0.0 mm/hr 0.00 in0.0 mm
11:45 AM 50.5°F10.3°C 7.4°F-13.7°C 17% 13.0 mph NNE20.9 kmh NNE 24.4 mph39.3 kmh 30.41 in1029.8 mb 0.00 in0.0 mm 0.00 in/hr0.0 mm/hr 0.00 in0.0 mm
11:46 AM 50.4°F10.2°C 7.2°F-13.8°C 17% 11.4 mph NE18.3 kmh NE 24.4 mph39.3 kmh 30.41 in1029.8 mb 0.00 in0.0 mm 0.00 in/hr0.0 mm/hr 0.00 in0.0 mm
11:47 AM 51.6°F10.9°C 8.3°F-13.2°C 17% 14.5 mph NE23.3 kmh NE 24.4 mph39.3 kmh 30.41 in1029.8 mb 0.00 in0.0 mm 0.00 in/hr0.0 mm/hr 0.00 in0.0 mm
11:48 AM 52.2°F11.2°C 7.4°F-13.7°C 16% 9.8 mph NE15.8 kmh NE 24.4 mph39.3 kmh 30.40 in1029.5 mb 0.00 in0.0 mm 0.00 in/hr0.0 mm/hr 0.00 in0.0 mm
11:49 AM 51.6°F10.9°C 8.3°F-13.2°C 17% 11.4 mph NE18.3 kmh NE 24.4 mph39.3 kmh 30.40 in1029.5 mb 0.00 in0.0 mm 0.00 in/hr0.0 mm/hr 0.00 in0.0 mm
11:50 AM 52.0°F11.1°C 7.2°F-13.8°C 16% 9.8 mph NE15.8 kmh NE 24.4 mph39.3 kmh 30.40 in1029.5 mb 0.00 in0.0 mm 0.00 in/hr0.0 mm/hr 0.00 in0.0 mm
11:51 AM 50.9°F10.5°C 7.7°F-13.5°C 17% 9.8 mph ENE15.8 kmh ENE 24.4 mph39.3 kmh 30.40 in1029.5 mb 0.00 in0.0 mm 0.00 in/hr0.0 mm/hr 0.00 in0.0 mm
11:52 AM 51.6°F10.9°C 8.3°F-13.2°C 17% 11.4 mph ENE18.3 kmh ENE 24.4 mph39.3 kmh 30.40 in1029.5 mb 0.00 in0.0 mm 0.00 in/hr0.0 mm/hr 0.00 in0.0 mm
11:53 AM 51.6°F10.9°C 8.3°F-13.2°C 17% 13.6 mph ENE21.9 kmh ENE 22.8 mph36.7 kmh 30.40 in1029.5 mb 0.00 in0.0 mm 0.00 in/hr0.0 mm/hr 0.00 in0.0 mm
11:54 AM 51.3°F10.7°C 8.0°F-13.3°C 17% 9.8 mph ENE15.8 kmh ENE 22.8 mph36.7 kmh 30.41 in1029.8 mb 0.00 in0.0 mm 0.00 in/hr0.0 mm/hr 0.00 in0.0 mm
11:55 AM 52.2°F11.2°C 7.4°F-13.7°C 16% 11.4 mph ENE18.3 kmh ENE 21.3 mph34.3 kmh 30.41 in1029.8 mb 0.00 in0.0 mm 0.00 in/hr0.0 mm/hr 0.00 in0.0 mm
11:56 AM 51.6°F10.9°C 8.3°F-13.2°C 17% 7.6 mph NE12.2 kmh NE 20.6 mph33.2 kmh 30.40 in1029.5 mb 0.00 in0.0 mm 0.00 in/hr0.0 mm/hr 0.00 in0.0 mm
11:57 AM 52.2°F11.2°C 8.7°F-12.9°C 17% 6.0 mph NE9.7 kmh NE 20.6 mph33.2 kmh 30.40 in1029.5 mb 0.00 in0.0 mm 0.00 in/hr0.0 mm/hr 0.00 in0.0 mm
11:58 AM 52.3°F11.3°C 8.8°F-12.9°C 17% 6.0 mph NE9.7 kmh NE 20.6 mph33.2 kmh 30.41 in1029.8 mb 0.00 in0.0 mm 0.00 in/hr0.0 mm/hr 0.00 in0.0 mm
11:59 AM 52.5°F11.4°C 9.0°F-12.8°C 17% 7.6 mph NE12.2 kmh NE 20.6 mph33.2 kmh 30.40 in1029.5 mb 0.00 in0.0 mm 0.00 in/hr0.0 mm/hr 0.00 in0.0 mm
12:00 PM 52.7°F11.5°C 9.1°F-12.7°C 17% 6.0 mph NE9.7 kmh NE 20.6 mph33.2 kmh 30.40 in1029.5 mb 0.00 in0.0 mm 0.00 in/hr0.0 mm/hr 0.00 in0.0 mm
12:01 PM 52.3°F11.3°C 8.8°F-12.9°C 17% 7.6 mph NE12.2 kmh NE 20.6 mph33.2 kmh 30.40 in1029.5 mb 0.00 in0.0 mm 0.00 in/hr0.0 mm/hr 0.00 in0.0 mm
12:02 PM 53.1°F11.7°C 9.4°F-12.6°C 17% 8.3 mph NE13.4 kmh NE 20.6 mph33.2 kmh 30.41 in1029.8 mb 0.00 in0.0 mm 0.00 in/hr0.0 mm/hr 0.00 in0.0 mm
12:03 PM 52.5°F11.4°C 9.0°F-12.8°C 17% 4.5 mph NE7.2 kmh NE 19.7 mph31.7 kmh 30.41 in1029.8 mb 0.00 in0.0 mm 0.00 in/hr0.0 mm/hr 0.00 in0.0 mm
12:04 PM 53.1°F11.7°C 9.4°F-12.6°C 17% 3.8 mph NE6.1 kmh NE 19.0 mph30.6 kmh 30.40 in1029.5 mb 0.00 in0.0 mm 0.00 in/hr0.0 mm/hr 0.00 in0.0 mm
12:05 PM 52.7°F11.5°C 9.1°F-12.7°C 17% 7.6 mph NE12.2 kmh NE 19.0 mph30.6 kmh 30.40 in1029.5 mb 0.00 in0.0 mm 0.00 in/hr0.0 mm/hr 0.00 in0.0 mm
12:06 PM 52.3°F11.3°C 8.8°F-12.9°C 17% 12.1 mph NE19.5 kmh NE 17.4 mph28.0 kmh 30.40 in1029.5 mb 0.00 in0.0 mm 0.00 in/hr0.0 mm/hr 0.00 in0.0 mm
12:07 PM 52.0°F11.1°C 8.6°F-13.0°C 17% 6.9 mph NNE11.1 kmh NNE 17.4 mph28.0 kmh 30.40 in1029.5 mb 0.00 in0.0 mm 0.00 in/hr0.0 mm/hr 0.00 in0.0 mm
12:08 PM 53.8°F12.1°C 8.7°F-12.9°C 16% 8.3 mph NNE13.4 kmh NNE 17.4 mph28.0 kmh 30.40 in1029.5 mb 0.00 in0.0 mm 0.00 in/hr0.0 mm/hr 0.00 in0.0 mm
12:09 PM 53.4°F11.9°C 9.7°F-12.4°C 17% 6.9 mph NNE11.1 kmh NNE 17.4 mph28.0 kmh 30.40 in1029.5 mb 0.00 in0.0 mm 0.00 in/hr0.0 mm/hr 0.00 in0.0 mm
12:10 PM 53.6°F12.0°C 8.5°F-13.1°C 16% 6.9 mph NNE11.1 kmh NNE 17.4 mph28.0 kmh 30.40 in1029.5 mb 0.00 in0.0 mm 0.00 in/hr0.0 mm/hr 0.00 in0.0 mm
12:11 PM 53.6°F12.0°C 8.5°F-13.1°C 16% 5.4 mph NNE8.7 kmh NNE 17.4 mph28.0 kmh 30.40 in1029.5 mb 0.00 in0.0 mm 0.00 in/hr0.0 mm/hr 0.00 in0.0 mm
12:12 PM 54.3°F12.4°C 9.1°F-12.7°C 16% 12.1 mph NNE19.5 kmh NNE 19.7 mph31.7 kmh 30.40 in1029.5 mb 0.00 in0.0 mm 0.00 in/hr0.0 mm/hr 0.00 in0.0 mm
12:13 PM 53.1°F11.7°C 9.4°F-12.6°C 17% 5.4 mph NNE8.7 kmh NNE 19.7 mph31.7 kmh 30.40 in1029.5 mb 0.00 in0.0 mm 0.00 in/hr0.0 mm/hr 0.00 in0.0 mm
12:14 PM 54.0°F12.2°C 8.8°F-12.9°C 16% 8.3 mph NNE13.4 kmh NNE 19.7 mph31.7 kmh 30.40 in1029.5 mb 0.00 in0.0 mm 0.00 in/hr0.0 mm/hr 0.00 in0.0 mm
12:15 PM 53.1°F11.7°C 9.4°F-12.6°C 17% 8.3 mph NE13.4 kmh NE 19.7 mph31.7 kmh 30.40 in1029.5 mb 0.00 in0.0 mm 0.00 in/hr0.0 mm/hr 0.00 in0.0 mm
12:16 PM 53.4°F11.9°C 9.7°F-12.4°C 17% 9.2 mph NE14.8 kmh NE 19.7 mph31.7 kmh 30.40 in1029.5 mb 0.00 in0.0 mm 0.00 in/hr0.0 mm/hr 0.00 in0.0 mm
12:17 PM 53.6°F12.0°C 8.5°F-13.1°C 16% 7.6 mph NE12.2 kmh NE 19.7 mph31.7 kmh 30.40 in1029.5 mb 0.00 in0.0 mm 0.00 in/hr0.0 mm/hr 0.00 in0.0 mm
12:18 PM 53.1°F11.7°C 9.4°F-12.6°C 17% 9.8 mph NE15.8 kmh NE 19.7 mph31.7 kmh 30.40 in1029.5 mb 0.00 in0.0 mm 0.00 in/hr0.0 mm/hr 0.00 in0.0 mm
12:19 PM 52.9°F11.6°C 9.3°F-12.6°C 17% 8.3 mph NE13.4 kmh NE 19.7 mph31.7 kmh 30.40 in1029.5 mb 0.00 in0.0 mm 0.00 in/hr0.0 mm/hr 0.00 in0.0 mm
12:20 PM 52.3°F11.3°C 8.8°F-12.9°C 17% 7.6 mph NNE12.2 kmh NNE 19.7 mph31.7 kmh 30.40 in1029.5 mb 0.00 in0.0 mm 0.00 in/hr0.0 mm/hr 0.00 in0.0 mm
12:21 PM 52.7°F11.5°C 9.1°F-12.7°C 17% 6.9 mph NNE11.1 kmh NNE 19.7 mph31.7 kmh 30.40 in1029.5 mb 0.00 in0.0 mm 0.00 in/hr0.0 mm/hr 0.00 in0.0 mm
12:22 PM 53.6°F12.0°C 8.5°F-13.1°C 16% 4.5 mph NNE7.2 kmh NNE 15.9 mph25.6 kmh 30.40 in1029.5 mb 0.00 in0.0 mm 0.00 in/hr0.0 mm/hr 0.00 in0.0 mm
12:23 PM 53.8°F12.1°C 8.7°F-12.9°C 16% 6.0 mph N9.7 kmh N 15.9 mph25.6 kmh 30.40 in1029.5 mb 0.00 in0.0 mm 0.00 in/hr0.0 mm/hr 0.00 in0.0 mm
12:24 PM 52.5°F11.4°C 9.0°F-12.8°C 17% 3.1 mph N5.0 kmh N 15.9 mph25.6 kmh 30.39 in1029.1 mb 0.00 in0.0 mm 0.00 in/hr0.0 mm/hr 0.00 in0.0 mm
12:25 PM 53.2°F11.8°C 9.6°F-12.4°C 17% 9.2 mph N14.8 kmh N 15.9 mph25.6 kmh 30.39 in1029.1 mb 0.00 in0.0 mm 0.00 in/hr0.0 mm/hr 0.00 in0.0 mm
12:26 PM 52.2°F11.2°C 8.7°F-12.9°C 17% 6.0 mph N9.7 kmh N 15.9 mph25.6 kmh 30.39 in1029.1 mb 0.00 in0.0 mm 0.00 in/hr0.0 mm/hr 0.00 in0.0 mm
12:27 PM 53.6°F12.0°C 8.5°F-13.1°C 16% 6.9 mph N11.1 kmh N 15.9 mph25.6 kmh 30.39 in1029.1 mb 0.00 in0.0 mm 0.00 in/hr0.0 mm/hr 0.00 in0.0 mm
12:28 PM 53.6°F12.0°C 8.5°F-13.1°C 16% 9.2 mph N14.8 kmh N 15.9 mph25.6 kmh 30.39 in1029.1 mb 0.00 in0.0 mm 0.00 in/hr0.0 mm/hr 0.00 in0.0 mm
12:29 PM 53.2°F11.8°C 9.6°F-12.4°C 17% 6.0 mph N9.7 kmh N 15.9 mph25.6 kmh 30.39 in1029.1 mb 0.00 in0.0 mm 0.00 in/hr0.0 mm/hr 0.00 in0.0 mm
12:30 PM 53.6°F12.0°C 8.5°F-13.1°C 16% 7.6 mph N12.2 kmh N 15.2 mph24.5 kmh 30.39 in1029.1 mb 0.00 in0.0 mm 0.00 in/hr0.0 mm/hr 0.00 in0.0 mm
12:31 PM 53.6°F12.0°C 8.5°F-13.1°C 16% 7.6 mph N12.2 kmh N 15.2 mph24.5 kmh 30.39 in1029.1 mb 0.00 in0.0 mm 0.00 in/hr0.0 mm/hr 0.00 in0.0 mm
12:32 PM 53.4°F11.9°C 9.7°F-12.4°C 17% 10.7 mph N17.2 kmh N 15.2 mph24.5 kmh 30.39 in1029.1 mb 0.00 in0.0 mm 0.00 in/hr0.0 mm/hr 0.00 in0.0 mm
12:33 PM 52.7°F11.5°C 9.1°F-12.7°C 17% 10.7 mph N17.2 kmh N 15.2 mph24.5 kmh 30.39 in1029.1 mb 0.00 in0.0 mm 0.00 in/hr0.0 mm/hr 0.00 in0.0 mm
12:34 PM 52.7°F11.5°C 9.1°F-12.7°C 17% 11.4 mph N18.3 kmh N 16.8 mph27.0 kmh 30.39 in1029.1 mb 0.00 in0.0 mm 0.00 in/hr0.0 mm/hr 0.00 in0.0 mm
12:35 PM 52.2°F11.2°C 8.7°F-12.9°C 17% 8.3 mph N13.4 kmh N 16.8 mph27.0 kmh 30.39 in1029.1 mb 0.00 in0.0 mm 0.00 in/hr0.0 mm/hr 0.00 in0.0 mm
12:36 PM 52.3°F11.3°C 8.8°F-12.9°C 17% 8.3 mph N13.4 kmh N 16.8 mph27.0 kmh 30.39 in1029.1 mb 0.00 in0.0 mm 0.00 in/hr0.0 mm/hr 0.00 in0.0 mm
12:37 PM 52.9°F11.6°C 9.3°F-12.6°C 17% 6.0 mph N9.7 kmh N 16.8 mph27.0 kmh 30.39 in1029.1 mb 0.00 in0.0 mm 0.00 in/hr0.0 mm/hr 0.00 in0.0 mm
12:38 PM 53.2°F11.8°C 9.6°F-12.4°C 17% 4.5 mph N7.2 kmh N 16.8 mph27.0 kmh 30.39 in1029.1 mb 0.00 in0.0 mm 0.00 in/hr0.0 mm/hr 0.00 in0.0 mm
12:39 PM 53.4°F11.9°C 9.7°F-12.4°C 17% 5.4 mph N8.7 kmh N 16.8 mph27.0 kmh 30.39 in1029.1 mb 0.00 in0.0 mm 0.00 in/hr0.0 mm/hr 0.00 in0.0 mm
12:40 PM 54.5°F12.5°C 9.3°F-12.6°C 16% 7.6 mph N12.2 kmh N 16.8 mph27.0 kmh 30.39 in1029.1 mb 0.00 in0.0 mm 0.00 in/hr0.0 mm/hr 0.00 in0.0 mm
12:41 PM 53.1°F11.7°C 9.4°F-12.6°C 17% 6.9 mph N11.1 kmh N 16.8 mph27.0 kmh 30.39 in1029.1 mb 0.00 in0.0 mm 0.00 in/hr0.0 mm/hr 0.00 in0.0 mm
12:42 PM 54.0°F12.2°C 8.8°F-12.9°C 16% 8.3 mph NNE13.4 kmh NNE 16.8 mph27.0 kmh 30.39 in1029.1 mb 0.00 in0.0 mm 0.00 in/hr0.0 mm/hr 0.00 in0.0 mm
12:43 PM 53.4°F11.9°C 9.7°F-12.4°C 17% 9.2 mph NNE14.8 kmh NNE 16.8 mph27.0 kmh 30.39 in1029.1 mb 0.00 in0.0 mm 0.00 in/hr0.0 mm/hr 0.00 in0.0 mm
12:44 PM 53.1°F11.7°C 9.4°F-12.6°C 17% 7.6 mph NNE12.2 kmh NNE 16.8 mph27.0 kmh 30.39 in1029.1 mb 0.00 in0.0 mm 0.00 in/hr0.0 mm/hr 0.00 in0.0 mm
12:45 PM 53.6°F12.0°C 8.5°F-13.1°C 16% 7.6 mph NNE12.2 kmh NNE 15.9 mph25.6 kmh 30.39 in1029.1 mb 0.00 in0.0 mm 0.00 in/hr0.0 mm/hr 0.00 in0.0 mm
12:46 PM 53.6°F12.0°C 8.5°F-13.1°C 16% 10.7 mph N17.2 kmh N 17.4 mph28.0 kmh 30.39 in1029.1 mb 0.00 in0.0 mm 0.00 in/hr0.0 mm/hr 0.00 in0.0 mm
12:47 PM 53.6°F12.0°C 8.5°F-13.1°C 16% 10.7 mph NNE17.2 kmh NNE 17.4 mph28.0 kmh 30.39 in1029.1 mb 0.00 in0.0 mm 0.00 in/hr0.0 mm/hr 0.00 in0.0 mm
12:48 PM 53.4°F11.9°C 9.7°F-12.4°C 17% 10.7 mph N17.2 kmh N 17.4 mph28.0 kmh 30.39 in1029.1 mb 0.00 in0.0 mm 0.00 in/hr0.0 mm/hr 0.00 in0.0 mm
12:49 PM 53.2°F11.8°C 9.6°F-12.4°C 17% 12.1 mph N19.5 kmh N 17.4 mph28.0 kmh 30.39 in1029.1 mb 0.00 in0.0 mm 0.00 in/hr0.0 mm/hr 0.00 in0.0 mm
12:50 PM 52.3°F11.3°C 7.5°F-13.6°C 16% 11.4 mph N18.3 kmh N 19.7 mph31.7 kmh 30.39 in1029.1 mb 0.00 in0.0 mm 0.00 in/hr0.0 mm/hr 0.00 in0.0 mm
12:51 PM 53.4°F11.9°C 9.7°F-12.4°C 17% 7.6 mph N12.2 kmh N 19.7 mph31.7 kmh 30.39 in1029.1 mb 0.00 in0.0 mm 0.00 in/hr0.0 mm/hr 0.00 in0.0 mm
12:52 PM 53.6°F12.0°C 8.5°F-13.1°C 16% 6.0 mph N9.7 kmh N 19.7 mph31.7 kmh 30.39 in1029.1 mb 0.00 in0.0 mm 0.00 in/hr0.0 mm/hr 0.00 in0.0 mm
12:53 PM 54.3°F12.4°C 9.1°F-12.7°C 16% 3.8 mph N6.1 kmh N 19.7 mph31.7 kmh 30.39 in1029.1 mb 0.00 in0.0 mm 0.00 in/hr0.0 mm/hr 0.00 in0.0 mm
12:54 PM 55.0°F12.8°C 9.7°F-12.4°C 16% 4.5 mph N7.2 kmh N 19.7 mph31.7 kmh 30.39 in1029.1 mb 0.00 in0.0 mm 0.00 in/hr0.0 mm/hr 0.00 in0.0 mm
12:55 PM 54.9°F12.7°C 9.6°F-12.4°C 16% 5.4 mph N8.7 kmh N 19.7 mph31.7 kmh 30.39 in1029.1 mb 0.00 in0.0 mm 0.00 in/hr0.0 mm/hr 0.00 in0.0 mm
12:56 PM 55.0°F12.8°C 9.7°F-12.4°C 16% 5.4 mph N8.7 kmh N 19.7 mph31.7 kmh 30.39 in1029.1 mb 0.00 in0.0 mm 0.00 in/hr0.0 mm/hr 0.00 in0.0 mm
12:57 PM 54.7°F12.6°C 9.4°F-12.6°C 16% 9.2 mph N14.8 kmh N 19.7 mph31.7 kmh 30.38 in1028.8 mb 0.00 in0.0 mm 0.00 in/hr0.0 mm/hr 0.00 in0.0 mm
12:58 PM 53.2°F11.8°C 9.6°F-12.4°C 17% 8.3 mph N13.4 kmh N 19.7 mph31.7 kmh 30.38 in1028.8 mb 0.00 in0.0 mm 0.00 in/hr0.0 mm/hr 0.00 in0.0 mm
12:59 PM 53.8°F12.1°C 8.7°F-12.9°C 16% 10.7 mph N17.2 kmh N 19.7 mph31.7 kmh 30.38 in1028.8 mb 0.00 in0.0 mm 0.00 in/hr0.0 mm/hr 0.00 in0.0 mm
01:00 PM 52.7°F11.5°C 7.8°F-13.4°C 16% 5.4 mph N8.7 kmh N 19.7 mph31.7 kmh 30.38 in1028.8 mb 0.00 in0.0 mm 0.00 in/hr0.0 mm/hr 0.00 in0.0 mm
01:01 PM 55.2°F12.9°C 9.8°F-12.3°C 16% 9.8 mph NNW15.8 kmh NNW 13.6 mph21.9 kmh 30.38 in1028.8 mb 0.00 in0.0 mm 0.00 in/hr0.0 mm/hr 0.00 in0.0 mm
01:02 PM 54.9°F12.7°C 9.6°F-12.4°C 16% 7.6 mph N12.2 kmh N 13.6 mph21.9 kmh 30.38 in1028.8 mb 0.00 in0.0 mm 0.00 in/hr0.0 mm/hr 0.00 in0.0 mm
01:03 PM 55.6°F13.1°C 12.8°F-10.7°C 18% 9.8 mph NNW15.8 kmh NNW 16.8 mph27.0 kmh 30.38 in1028.8 mb 0.00 in0.0 mm 0.00 in/hr0.0 mm/hr 0.00 in0.0 mm
01:04 PM 54.1°F12.3°C 9.0°F-12.8°C 16% 9.2 mph NNW14.8 kmh NNW 16.8 mph27.0 kmh 30.38 in1028.8 mb 0.00 in0.0 mm 0.00 in/hr0.0 mm/hr 0.00 in0.0 mm
01:05 PM 54.0°F12.2°C 8.8°F-12.9°C 16% 9.8 mph NNW15.8 kmh NNW 16.8 mph27.0 kmh 30.38 in1028.8 mb 0.00 in0.0 mm 0.00 in/hr0.0 mm/hr 0.00 in0.0 mm
01:06 PM 54.0°F12.2°C 7.4°F-13.7°C 15% 6.0 mph N9.7 kmh N 16.8 mph27.0 kmh 30.38 in1028.8 mb 0.00 in0.0 mm 0.00 in/hr0.0 mm/hr 0.00 in0.0 mm
01:07 PM 54.1°F12.3°C 7.5°F-13.6°C 15% 8.3 mph N13.4 kmh N 16.8 mph27.0 kmh 30.38 in1028.8 mb 0.00 in0.0 mm 0.00 in/hr0.0 mm/hr 0.00 in0.0 mm
01:08 PM 54.0°F12.2°C 7.4°F-13.7°C 15% 9.8 mph NNE15.8 kmh NNE 16.8 mph27.0 kmh 30.38 in1028.8 mb 0.00 in0.0 mm 0.00 in/hr0.0 mm/hr 0.00 in0.0 mm
01:09 PM 54.1°F12.3°C 9.0°F-12.8°C 16% 7.6 mph NNE12.2 kmh NNE 16.8 mph27.0 kmh 30.38 in1028.8 mb 0.00 in0.0 mm 0.00 in/hr0.0 mm/hr 0.00 in0.0 mm
01:10 PM 54.3°F12.4°C 7.7°F-13.5°C 15% 5.4 mph NNE8.7 kmh NNE 16.8 mph27.0 kmh 30.38 in1028.8 mb 0.00 in0.0 mm 0.00 in/hr0.0 mm/hr 0.00 in0.0 mm
01:11 PM 55.6°F13.1°C 12.8°F-10.7°C 18% 6.9 mph NNE11.1 kmh NNE 16.8 mph27.0 kmh 30.38 in1028.8 mb 0.00 in0.0 mm 0.00 in/hr0.0 mm/hr 0.00 in0.0 mm
01:12 PM 56.5°F13.6°C 15.9°F-8.9°C 20% 9.2 mph N14.8 kmh N 16.8 mph27.0 kmh 30.38 in1028.8 mb 0.00 in0.0 mm 0.00 in/hr0.0 mm/hr 0.00 in0.0 mm
01:13 PM 54.3°F12.4°C 7.7°F-13.5°C 15% 8.3 mph N13.4 kmh N 16.8 mph27.0 kmh 30.38 in1028.8 mb 0.00 in0.0 mm 0.00 in/hr0.0 mm/hr 0.00 in0.0 mm
01:14 PM 54.7°F12.6°C 8.0°F-13.3°C 15% 9.8 mph NNE15.8 kmh NNE 15.9 mph25.6 kmh 30.38 in1028.8 mb 0.00 in0.0 mm 0.00 in/hr0.0 mm/hr 0.00 in0.0 mm
01:15 PM 54.9°F12.7°C 8.1°F-13.3°C 15% 9.2 mph N14.8 kmh N 15.9 mph25.6 kmh 30.37 in1028.4 mb 0.00 in0.0 mm 0.00 in/hr0.0 mm/hr 0.00 in0.0 mm
01:16 PM 55.0°F12.8°C 8.3°F-13.2°C 15% 5.4 mph N8.7 kmh N 15.9 mph25.6 kmh 30.37 in1028.4 mb 0.00 in0.0 mm 0.00 in/hr0.0 mm/hr 0.00 in0.0 mm
01:17 PM 54.1°F12.3°C 7.5°F-13.6°C 15% 9.2 mph N14.8 kmh N 15.9 mph25.6 kmh 30.37 in1028.4 mb 0.00 in0.0 mm 0.00 in/hr0.0 mm/hr 0.00 in0.0 mm
01:18 PM 54.3°F12.4°C 7.7°F-13.5°C 15% 9.2 mph N14.8 kmh N 15.9 mph25.6 kmh 30.38 in1028.8 mb 0.00 in0.0 mm 0.00 in/hr0.0 mm/hr 0.00 in0.0 mm
01:19 PM 54.7°F12.6°C 8.0°F-13.3°C 15% 9.8 mph N15.8 kmh N 16.8 mph27.0 kmh 30.38 in1028.8 mb 0.00 in0.0 mm 0.00 in/hr0.0 mm/hr 0.00 in0.0 mm
01:20 PM 55.0°F12.8°C 8.3°F-13.2°C 15% 7.6 mph N12.2 kmh N 16.8 mph27.0 kmh 30.38 in1028.8 mb 0.00 in0.0 mm 0.00 in/hr0.0 mm/hr 0.00 in0.0 mm
01:21 PM 54.0°F12.2°C 7.4°F-13.7°C 15% 7.6 mph N12.2 kmh N 16.8 mph27.0 kmh 30.37 in1028.4 mb 0.00 in0.0 mm 0.00 in/hr0.0 mm/hr 0.00 in0.0 mm
01:22 PM 54.5°F12.5°C 7.8°F-13.4°C 15% 13.0 mph N20.9 kmh N 22.1 mph35.6 kmh 30.37 in1028.4 mb 0.00 in0.0 mm 0.00 in/hr0.0 mm/hr 0.00 in0.0 mm
01:23 PM 54.9°F12.7°C 8.1°F-13.3°C 15% 8.3 mph N13.4 kmh N 22.1 mph35.6 kmh 30.37 in1028.4 mb 0.00 in0.0 mm 0.00 in/hr0.0 mm/hr 0.00 in0.0 mm
01:24 PM 55.2°F12.9°C 8.4°F-13.1°C 15% 9.2 mph NNW14.8 kmh NNW 22.1 mph35.6 kmh 30.37 in1028.4 mb 0.00 in0.0 mm 0.00 in/hr0.0 mm/hr 0.00 in0.0 mm
01:25 PM 55.0°F12.8°C 8.3°F-13.2°C 15% 8.3 mph NNW13.4 kmh NNW 22.1 mph35.6 kmh 30.37 in1028.4 mb 0.00 in0.0 mm 0.00 in/hr0.0 mm/hr 0.00 in0.0 mm
01:26 PM 55.2°F12.9°C 8.4°F-13.1°C 15% 9.2 mph NW14.8 kmh NW 22.1 mph35.6 kmh 30.37 in1028.4 mb 0.00 in0.0 mm 0.00 in/hr0.0 mm/hr 0.00 in0.0 mm
01:27 PM 55.0°F12.8°C 8.3°F-13.2°C 15% 8.3 mph NW13.4 kmh NW 22.1 mph35.6 kmh 30.37 in1028.4 mb 0.00 in0.0 mm 0.00 in/hr0.0 mm/hr 0.00 in0.0 mm
01:28 PM 55.4°F13.0°C 11.3°F-11.5°C 17% 6.0 mph NW9.7 kmh NW 22.1 mph35.6 kmh 30.37 in1028.4 mb 0.00 in0.0 mm 0.00 in/hr0.0 mm/hr 0.00 in0.0 mm
01:29 PM 55.6°F13.1°C 11.5°F-11.4°C 17% 7.6 mph NW12.2 kmh NW 22.1 mph35.6 kmh 30.37 in1028.4 mb 0.00 in0.0 mm 0.00 in/hr0.0 mm/hr 0.00 in0.0 mm
01:30 PM 55.2°F12.9°C 8.4°F-13.1°C 15% 6.0 mph NW9.7 kmh NW 22.1 mph35.6 kmh 30.37 in1028.4 mb 0.00 in0.0 mm 0.00 in/hr0.0 mm/hr 0.00 in0.0 mm
01:31 PM 55.9°F13.3°C 13.1°F-10.5°C 18% 7.6 mph NW12.2 kmh NW 22.1 mph35.6 kmh 30.37 in1028.4 mb 0.00 in0.0 mm 0.00 in/hr0.0 mm/hr 0.00 in0.0 mm
01:32 PM 54.9°F12.7°C 8.1°F-13.3°C 15% 8.3 mph NNW13.4 kmh NNW 22.1 mph35.6 kmh 30.37 in1028.4 mb 0.00 in0.0 mm 0.00 in/hr0.0 mm/hr 0.00 in0.0 mm
01:33 PM 55.0°F12.8°C 8.3°F-13.2°C 15% 11.4 mph N18.3 kmh N 19.7 mph31.7 kmh 30.37 in1028.4 mb 0.00 in0.0 mm 0.00 in/hr0.0 mm/hr 0.00 in0.0 mm
01:34 PM 55.0°F12.8°C 8.3°F-13.2°C 15% 11.4 mph N18.3 kmh N 19.7 mph31.7 kmh 30.37 in1028.4 mb 0.00 in0.0 mm 0.00 in/hr0.0 mm/hr 0.00 in0.0 mm
01:35 PM 54.7°F12.6°C 8.0°F-13.3°C 15% 12.1 mph N19.5 kmh N 19.7 mph31.7 kmh 30.36 in1028.1 mb 0.00 in0.0 mm 0.00 in/hr0.0 mm/hr 0.00 in0.0 mm
01:36 PM 55.0°F12.8°C 8.3°F-13.2°C 15% 6.9 mph N11.1 kmh N 19.7 mph31.7 kmh 30.37 in1028.4 mb 0.00 in0.0 mm 0.00 in/hr0.0 mm/hr 0.00 in0.0 mm
01:37 PM 56.1°F13.4°C 11.9°F-11.2°C 17% 9.8 mph N15.8 kmh N 19.7 mph31.7 kmh 30.36 in1028.1 mb 0.00 in0.0 mm 0.00 in/hr0.0 mm/hr 0.00 in0.0 mm
01:38 PM 55.4°F13.0°C 11.3°F-11.5°C 17% 9.2 mph N14.8 kmh N 19.7 mph31.7 kmh 30.37 in1028.4 mb 0.00 in0.0 mm 0.00 in/hr0.0 mm/hr 0.00 in0.0 mm
01:39 PM 55.4°F13.0°C 11.3°F-11.5°C 17% 7.6 mph N12.2 kmh N 19.7 mph31.7 kmh 30.37 in1028.4 mb 0.00 in0.0 mm 0.00 in/hr0.0 mm/hr 0.00 in0.0 mm
01:40 PM 55.9°F13.3°C 11.8°F-11.2°C 17% 10.7 mph N17.2 kmh N 19.7 mph31.7 kmh 30.37 in1028.4 mb 0.00 in0.0 mm 0.00 in/hr0.0 mm/hr 0.00 in0.0 mm
01:41 PM 55.8°F13.2°C 11.6°F-11.3°C 17% 9.2 mph N14.8 kmh N 19.7 mph31.7 kmh 30.37 in1028.4 mb 0.00 in0.0 mm 0.00 in/hr0.0 mm/hr 0.00 in0.0 mm
01:42 PM 55.2°F12.9°C 8.4°F-13.1°C 15% 13.0 mph N20.9 kmh N 20.6 mph33.2 kmh 30.36 in1028.1 mb 0.00 in0.0 mm 0.00 in/hr0.0 mm/hr 0.00 in0.0 mm
01:43 PM 54.3°F12.4°C 7.7°F-13.5°C 15% 6.9 mph N11.1 kmh N 20.6 mph33.2 kmh 30.36 in1028.1 mb 0.00 in0.0 mm 0.00 in/hr0.0 mm/hr 0.00 in0.0 mm
01:44 PM 56.1°F13.4°C 11.9°F-11.2°C 17% 10.7 mph N17.2 kmh N 20.6 mph33.2 kmh 30.37 in1028.4 mb 0.00 in0.0 mm 0.00 in/hr0.0 mm/hr 0.00 in0.0 mm
01:45 PM 54.9°F12.7°C 8.1°F-13.3°C 15% 6.9 mph N11.1 kmh N 20.6 mph33.2 kmh 30.37 in1028.4 mb 0.00 in0.0 mm 0.00 in/hr0.0 mm/hr 0.00 in0.0 mm
01:46 PM 55.6°F13.1°C 11.5°F-11.4°C 17% 11.4 mph N18.3 kmh N 20.6 mph33.2 kmh 30.36 in1028.1 mb 0.00 in0.0 mm 0.00 in/hr0.0 mm/hr 0.00 in0.0 mm
01:47 PM 54.9°F12.7°C 8.1°F-13.3°C 15% 9.2 mph N14.8 kmh N 20.6 mph33.2 kmh 30.36 in1028.1 mb 0.00 in0.0 mm 0.00 in/hr0.0 mm/hr 0.00 in0.0 mm
01:48 PM 56.8°F13.8°C 12.5°F-10.8°C 17% 8.3 mph N13.4 kmh N 20.6 mph33.2 kmh 30.36 in1028.1 mb 0.00 in0.0 mm 0.00 in/hr0.0 mm/hr 0.00 in0.0 mm
01:49 PM 56.3°F13.5°C 12.1°F-11.1°C 17% 9.8 mph N15.8 kmh N 20.6 mph33.2 kmh 30.36 in1028.1 mb 0.00 in0.0 mm 0.00 in/hr0.0 mm/hr 0.00 in0.0 mm
01:50 PM 56.1°F13.4°C 11.9°F-11.2°C 17% 9.8 mph NNE15.8 kmh NNE 20.6 mph33.2 kmh 30.36 in1028.1 mb 0.00 in0.0 mm 0.00 in/hr0.0 mm/hr 0.00 in0.0 mm
01:51 PM 56.8°F13.8°C 12.5°F-10.8°C 17% 7.6 mph NNE12.2 kmh NNE 20.6 mph33.2 kmh 30.36 in1028.1 mb 0.00 in0.0 mm 0.00 in/hr0.0 mm/hr 0.00 in0.0 mm
01:52 PM 58.3°F14.6°C 12.3°F-10.9°C 16% 11.4 mph NE18.3 kmh NE 20.6 mph33.2 kmh 30.36 in1028.1 mb 0.00 in0.0 mm 0.00 in/hr0.0 mm/hr 0.00 in0.0 mm
01:53 PM 56.8°F13.8°C 12.5°F-10.8°C 17% 13.6 mph NE21.9 kmh NE 22.1 mph35.6 kmh 30.36 in1028.1 mb 0.00 in0.0 mm 0.00 in/hr0.0 mm/hr 0.00 in0.0 mm
01:54 PM 56.1°F13.4°C 11.9°F-11.2°C 17% 8.3 mph NE13.4 kmh NE 22.1 mph35.6 kmh 30.36 in1028.1 mb 0.00 in0.0 mm 0.00 in/hr0.0 mm/hr 0.00 in0.0 mm
01:55 PM 56.5°F13.6°C 12.2°F-11.0°C 17% 10.7 mph NE17.2 kmh NE 22.1 mph35.6 kmh 30.36 in1028.1 mb 0.00 in0.0 mm 0.00 in/hr0.0 mm/hr 0.00 in0.0 mm
01:56 PM 57.0°F13.9°C 12.7°F-10.7°C 17% 7.6 mph NE12.2 kmh NE 22.1 mph35.6 kmh 30.36 in1028.1 mb 0.00 in0.0 mm 0.00 in/hr0.0 mm/hr 0.00 in0.0 mm
01:57 PM 55.4°F13.0°C 11.3°F-11.5°C 17% 10.7 mph ENE17.2 kmh ENE 22.1 mph35.6 kmh 30.36 in1028.1 mb 0.00 in0.0 mm 0.00 in/hr0.0 mm/hr 0.00 in0.0 mm
01:58 PM 55.9°F13.3°C 10.4°F-12.0°C 16% 8.3 mph NE13.4 kmh NE 22.1 mph35.6 kmh 30.36 in1028.1 mb 0.00 in0.0 mm 0.00 in/hr0.0 mm/hr 0.00 in0.0 mm
01:59 PM 57.7°F14.3°C 11.9°F-11.2°C 16% 13.6 mph NE21.9 kmh NE 22.1 mph35.6 kmh 30.36 in1028.1 mb 0.00 in0.0 mm 0.00 in/hr0.0 mm/hr 0.00 in0.0 mm
02:00 PM 56.8°F13.8°C 12.5°F-10.8°C 17% 6.0 mph NE9.7 kmh NE 22.1 mph35.6 kmh 30.36 in1028.1 mb 0.00 in0.0 mm 0.00 in/hr0.0 mm/hr 0.00 in0.0 mm
02:01 PM 57.9°F14.4°C 12.0°F-11.1°C 16% 13.0 mph NE20.9 kmh NE 23.5 mph37.8 kmh 30.36 in1028.1 mb 0.00 in0.0 mm 0.00 in/hr0.0 mm/hr 0.00 in0.0 mm
02:02 PM 57.6°F14.2°C 11.7°F-11.3°C 16% 10.7 mph NE17.2 kmh NE 23.5 mph37.8 kmh 30.36 in1028.1 mb 0.00 in0.0 mm 0.00 in/hr0.0 mm/hr 0.00 in0.0 mm
02:03 PM 57.2°F14.0°C 10.0°F-12.2°C 15% 8.3 mph NE13.4 kmh NE 23.5 mph37.8 kmh 30.36 in1028.1 mb 0.00 in0.0 mm 0.00 in/hr0.0 mm/hr 0.00 in0.0 mm
02:04 PM 58.1°F14.5°C 10.7°F-11.8°C 15% 6.9 mph ENE11.1 kmh ENE 23.5 mph37.8 kmh 30.36 in1028.1 mb 0.00 in0.0 mm 0.00 in/hr0.0 mm/hr 0.00 in0.0 mm
02:05 PM 58.6°F14.8°C 11.2°F-11.6°C 15% 9.8 mph NE15.8 kmh NE 23.5 mph37.8 kmh 30.36 in1028.1 mb 0.00 in0.0 mm 0.00 in/hr0.0 mm/hr 0.00 in0.0 mm
02:06 PM 57.2°F14.0°C 10.0°F-12.2°C 15% 11.4 mph ENE18.3 kmh ENE 23.5 mph37.8 kmh 30.36 in1028.1 mb 0.00 in0.0 mm 0.00 in/hr0.0 mm/hr 0.00 in0.0 mm
02:07 PM 57.2°F14.0°C 10.0°F-12.2°C 15% 10.7 mph ENE17.2 kmh ENE 23.5 mph37.8 kmh 30.36 in1028.1 mb 0.00 in0.0 mm 0.00 in/hr0.0 mm/hr 0.00 in0.0 mm
02:08 PM 57.0°F13.9°C 12.7°F-10.7°C 17% 9.2 mph ENE14.8 kmh ENE 23.5 mph37.8 kmh 30.35 in1027.8 mb 0.00 in0.0 mm 0.00 in/hr0.0 mm/hr 0.00 in0.0 mm
02:09 PM 57.7°F14.3°C 11.9°F-11.2°C 16% 13.0 mph ENE20.9 kmh ENE 23.5 mph37.8 kmh 30.36 in1028.1 mb 0.00 in0.0 mm 0.00 in/hr0.0 mm/hr 0.00 in0.0 mm
02:10 PM 57.0°F13.9°C 11.3°F-11.5°C 16% 15.2 mph ENE24.5 kmh ENE 23.5 mph37.8 kmh 30.36 in1028.1 mb 0.00 in0.0 mm 0.00 in/hr0.0 mm/hr 0.00 in0.0 mm
02:11 PM 57.7°F14.3°C 11.9°F-11.2°C 16% 9.8 mph ENE15.8 kmh ENE 23.5 mph37.8 kmh 30.36 in1028.1 mb 0.00 in0.0 mm 0.00 in/hr0.0 mm/hr 0.00 in0.0 mm
02:12 PM 56.8°F13.8°C 11.2°F-11.6°C 16% 9.2 mph ENE14.8 kmh ENE 17.4 mph28.0 kmh 30.36 in1028.1 mb 0.00 in0.0 mm 0.00 in/hr0.0 mm/hr 0.00 in0.0 mm
02:13 PM 57.4°F14.1°C 11.6°F-11.3°C 16% 8.3 mph ENE13.4 kmh ENE 17.4 mph28.0 kmh 30.36 in1028.1 mb 0.00 in0.0 mm 0.00 in/hr0.0 mm/hr 0.00 in0.0 mm
02:14 PM 56.8°F13.8°C 12.5°F-10.8°C 17% 9.8 mph NE15.8 kmh NE 17.4 mph28.0 kmh 30.36 in1028.1 mb 0.00 in0.0 mm 0.00 in/hr0.0 mm/hr 0.00 in0.0 mm
02:15 PM 55.9°F13.3°C 10.4°F-12.0°C 16% 8.3 mph NE13.4 kmh NE 17.4 mph28.0 kmh 30.36 in1028.1 mb 0.00 in0.0 mm 0.00 in/hr0.0 mm/hr 0.00 in0.0 mm
02:16 PM 57.4°F14.1°C 11.6°F-11.3°C 16% 8.3 mph NNE13.4 kmh NNE 17.4 mph28.0 kmh 30.36 in1028.1 mb 0.00 in0.0 mm 0.00 in/hr0.0 mm/hr 0.00 in0.0 mm
02:17 PM 56.7°F13.7°C 11.0°F-11.7°C 16% 12.1 mph NNE19.5 kmh NNE 21.3 mph34.3 kmh 30.35 in1027.8 mb 0.00 in0.0 mm 0.00 in/hr0.0 mm/hr 0.00 in0.0 mm
02:18 PM 56.3°F13.5°C 10.7°F-11.8°C 16% 10.7 mph NE17.2 kmh NE 21.3 mph34.3 kmh 30.35 in1027.8 mb 0.00 in0.0 mm 0.00 in/hr0.0 mm/hr 0.00 in0.0 mm
02:19 PM 57.4°F14.1°C 11.6°F-11.3°C 16% 8.3 mph NNE13.4 kmh NNE 21.3 mph34.3 kmh 30.35 in1027.8 mb 0.00 in0.0 mm 0.00 in/hr0.0 mm/hr 0.00 in0.0 mm
02:20 PM 58.5°F14.7°C 11.0°F-11.7°C 15% 14.5 mph NNE23.3 kmh NNE 21.3 mph34.3 kmh 30.35 in1027.8 mb 0.00 in0.0 mm 0.00 in/hr0.0 mm/hr 0.00 in0.0 mm
02:21 PM 56.8°F13.8°C 11.2°F-11.6°C 16% 13.6 mph NNE21.9 kmh NNE 21.3 mph34.3 kmh 30.36 in1028.1 mb 0.00 in0.0 mm 0.00 in/hr0.0 mm/hr 0.00 in0.0 mm
02:22 PM 57.2°F14.0°C 10.0°F-12.2°C 15% 6.0 mph NNE9.7 kmh NNE 21.3 mph34.3 kmh 30.36 in1028.1 mb 0.00 in0.0 mm 0.00 in/hr0.0 mm/hr 0.00 in0.0 mm
02:23 PM 58.1°F14.5°C 10.7°F-11.8°C 15% 6.0 mph NNE9.7 kmh NNE 21.3 mph34.3 kmh 30.36 in1028.1 mb 0.00 in0.0 mm 0.00 in/hr0.0 mm/hr 0.00 in0.0 mm
02:24 PM 58.1°F14.5°C 10.7°F-11.8°C 15% 9.2 mph NNE14.8 kmh NNE 21.3 mph34.3 kmh 30.36 in1028.1 mb 0.00 in0.0 mm 0.00 in/hr0.0 mm/hr 0.00 in0.0 mm
02:25 PM 58.6°F14.8°C 11.2°F-11.6°C 15% 5.4 mph NE8.7 kmh NE 21.3 mph34.3 kmh 30.36 in1028.1 mb 0.00 in0.0 mm 0.00 in/hr0.0 mm/hr 0.00 in0.0 mm
02:26 PM 59.9°F15.5°C 9.0°F-12.8°C 13% 5.4 mph NE8.7 kmh NE 21.3 mph34.3 kmh 30.36 in1028.1 mb 0.00 in0.0 mm 0.00 in/hr0.0 mm/hr 0.00 in0.0 mm
02:27 PM 59.7°F15.4°C 8.8°F-12.9°C 13% 6.9 mph NE11.1 kmh NE 21.3 mph34.3 kmh 30.36 in1028.1 mb 0.00 in0.0 mm 0.00 in/hr0.0 mm/hr 0.00 in0.0 mm
02:28 PM 58.1°F14.5°C 10.7°F-11.8°C 15% 6.9 mph NNE11.1 kmh NNE 21.3 mph34.3 kmh 30.35 in1027.8 mb 0.00 in0.0 mm 0.00 in/hr0.0 mm/hr 0.00 in0.0 mm
02:29 PM 58.6°F14.8°C 11.2°F-11.6°C 15% 7.6 mph NNE12.2 kmh NNE 21.3 mph34.3 kmh 30.35 in1027.8 mb 0.00 in0.0 mm 0.00 in/hr0.0 mm/hr 0.00 in0.0 mm
02:30 PM 58.1°F14.5°C 10.7°F-11.8°C 15% 8.3 mph NNE13.4 kmh NNE 21.3 mph34.3 kmh 30.35 in1027.8 mb 0.00 in0.0 mm 0.00 in/hr0.0 mm/hr 0.00 in0.0 mm
02:31 PM 58.8°F14.9°C 11.3°F-11.5°C 15% 8.3 mph N13.4 kmh N 21.3 mph34.3 kmh 30.35 in1027.8 mb 0.00 in0.0 mm 0.00 in/hr0.0 mm/hr 0.00 in0.0 mm
02:32 PM 57.6°F14.2°C 10.3°F-12.1°C 15% 9.2 mph NNE14.8 kmh NNE 16.8 mph27.0 kmh 30.36 in1028.1 mb 0.00 in0.0 mm 0.00 in/hr0.0 mm/hr 0.00 in0.0 mm
02:33 PM 58.3°F14.6°C 10.9°F-11.7°C 15% 7.6 mph NNE12.2 kmh NNE 16.8 mph27.0 kmh 30.35 in1027.8 mb 0.00 in0.0 mm 0.00 in/hr0.0 mm/hr 0.00 in0.0 mm
02:34 PM 58.5°F14.7°C 11.0°F-11.7°C 15% 11.4 mph N18.3 kmh N 16.8 mph27.0 kmh 30.35 in1027.8 mb 0.00 in0.0 mm 0.00 in/hr0.0 mm/hr 0.00 in0.0 mm
02:35 PM 57.2°F14.0°C 10.0°F-12.2°C 15% 10.7 mph N17.2 kmh N 16.8 mph27.0 kmh 30.36 in1028.1 mb 0.00 in0.0 mm 0.00 in/hr0.0 mm/hr 0.00 in0.0 mm
02:36 PM 58.1°F14.5°C 10.7°F-11.8°C 15% 9.8 mph N15.8 kmh N 16.8 mph27.0 kmh 30.35 in1027.8 mb 0.00 in0.0 mm 0.00 in/hr0.0 mm/hr 0.00 in0.0 mm
02:37 PM 57.6°F14.2°C 10.3°F-12.1°C 15% 9.2 mph N14.8 kmh N 16.8 mph27.0 kmh 30.36 in1028.1 mb 0.00 in0.0 mm 0.00 in/hr0.0 mm/hr 0.00 in0.0 mm
02:38 PM 57.7°F14.3°C 10.4°F-12.0°C 15% 11.4 mph N18.3 kmh N 20.6 mph33.2 kmh 30.36 in1028.1 mb 0.00 in0.0 mm 0.00 in/hr0.0 mm/hr 0.00 in0.0 mm
02:39 PM 56.5°F13.6°C 10.9°F-11.7°C 16% 5.4 mph NNE8.7 kmh NNE 20.6 mph33.2 kmh 30.35 in1027.8 mb 0.00 in0.0 mm 0.00 in/hr0.0 mm/hr 0.00 in0.0 mm
02:40 PM 58.6°F14.8°C 11.2°F-11.6°C 15% 3.8 mph NNE6.1 kmh NNE 20.6 mph33.2 kmh 30.35 in1027.8 mb 0.00 in0.0 mm 0.00 in/hr0.0 mm/hr 0.00 in0.0 mm
02:41 PM 58.6°F14.8°C 11.2°F-11.6°C 15% 6.9 mph NNE11.1 kmh NNE 20.6 mph33.2 kmh 30.34 in1027.4 mb 0.00 in0.0 mm 0.00 in/hr0.0 mm/hr 0.00 in0.0 mm
02:42 PM 58.5°F14.7°C 11.0°F-11.7°C 15% 11.4 mph N18.3 kmh N 20.6 mph33.2 kmh 30.35 in1027.8 mb 0.00 in0.0 mm 0.00 in/hr0.0 mm/hr 0.00 in0.0 mm
02:43 PM 57.9°F14.4°C 10.6°F-11.9°C 15% 11.4 mph NNE18.3 kmh NNE 20.6 mph33.2 kmh 30.35 in1027.8 mb 0.00 in0.0 mm 0.00 in/hr0.0 mm/hr 0.00 in0.0 mm
02:44 PM 58.3°F14.6°C 10.9°F-11.7°C 15% 6.9 mph NNE11.1 kmh NNE 20.6 mph33.2 kmh 30.35 in1027.8 mb 0.00 in0.0 mm 0.00 in/hr0.0 mm/hr 0.00 in0.0 mm
02:45 PM 58.5°F14.7°C 11.0°F-11.7°C 15% 9.2 mph NNE14.8 kmh NNE 20.6 mph33.2 kmh 30.35 in1027.8 mb 0.00 in0.0 mm 0.00 in/hr0.0 mm/hr 0.00 in0.0 mm
02:46 PM 58.5°F14.7°C 11.0°F-11.7°C 15% 9.2 mph NNE14.8 kmh NNE 20.6 mph33.2 kmh 30.35 in1027.8 mb 0.00 in0.0 mm 0.00 in/hr0.0 mm/hr 0.00 in0.0 mm
02:47 PM 58.8°F14.9°C 11.3°F-11.5°C 15% 9.2 mph N14.8 kmh N 20.6 mph33.2 kmh 30.35 in1027.8 mb 0.00 in0.0 mm 0.00 in/hr0.0 mm/hr 0.00 in0.0 mm
02:48 PM 59.4°F15.2°C 8.5°F-13.1°C 13% 11.4 mph N18.3 kmh N 20.6 mph33.2 kmh 30.34 in1027.4 mb 0.00 in0.0 mm 0.00 in/hr0.0 mm/hr 0.00 in0.0 mm
02:49 PM 57.7°F14.3°C 10.4°F-12.0°C 15% 10.7 mph N17.2 kmh N 18.3 mph29.5 kmh 30.34 in1027.4 mb 0.00 in0.0 mm 0.00 in/hr0.0 mm/hr 0.00 in0.0 mm
02:50 PM 57.7°F14.3°C 10.4°F-12.0°C 15% 13.0 mph N20.9 kmh N 19.7 mph31.7 kmh 30.34 in1027.4 mb 0.00 in0.0 mm 0.00 in/hr0.0 mm/hr 0.00 in0.0 mm
02:51 PM 57.6°F14.2°C 10.3°F-12.1°C 15% 6.0 mph N9.7 kmh N 19.7 mph31.7 kmh 30.34 in1027.4 mb 0.00 in0.0 mm 0.00 in/hr0.0 mm/hr 0.00 in0.0 mm
02:52 PM 58.6°F14.8°C 8.0°F-13.3°C 13% 8.3 mph N13.4 kmh N 19.7 mph31.7 kmh 30.34 in1027.4 mb 0.00 in0.0 mm 0.00 in/hr0.0 mm/hr 0.00 in0.0 mm
02:53 PM 58.3°F14.6°C 7.7°F-13.5°C 13% 8.3 mph N13.4 kmh N 19.7 mph31.7 kmh 30.34 in1027.4 mb 0.00 in0.0 mm 0.00 in/hr0.0 mm/hr 0.00 in0.0 mm
02:54 PM 58.5°F14.7°C 7.8°F-13.4°C 13% 12.1 mph N19.5 kmh N 19.7 mph31.7 kmh 30.34 in1027.4 mb 0.00 in0.0 mm 0.00 in/hr0.0 mm/hr 0.00 in0.0 mm
02:55 PM 58.1°F14.5°C 7.5°F-13.6°C 13% 9.2 mph N14.8 kmh N 19.7 mph31.7 kmh 30.34 in1027.4 mb 0.00 in0.0 mm 0.00 in/hr0.0 mm/hr 0.00 in0.0 mm
02:56 PM 57.9°F14.4°C 7.4°F-13.7°C 13% 13.0 mph N20.9 kmh N 19.7 mph31.7 kmh 30.34 in1027.4 mb 0.00 in0.0 mm 0.00 in/hr0.0 mm/hr 0.00 in0.0 mm
02:57 PM 58.5°F14.7°C 7.8°F-13.4°C 13% 7.6 mph NNE12.2 kmh NNE 19.7 mph31.7 kmh 30.35 in1027.8 mb 0.00 in0.0 mm 0.00 in/hr0.0 mm/hr 0.00 in0.0 mm
02:58 PM 60.4°F15.8°C 7.6°F-13.6°C 12% 6.0 mph NNE9.7 kmh NNE 19.7 mph31.7 kmh 30.35 in1027.8 mb 0.00 in0.0 mm 0.00 in/hr0.0 mm/hr 0.00 in0.0 mm
02:59 PM 59.4°F15.2°C 6.8°F-14.0°C 12% 6.9 mph N11.1 kmh N 19.7 mph31.7 kmh 30.34 in1027.4 mb 0.00 in0.0 mm 0.00 in/hr0.0 mm/hr 0.00 in0.0 mm
03:00 PM 58.1°F14.5°C 7.5°F-13.6°C 13% 9.2 mph NNE14.8 kmh NNE 19.7 mph31.7 kmh 30.34 in1027.4 mb 0.00 in0.0 mm 0.00 in/hr0.0 mm/hr 0.00 in0.0 mm
03:01 PM 58.5°F14.7°C 7.8°F-13.4°C 13% 12.1 mph NE19.5 kmh NE 21.3 mph34.3 kmh 30.35 in1027.8 mb 0.00 in0.0 mm 0.00 in/hr0.0 mm/hr 0.00 in0.0 mm
03:02 PM 58.8°F14.9°C 8.1°F-13.3°C 13% 6.9 mph NE11.1 kmh NE 21.3 mph34.3 kmh 30.35 in1027.8 mb 0.00 in0.0 mm 0.00 in/hr0.0 mm/hr 0.00 in0.0 mm
03:03 PM 59.5°F15.3°C 6.9°F-13.9°C 12% 5.4 mph NE8.7 kmh NE 21.3 mph34.3 kmh 30.35 in1027.8 mb 0.00 in0.0 mm 0.00 in/hr0.0 mm/hr 0.00 in0.0 mm
03:04 PM 59.9°F15.5°C 7.2°F-13.8°C 12% 9.8 mph NE15.8 kmh NE 21.3 mph34.3 kmh 30.35 in1027.8 mb 0.00 in0.0 mm 0.00 in/hr0.0 mm/hr 0.00 in0.0 mm
03:05 PM 59.4°F15.2°C 6.8°F-14.0°C 12% 6.0 mph NE9.7 kmh NE 21.3 mph34.3 kmh 30.34 in1027.4 mb 0.00 in0.0 mm 0.00 in/hr0.0 mm/hr 0.00 in0.0 mm
03:06 PM 59.5°F15.3°C 6.9°F-13.9°C 12% 9.8 mph NE15.8 kmh NE 21.3 mph34.3 kmh 30.35 in1027.8 mb 0.00 in0.0 mm 0.00 in/hr0.0 mm/hr 0.00 in0.0 mm
03:07 PM 58.8°F14.9°C 8.1°F-13.3°C 13% 6.0 mph NE9.7 kmh NE 21.3 mph34.3 kmh 30.35 in1027.8 mb 0.00 in0.0 mm 0.00 in/hr0.0 mm/hr 0.00 in0.0 mm
03:08 PM 58.8°F14.9°C 8.1°F-13.3°C 13% 7.6 mph NE12.2 kmh NE 21.3 mph34.3 kmh 30.35 in1027.8 mb 0.00 in0.0 mm 0.00 in/hr0.0 mm/hr 0.00 in0.0 mm
03:09 PM 59.5°F15.3°C 6.9°F-13.9°C 12% 9.2 mph NE14.8 kmh NE 21.3 mph34.3 kmh 30.34 in1027.4 mb 0.00 in0.0 mm 0.00 in/hr0.0 mm/hr 0.00 in0.0 mm
03:10 PM 58.8°F14.9°C 8.1°F-13.3°C 13% 3.8 mph NE6.1 kmh NE 21.3 mph34.3 kmh 30.35 in1027.8 mb 0.00 in0.0 mm 0.00 in/hr0.0 mm/hr 0.00 in0.0 mm
03:11 PM 59.9°F15.5°C 7.2°F-13.8°C 12% 5.4 mph NNE8.7 kmh NNE 21.3 mph34.3 kmh 30.35 in1027.8 mb 0.00 in0.0 mm 0.00 in/hr0.0 mm/hr 0.00 in0.0 mm
03:12 PM 60.4°F15.8°C 12.6°F-10.8°C 15% 10.7 mph NNE17.2 kmh NNE 19.7 mph31.7 kmh 30.34 in1027.4 mb 0.00 in0.0 mm 0.00 in/hr0.0 mm/hr 0.00 in0.0 mm
03:13 PM 60.6°F15.9°C 12.7°F-10.7°C 15% 4.5 mph N7.2 kmh N 19.7 mph31.7 kmh 30.35 in1027.8 mb 0.00 in0.0 mm 0.00 in/hr0.0 mm/hr 0.00 in0.0 mm
03:14 PM 61.2°F16.2°C 10.0°F-12.2°C 13% 7.6 mph N12.2 kmh N 19.7 mph31.7 kmh 30.34 in1027.4 mb 0.00 in0.0 mm 0.00 in/hr0.0 mm/hr 0.00 in0.0 mm
03:15 PM 59.9°F15.5°C 12.2°F-11.0°C 15% 7.6 mph NNE12.2 kmh NNE 19.7 mph31.7 kmh 30.35 in1027.8 mb 0.00 in0.0 mm 0.00 in/hr0.0 mm/hr 0.00 in0.0 mm
03:16 PM 59.9°F15.5°C 12.2°F-11.0°C 15% 4.5 mph NNE7.2 kmh NNE 19.7 mph31.7 kmh 30.35 in1027.8 mb 0.00 in0.0 mm 0.00 in/hr0.0 mm/hr 0.00 in0.0 mm
03:17 PM 60.4°F15.8°C 12.6°F-10.8°C 15% 8.3 mph NNE13.4 kmh NNE 19.7 mph31.7 kmh 30.34 in1027.4 mb 0.00 in0.0 mm 0.00 in/hr0.0 mm/hr 0.00 in0.0 mm
03:18 PM 59.4°F15.2°C 11.7°F-11.3°C 15% 7.6 mph NNE12.2 kmh NNE 19.7 mph31.7 kmh 30.35 in1027.8 mb 0.00 in0.0 mm 0.00 in/hr0.0 mm/hr 0.00 in0.0 mm
03:19 PM 60.8°F16.0°C 9.7°F-12.4°C 13% 9.8 mph NNE15.8 kmh NNE 19.7 mph31.7 kmh 30.34 in1027.4 mb 0.00 in0.0 mm 0.00 in/hr0.0 mm/hr 0.00 in0.0 mm
03:20 PM 60.4°F15.8°C 12.6°F-10.8°C 15% 9.8 mph N15.8 kmh N 19.7 mph31.7 kmh 30.34 in1027.4 mb 0.00 in0.0 mm 0.00 in/hr0.0 mm/hr 0.00 in0.0 mm
03:21 PM 61.2°F16.2°C 10.0°F-12.2°C 13% 12.1 mph N19.5 kmh N 19.7 mph31.7 kmh 30.34 in1027.4 mb 0.00 in0.0 mm 0.00 in/hr0.0 mm/hr 0.00 in0.0 mm
03:22 PM 60.4°F15.8°C 12.6°F-10.8°C 15% 9.2 mph N14.8 kmh N 15.9 mph25.6 kmh 30.34 in1027.4 mb 0.00 in0.0 mm 0.00 in/hr0.0 mm/hr 0.00 in0.0 mm
03:23 PM 60.1°F15.6°C 12.3°F-10.9°C 15% 14.5 mph NNE23.3 kmh NNE 19.7 mph31.7 kmh 30.34 in1027.4 mb 0.00 in0.0 mm 0.00 in/hr0.0 mm/hr 0.00 in0.0 mm
03:24 PM 58.8°F14.9°C 12.8°F-10.7°C 16% 9.2 mph NE14.8 kmh NE 19.7 mph31.7 kmh 30.34 in1027.4 mb 0.00 in0.0 mm 0.00 in/hr0.0 mm/hr 0.00 in0.0 mm
03:25 PM 59.5°F15.3°C 11.9°F-11.2°C 15% 11.4 mph NE18.3 kmh NE 19.7 mph31.7 kmh 30.34 in1027.4 mb 0.00 in0.0 mm 0.00 in/hr0.0 mm/hr 0.00 in0.0 mm
03:26 PM 59.0°F15.0°C 6.5°F-14.2°C 12% 13.6 mph NE21.9 kmh NE 19.7 mph31.7 kmh 30.34 in1027.4 mb 0.00 in0.0 mm 0.00 in/hr0.0 mm/hr 0.00 in0.0 mm
03:27 PM 59.2°F15.1°C 6.6°F-14.1°C 12% 7.6 mph NE12.2 kmh NE 19.7 mph31.7 kmh 30.34 in1027.4 mb 0.00 in0.0 mm 0.00 in/hr0.0 mm/hr 0.00 in0.0 mm
03:28 PM 59.4°F15.2°C 6.8°F-14.0°C 12% 6.0 mph NE9.7 kmh NE 19.7 mph31.7 kmh 30.34 in1027.4 mb 0.00 in0.0 mm 0.00 in/hr0.0 mm/hr 0.00 in0.0 mm
03:29 PM 59.9°F15.5°C 12.2°F-11.0°C 15% 10.7 mph NE17.2 kmh NE 22.1 mph35.6 kmh 30.34 in1027.4 mb 0.00 in0.0 mm 0.00 in/hr0.0 mm/hr 0.00 in0.0 mm
03:30 PM 59.9°F15.5°C 12.2°F-11.0°C 15% 6.0 mph NE9.7 kmh NE 22.1 mph35.6 kmh 30.34 in1027.4 mb 0.00 in0.0 mm 0.00 in/hr0.0 mm/hr 0.00 in0.0 mm
03:31 PM 60.3°F15.7°C 12.5°F-10.8°C 15% 8.3 mph ENE13.4 kmh ENE 22.1 mph35.6 kmh 30.33 in1027.1 mb 0.00 in0.0 mm 0.00 in/hr0.0 mm/hr 0.00 in0.0 mm
03:32 PM 61.0°F16.1°C 9.8°F-12.3°C 13% 7.6 mph NE12.2 kmh NE 22.1 mph35.6 kmh 30.34 in1027.4 mb 0.00 in0.0 mm 0.00 in/hr0.0 mm/hr 0.00 in0.0 mm
03:33 PM 60.6°F15.9°C 12.7°F-10.7°C 15% 12.1 mph NE19.5 kmh NE 22.1 mph35.6 kmh 30.34 in1027.4 mb 0.00 in0.0 mm 0.00 in/hr0.0 mm/hr 0.00 in0.0 mm
03:34 PM 60.6°F15.9°C 12.7°F-10.7°C 15% 6.9 mph NE11.1 kmh NE 22.1 mph35.6 kmh 30.34 in1027.4 mb 0.00 in0.0 mm 0.00 in/hr0.0 mm/hr 0.00 in0.0 mm
03:35 PM 61.0°F16.1°C 9.8°F-12.3°C 13% 6.0 mph NE9.7 kmh NE 22.1 mph35.6 kmh 30.34 in1027.4 mb 0.00 in0.0 mm 0.00 in/hr0.0 mm/hr 0.00 in0.0 mm
03:36 PM 61.2°F16.2°C 10.0°F-12.2°C 13% 7.6 mph NE12.2 kmh NE 22.1 mph35.6 kmh 30.34 in1027.4 mb 0.00 in0.0 mm 0.00 in/hr0.0 mm/hr 0.00 in0.0 mm
03:37 PM 60.4°F15.8°C 12.6°F-10.8°C 15% 6.9 mph NE11.1 kmh NE 22.1 mph35.6 kmh 30.34 in1027.4 mb 0.00 in0.0 mm 0.00 in/hr0.0 mm/hr 0.00 in0.0 mm
03:38 PM 60.8°F16.0°C 9.7°F-12.4°C 13% 9.8 mph NE15.8 kmh NE 22.1 mph35.6 kmh 30.34 in1027.4 mb 0.00 in0.0 mm 0.00 in/hr0.0 mm/hr 0.00 in0.0 mm
03:39 PM 61.2°F16.2°C 10.0°F-12.2°C 13% 8.3 mph NE13.4 kmh NE 19.7 mph31.7 kmh 30.34 in1027.4 mb 0.00 in0.0 mm 0.00 in/hr0.0 mm/hr 0.00 in0.0 mm
03:40 PM 60.8°F16.0°C 9.7°F-12.4°C 13% 6.0 mph NE9.7 kmh NE 19.7 mph31.7 kmh 30.34 in1027.4 mb 0.00 in0.0 mm 0.00 in/hr0.0 mm/hr 0.00 in0.0 mm
03:41 PM 60.1°F15.6°C 12.3°F-10.9°C 15% 15.9 mph NE25.6 kmh NE 21.3 mph34.3 kmh 30.34 in1027.4 mb 0.00 in0.0 mm 0.00 in/hr0.0 mm/hr 0.00 in0.0 mm
03:42 PM 60.1°F15.6°C 12.3°F-10.9°C 15% 15.2 mph NE24.5 kmh NE 22.1 mph35.6 kmh 30.33 in1027.1 mb 0.00 in0.0 mm 0.00 in/hr0.0 mm/hr 0.00 in0.0 mm
03:43 PM 60.1°F15.6°C 12.3°F-10.9°C 15% 13.0 mph NE20.9 kmh NE 22.1 mph35.6 kmh 30.33 in1027.1 mb 0.00 in0.0 mm 0.00 in/hr0.0 mm/hr 0.00 in0.0 mm
03:44 PM 59.5°F15.3°C 11.9°F-11.2°C 15% 9.8 mph NE15.8 kmh NE 22.1 mph35.6 kmh 30.33 in1027.1 mb 0.00 in0.0 mm 0.00 in/hr0.0 mm/hr 0.00 in0.0 mm
03:45 PM 59.0°F15.0°C 6.5°F-14.2°C 12% 9.8 mph NE15.8 kmh NE 22.1 mph35.6 kmh 30.34 in1027.4 mb 0.00 in0.0 mm 0.00 in/hr0.0 mm/hr 0.00 in0.0 mm
03:46 PM 59.4°F15.2°C 11.7°F-11.3°C 15% 9.8 mph NE15.8 kmh NE 22.1 mph35.6 kmh 30.34 in1027.4 mb 0.00 in0.0 mm 0.00 in/hr0.0 mm/hr 0.00 in0.0 mm
03:47 PM 59.9°F15.5°C 12.2°F-11.0°C 15% 6.9 mph NE11.1 kmh NE 22.1 mph35.6 kmh 30.34 in1027.4 mb 0.00 in0.0 mm 0.00 in/hr0.0 mm/hr 0.00 in0.0 mm
03:48 PM 61.2°F16.2°C 10.0°F-12.2°C 13% 9.8 mph NE15.8 kmh NE 22.1 mph35.6 kmh 30.34 in1027.4 mb 0.00 in0.0 mm 0.00 in/hr0.0 mm/hr 0.00 in0.0 mm
03:49 PM 59.9°F15.5°C 12.2°F-11.0°C 15% 9.2 mph NE14.8 kmh NE 22.1 mph35.6 kmh 30.33 in1027.1 mb 0.00 in0.0 mm 0.00 in/hr0.0 mm/hr 0.00 in0.0 mm
03:50 PM 60.3°F15.7°C 12.5°F-10.8°C 15% 10.7 mph NE17.2 kmh NE 22.1 mph35.6 kmh 30.33 in1027.1 mb 0.00 in0.0 mm 0.00 in/hr0.0 mm/hr 0.00 in0.0 mm
03:51 PM 60.3°F15.7°C 12.5°F-10.8°C 15% 11.4 mph NE18.3 kmh NE 22.1 mph35.6 kmh 30.34 in1027.4 mb 0.00 in0.0 mm 0.00 in/hr0.0 mm/hr 0.00 in0.0 mm
03:52 PM 60.1°F15.6°C 12.3°F-10.9°C 15% 9.2 mph NE14.8 kmh NE 22.1 mph35.6 kmh 30.34 in1027.4 mb 0.00 in0.0 mm 0.00 in/hr0.0 mm/hr 0.00 in0.0 mm
03:53 PM 61.2°F16.2°C 10.0°F-12.2°C 13% 11.4 mph NE18.3 kmh NE 19.7 mph31.7 kmh 30.33 in1027.1 mb 0.00 in0.0 mm 0.00 in/hr0.0 mm/hr 0.00 in0.0 mm
03:54 PM 60.1°F15.6°C 12.3°F-10.9°C 15% 9.8 mph NE15.8 kmh NE 18.3 mph29.5 kmh 30.34 in1027.4 mb 0.00 in0.0 mm 0.00 in/hr0.0 mm/hr 0.00 in0.0 mm
03:55 PM 59.4°F15.2°C 11.7°F-11.3°C 15% 6.9 mph NE11.1 kmh NE 16.8 mph27.0 kmh 30.33 in1027.1 mb 0.00 in0.0 mm 0.00 in/hr0.0 mm/hr 0.00 in0.0 mm
03:56 PM 60.3°F15.7°C 12.5°F-10.8°C 15% 8.3 mph NE13.4 kmh NE 16.8 mph27.0 kmh 30.34 in1027.4 mb 0.00 in0.0 mm 0.00 in/hr0.0 mm/hr 0.00 in0.0 mm
03:57 PM 60.3°F15.7°C 12.5°F-10.8°C 15% 9.2 mph ENE14.8 kmh ENE 16.8 mph27.0 kmh 30.33 in1027.1 mb 0.00 in0.0 mm 0.00 in/hr0.0 mm/hr 0.00 in0.0 mm
03:58 PM 60.8°F16.0°C 9.7°F-12.4°C 13% 9.8 mph ENE15.8 kmh ENE 16.8 mph27.0 kmh 30.34 in1027.4 mb 0.00 in0.0 mm 0.00 in/hr0.0 mm/hr 0.00 in0.0 mm
03:59 PM 60.6°F15.9°C 12.7°F-10.7°C 15% 7.6 mph ENE12.2 kmh ENE 16.8 mph27.0 kmh 30.33 in1027.1 mb 0.00 in0.0 mm 0.00 in/hr0.0 mm/hr 0.00 in0.0 mm
04:00 PM 61.0°F16.1°C 9.8°F-12.3°C 13% 6.9 mph E11.1 kmh E 16.8 mph27.0 kmh 30.33 in1027.1 mb 0.00 in0.0 mm 0.00 in/hr0.0 mm/hr 0.00 in0.0 mm
04:01 PM 61.2°F16.2°C 10.0°F-12.2°C 13% 7.6 mph E12.2 kmh E 17.4 mph28.0 kmh 30.33 in1027.1 mb 0.00 in0.0 mm 0.00 in/hr0.0 mm/hr 0.00 in0.0 mm
04:02 PM 61.2°F16.2°C 10.0°F-12.2°C 13% 12.1 mph E19.5 kmh E 17.4 mph28.0 kmh 30.33 in1027.1 mb 0.00 in0.0 mm 0.00 in/hr0.0 mm/hr 0.00 in0.0 mm
04:03 PM 60.4°F15.8°C 12.6°F-10.8°C 15% 6.0 mph ENE9.7 kmh ENE 17.4 mph28.0 kmh 30.33 in1027.1 mb 0.00 in0.0 mm 0.00 in/hr0.0 mm/hr 0.00 in0.0 mm
04:04 PM 60.6°F15.9°C 12.7°F-10.7°C 15% 15.9 mph ENE25.6 kmh ENE 23.5 mph37.8 kmh 30.34 in1027.4 mb 0.00 in0.0 mm 0.00 in/hr0.0 mm/hr 0.00 in0.0 mm
04:05 PM 61.0°F16.1°C 9.8°F-12.3°C 13% 6.9 mph ENE11.1 kmh ENE 23.5 mph37.8 kmh 30.33 in1027.1 mb 0.00 in0.0 mm 0.00 in/hr0.0 mm/hr 0.00 in0.0 mm
04:06 PM 61.2°F16.2°C 8.2°F-13.2°C 12% 7.6 mph ENE12.2 kmh ENE 23.5 mph37.8 kmh 30.33 in1027.1 mb 0.00 in0.0 mm 0.00 in/hr0.0 mm/hr 0.00 in0.0 mm
04:07 PM 61.2°F16.2°C 8.2°F-13.2°C 12% 9.8 mph NE15.8 kmh NE 23.5 mph37.8 kmh 30.33 in1027.1 mb 0.00 in0.0 mm 0.00 in/hr0.0 mm/hr 0.00 in0.0 mm
04:08 PM 60.4°F15.8°C 9.4°F-12.6°C 13% 9.2 mph NE14.8 kmh NE 23.5 mph37.8 kmh 30.33 in1027.1 mb 0.00 in0.0 mm 0.00 in/hr0.0 mm/hr 0.00 in0.0 mm
04:09 PM 61.5°F16.4°C 8.5°F-13.1°C 12% 6.9 mph NE11.1 kmh NE 23.5 mph37.8 kmh 30.33 in1027.1 mb 0.00 in0.0 mm 0.00 in/hr0.0 mm/hr 0.00 in0.0 mm
04:10 PM 61.5°F16.4°C 8.5°F-13.1°C 12% 6.9 mph NE11.1 kmh NE 23.5 mph37.8 kmh 30.33 in1027.1 mb 0.00 in0.0 mm 0.00 in/hr0.0 mm/hr 0.00 in0.0 mm
04:11 PM 61.5°F16.4°C 8.5°F-13.1°C 12% 10.7 mph NE17.2 kmh NE 23.5 mph37.8 kmh 30.33 in1027.1 mb 0.00 in0.0 mm 0.00 in/hr0.0 mm/hr 0.00 in0.0 mm
04:12 PM 61.2°F16.2°C 8.2°F-13.2°C 12% 8.3 mph NNE13.4 kmh NNE 23.5 mph37.8 kmh 30.33 in1027.1 mb 0.00 in0.0 mm 0.00 in/hr0.0 mm/hr 0.00 in0.0 mm
04:13 PM 60.8°F16.0°C 7.9°F-13.4°C 12% 6.0 mph NNE9.7 kmh NNE 23.5 mph37.8 kmh 30.33 in1027.1 mb 0.00 in0.0 mm 0.00 in/hr0.0 mm/hr 0.00 in0.0 mm
04:14 PM 60.8°F16.0°C 7.9°F-13.4°C 12% 7.6 mph N12.2 kmh N 19.7 mph31.7 kmh 30.33 in1027.1 mb 0.00 in0.0 mm 0.00 in/hr0.0 mm/hr 0.00 in0.0 mm
04:15 PM 61.0°F16.1°C 8.0°F-13.3°C 12% 6.0 mph N9.7 kmh N 19.7 mph31.7 kmh 30.33 in1027.1 mb 0.00 in0.0 mm 0.00 in/hr0.0 mm/hr 0.00 in0.0 mm
04:16 PM 61.2°F16.2°C 8.2°F-13.2°C 12% 5.4 mph N8.7 kmh N 19.7 mph31.7 kmh 30.33 in1027.1 mb 0.00 in0.0 mm 0.00 in/hr0.0 mm/hr 0.00 in0.0 mm
04:17 PM 61.0°F16.1°C 8.0°F-13.3°C 12% 9.2 mph N14.8 kmh N 19.7 mph31.7 kmh 30.33 in1027.1 mb 0.00 in0.0 mm 0.00 in/hr0.0 mm/hr 0.00 in0.0 mm
04:18 PM 60.8°F16.0°C 7.9°F-13.4°C 12% 5.4 mph N8.7 kmh N 17.4 mph28.0 kmh 30.33 in1027.1 mb 0.00 in0.0 mm 0.00 in/hr0.0 mm/hr 0.00 in0.0 mm
04:19 PM 61.0°F16.1°C 8.0°F-13.3°C 12% 7.6 mph NNE12.2 kmh NNE 17.4 mph28.0 kmh 30.33 in1027.1 mb 0.00 in0.0 mm 0.00 in/hr0.0 mm/hr 0.00 in0.0 mm
04:20 PM 61.0°F16.1°C 8.0°F-13.3°C 12% 12.1 mph NNE19.5 kmh NNE 17.4 mph28.0 kmh 30.33 in1027.1 mb 0.00 in0.0 mm 0.00 in/hr0.0 mm/hr 0.00 in0.0 mm
04:21 PM 60.8°F16.0°C 7.9°F-13.4°C 12% 9.2 mph NNE14.8 kmh NNE 17.4 mph28.0 kmh 30.33 in1027.1 mb 0.00 in0.0 mm 0.00 in/hr0.0 mm/hr 0.00 in0.0 mm
04:22 PM 61.3°F16.3°C 8.3°F-13.2°C 12% 6.0 mph NE9.7 kmh NE 15.2 mph24.5 kmh 30.32 in1026.8 mb 0.00 in0.0 mm 0.00 in/hr0.0 mm/hr 0.00 in0.0 mm
04:23 PM 61.2°F16.2°C 8.2°F-13.2°C 12% 7.6 mph NE12.2 kmh NE 15.2 mph24.5 kmh 30.33 in1027.1 mb 0.00 in0.0 mm 0.00 in/hr0.0 mm/hr 0.00 in0.0 mm
04:24 PM 61.3°F16.3°C 8.3°F-13.2°C 12% 6.0 mph NE9.7 kmh NE 15.2 mph24.5 kmh 30.32 in1026.8 mb 0.00 in0.0 mm 0.00 in/hr0.0 mm/hr 0.00 in0.0 mm
04:25 PM 62.6°F17.0°C 7.4°F-13.7°C 11% 5.4 mph NE8.7 kmh NE 15.2 mph24.5 kmh 30.33 in1027.1 mb 0.00 in0.0 mm 0.00 in/hr0.0 mm/hr 0.00 in0.0 mm
04:26 PM 62.2°F16.8°C 9.0°F-12.8°C 12% 8.3 mph NE13.4 kmh NE 15.2 mph24.5 kmh 30.33 in1027.1 mb 0.00 in0.0 mm 0.00 in/hr0.0 mm/hr 0.00 in0.0 mm
04:27 PM 61.2°F16.2°C 8.2°F-13.2°C 12% 4.5 mph NE7.2 kmh NE 15.2 mph24.5 kmh 30.33 in1027.1 mb 0.00 in0.0 mm 0.00 in/hr0.0 mm/hr 0.00 in0.0 mm
04:28 PM 61.7°F16.5°C 8.6°F-13.0°C 12% 6.9 mph NE11.1 kmh NE 15.2 mph24.5 kmh 30.32 in1026.8 mb 0.00 in0.0 mm 0.00 in/hr0.0 mm/hr 0.00 in0.0 mm
04:29 PM 61.5°F16.4°C 8.5°F-13.1°C 12% 6.9 mph NE11.1 kmh NE 15.2 mph24.5 kmh 30.33 in1027.1 mb 0.00 in0.0 mm 0.00 in/hr0.0 mm/hr 0.00 in0.0 mm
04:30 PM 62.1°F16.7°C 8.9°F-12.8°C 12% 8.3 mph NNE13.4 kmh NNE 15.2 mph24.5 kmh 30.32 in1026.8 mb 0.00 in0.0 mm 0.00 in/hr0.0 mm/hr 0.00 in0.0 mm
04:31 PM 61.9°F16.6°C 8.8°F-12.9°C 12% 7.6 mph NNE12.2 kmh NNE 14.5 mph23.3 kmh 30.33 in1027.1 mb 0.00 in0.0 mm 0.00 in/hr0.0 mm/hr 0.00 in0.0 mm
04:32 PM 62.4°F16.9°C 9.2°F-12.7°C 12% 3.1 mph NNE5.0 kmh NNE 13.0 mph20.9 kmh 30.33 in1027.1 mb 0.00 in0.0 mm 0.00 in/hr0.0 mm/hr 0.00 in0.0 mm
04:33 PM 62.1°F16.7°C 8.9°F-12.8°C 12% 9.2 mph NNE14.8 kmh NNE 13.6 mph21.9 kmh 30.33 in1027.1 mb 0.00 in0.0 mm 0.00 in/hr0.0 mm/hr 0.00 in0.0 mm
04:34 PM 61.7°F16.5°C 8.6°F-13.0°C 12% 5.4 mph NE8.7 kmh NE 13.6 mph21.9 kmh 30.33 in1027.1 mb 0.00 in0.0 mm 0.00 in/hr0.0 mm/hr 0.00 in0.0 mm
04:35 PM 62.4°F16.9°C 9.2°F-12.7°C 12% 4.5 mph NE7.2 kmh NE 13.6 mph21.9 kmh 30.33 in1027.1 mb 0.00 in0.0 mm 0.00 in/hr0.0 mm/hr 0.00 in0.0 mm
04:36 PM 62.6°F17.0°C 7.4°F-13.7°C 11% 10.7 mph NE17.2 kmh NE 14.5 mph23.3 kmh 30.32 in1026.8 mb 0.00 in0.0 mm 0.00 in/hr0.0 mm/hr 0.00 in0.0 mm
04:37 PM 60.6°F15.9°C 9.5°F-12.5°C 13% 6.9 mph NE11.1 kmh NE 15.2 mph24.5 kmh 30.32 in1026.8 mb 0.00 in0.0 mm 0.00 in/hr0.0 mm/hr 0.00 in0.0 mm
04:38 PM 60.8°F16.0°C 7.9°F-13.4°C 12% 6.0 mph NE9.7 kmh NE 15.2 mph24.5 kmh 30.32 in1026.8 mb 0.00 in0.0 mm 0.00 in/hr0.0 mm/hr 0.00 in0.0 mm
04:39 PM 61.2°F16.2°C 8.2°F-13.2°C 12% 9.8 mph NE15.8 kmh NE 15.2 mph24.5 kmh 30.32 in1026.8 mb 0.00 in0.0 mm 0.00 in/hr0.0 mm/hr 0.00 in0.0 mm
04:40 PM 61.0°F16.1°C 8.0°F-13.3°C 12% 8.3 mph NE13.4 kmh NE 15.2 mph24.5 kmh 30.32 in1026.8 mb 0.00 in0.0 mm 0.00 in/hr0.0 mm/hr 0.00 in0.0 mm
04:41 PM 61.0°F16.1°C 8.0°F-13.3°C 12% 6.0 mph NE9.7 kmh NE 15.2 mph24.5 kmh 30.32 in1026.8 mb 0.00 in0.0 mm 0.00 in/hr0.0 mm/hr 0.00 in0.0 mm
04:42 PM 61.9°F16.6°C 8.8°F-12.9°C 12% 9.2 mph NE14.8 kmh NE 18.3 mph29.5 kmh 30.32 in1026.8 mb 0.00 in0.0 mm 0.00 in/hr0.0 mm/hr 0.00 in0.0 mm
04:43 PM 61.3°F16.3°C 8.3°F-13.2°C 12% 11.4 mph NE18.3 kmh NE 18.3 mph29.5 kmh 30.32 in1026.8 mb 0.00 in0.0 mm 0.00 in/hr0.0 mm/hr 0.00 in0.0 mm
04:44 PM 61.5°F16.4°C 8.5°F-13.1°C 12% 9.2 mph NE14.8 kmh NE 18.3 mph29.5 kmh 30.32 in1026.8 mb 0.00 in0.0 mm 0.00 in/hr0.0 mm/hr 0.00 in0.0 mm
04:45 PM 61.2°F16.2°C 8.2°F-13.2°C 12% 9.2 mph NE14.8 kmh NE 18.3 mph29.5 kmh 30.32 in1026.8 mb 0.00 in0.0 mm 0.00 in/hr0.0 mm/hr 0.00 in0.0 mm
04:46 PM 61.3°F16.3°C 8.3°F-13.2°C 12% 10.7 mph NNE17.2 kmh NNE 18.3 mph29.5 kmh 30.33 in1027.1 mb 0.00 in0.0 mm 0.00 in/hr0.0 mm/hr 0.00 in0.0 mm
04:47 PM 61.7°F16.5°C 8.6°F-13.0°C 12% 12.1 mph NE19.5 kmh NE 18.3 mph29.5 kmh 30.32 in1026.8 mb 0.00 in0.0 mm 0.00 in/hr0.0 mm/hr 0.00 in0.0 mm
04:48 PM 61.3°F16.3°C 8.3°F-13.2°C 12% 10.7 mph NNE17.2 kmh NNE 18.3 mph29.5 kmh 30.32 in1026.8 mb 0.00 in0.0 mm 0.00 in/hr0.0 mm/hr 0.00 in0.0 mm
04:49 PM 61.2°F16.2°C 8.2°F-13.2°C 12% 4.5 mph NNE7.2 kmh NNE 18.3 mph29.5 kmh 30.33 in1027.1 mb 0.00 in0.0 mm 0.00 in/hr0.0 mm/hr 0.00 in0.0 mm
04:50 PM 61.7°F16.5°C 8.6°F-13.0°C 12% 3.8 mph NNE6.1 kmh NNE 18.3 mph29.5 kmh 30.33 in1027.1 mb 0.00 in0.0 mm 0.00 in/hr0.0 mm/hr 0.00 in0.0 mm
04:51 PM 62.1°F16.7°C 8.9°F-12.8°C 12% 6.0 mph NNE9.7 kmh NNE 18.3 mph29.5 kmh 30.33 in1027.1 mb 0.00 in0.0 mm 0.00 in/hr0.0 mm/hr 0.00 in0.0 mm
04:52 PM 61.5°F16.4°C 8.5°F-13.1°C 12% 5.4 mph NNE8.7 kmh NNE 18.3 mph29.5 kmh 30.33 in1027.1 mb 0.00 in0.0 mm 0.00 in/hr0.0 mm/hr 0.00 in0.0 mm
04:53 PM 61.3°F16.3°C 8.3°F-13.2°C 12% 8.3 mph NNE13.4 kmh NNE 18.3 mph29.5 kmh 30.33 in1027.1 mb 0.00 in0.0 mm 0.00 in/hr0.0 mm/hr 0.00 in0.0 mm
04:54 PM 61.2°F16.2°C 8.2°F-13.2°C 12% 8.3 mph NNE13.4 kmh NNE 18.3 mph29.5 kmh 30.33 in1027.1 mb 0.00 in0.0 mm 0.00 in/hr0.0 mm/hr 0.00 in0.0 mm
04:55 PM 61.3°F16.3°C 8.3°F-13.2°C 12% 4.5 mph NNE7.2 kmh NNE 18.3 mph29.5 kmh 30.33 in1027.1 mb 0.00 in0.0 mm 0.00 in/hr0.0 mm/hr 0.00 in0.0 mm
04:56 PM 61.9°F16.6°C 8.8°F-12.9°C 12% 3.8 mph NNE6.1 kmh NNE 18.3 mph29.5 kmh 30.33 in1027.1 mb 0.00 in0.0 mm 0.00 in/hr0.0 mm/hr 0.00 in0.0 mm
04:57 PM 62.1°F16.7°C 8.9°F-12.8°C 12% 3.1 mph N5.0 kmh N 18.3 mph29.5 kmh 30.33 in1027.1 mb 0.00 in0.0 mm 0.00 in/hr0.0 mm/hr 0.00 in0.0 mm
04:58 PM 62.4°F16.9°C 9.2°F-12.7°C 12% 3.8 mph NNE6.1 kmh NNE 14.5 mph23.3 kmh 30.33 in1027.1 mb 0.00 in0.0 mm 0.00 in/hr0.0 mm/hr 0.00 in0.0 mm
04:59 PM 62.4°F16.9°C 9.2°F-12.7°C 12% 3.8 mph NE6.1 kmh NE 14.5 mph23.3 kmh 30.33 in1027.1 mb 0.00 in0.0 mm 0.00 in/hr0.0 mm/hr 0.00 in0.0 mm
05:00 PM 62.6°F17.0°C 7.4°F-13.7°C 11% 4.5 mph NE7.2 kmh NE 14.5 mph23.3 kmh 30.33 in1027.1 mb 0.00 in0.0 mm 0.00 in/hr0.0 mm/hr 0.00 in0.0 mm
05:01 PM 62.6°F17.0°C 7.4°F-13.7°C 11% 4.5 mph NE7.2 kmh NE 14.5 mph23.3 kmh 30.33 in1027.1 mb 0.00 in0.0 mm 0.00 in/hr0.0 mm/hr 0.00 in0.0 mm
05:02 PM 62.8°F17.1°C 7.5°F-13.6°C 11% 6.0 mph NE9.7 kmh NE 13.0 mph20.9 kmh 30.32 in1026.8 mb 0.00 in0.0 mm 0.00 in/hr0.0 mm/hr 0.00 in0.0 mm
05:03 PM 62.1°F16.7°C 8.9°F-12.8°C 12% 6.0 mph NE9.7 kmh NE 13.0 mph20.9 kmh 30.33 in1027.1 mb 0.00 in0.0 mm 0.00 in/hr0.0 mm/hr 0.00 in0.0 mm
05:04 PM 61.5°F16.4°C 8.5°F-13.1°C 12% 3.1 mph N5.0 kmh N 13.0 mph20.9 kmh 30.33 in1027.1 mb 0.00 in0.0 mm 0.00 in/hr0.0 mm/hr 0.00 in0.0 mm
05:05 PM 62.8°F17.1°C 7.5°F-13.6°C 11% 4.5 mph NNE7.2 kmh NNE 13.0 mph20.9 kmh 30.33 in1027.1 mb 0.00 in0.0 mm 0.00 in/hr0.0 mm/hr 0.00 in0.0 mm
05:06 PM 62.2°F16.8°C 9.0°F-12.8°C 12% 6.0 mph NE9.7 kmh NE 13.0 mph20.9 kmh 30.33 in1027.1 mb 0.00 in0.0 mm 0.00 in/hr0.0 mm/hr 0.00 in0.0 mm
05:07 PM 62.2°F16.8°C 9.0°F-12.8°C 12% 7.6 mph NNE12.2 kmh NNE 13.0 mph20.9 kmh 30.33 in1027.1 mb 0.00 in0.0 mm 0.00 in/hr0.0 mm/hr 0.00 in0.0 mm
05:08 PM 61.5°F16.4°C 8.5°F-13.1°C 12% 6.9 mph N11.1 kmh N 13.0 mph20.9 kmh 30.33 in1027.1 mb 0.00 in0.0 mm 0.00 in/hr0.0 mm/hr 0.00 in0.0 mm
05:09 PM 61.9°F16.6°C 8.8°F-12.9°C 12% 10.7 mph NW17.2 kmh NW 15.2 mph24.5 kmh 30.32 in1026.8 mb 0.00 in0.0 mm 0.00 in/hr0.0 mm/hr 0.00 in0.0 mm
05:10 PM 61.5°F16.4°C 8.5°F-13.1°C 12% 10.7 mph NW17.2 kmh NW 15.2 mph24.5 kmh 30.33 in1027.1 mb 0.00 in0.0 mm 0.00 in/hr0.0 mm/hr 0.00 in0.0 mm
05:11 PM 61.2°F16.2°C 8.2°F-13.2°C 12% 6.9 mph N11.1 kmh N 15.2 mph24.5 kmh 30.33 in1027.1 mb 0.00 in0.0 mm 0.00 in/hr0.0 mm/hr 0.00 in0.0 mm
05:12 PM 61.9°F16.6°C 8.8°F-12.9°C 12% 7.6 mph N12.2 kmh N 15.2 mph24.5 kmh 30.33 in1027.1 mb 0.00 in0.0 mm 0.00 in/hr0.0 mm/hr 0.00 in0.0 mm
05:13 PM 61.5°F16.4°C 8.5°F-13.1°C 12% 5.4 mph N8.7 kmh N 15.2 mph24.5 kmh 30.33 in1027.1 mb 0.00 in0.0 mm 0.00 in/hr0.0 mm/hr 0.00 in0.0 mm
05:14 PM 61.9°F16.6°C 8.8°F-12.9°C 12% 5.4 mph N8.7 kmh N 15.2 mph24.5 kmh 30.33 in1027.1 mb 0.00 in0.0 mm 0.00 in/hr0.0 mm/hr 0.00 in0.0 mm
05:15 PM 62.1°F16.7°C 8.9°F-12.8°C 12% 6.9 mph N11.1 kmh N 15.2 mph24.5 kmh 30.33 in1027.1 mb 0.00 in0.0 mm 0.00 in/hr0.0 mm/hr 0.00 in0.0 mm
05:16 PM 61.2°F16.2°C 8.2°F-13.2°C 12% 6.9 mph N11.1 kmh N 18.3 mph29.5 kmh 30.32 in1026.8 mb 0.00 in0.0 mm 0.00 in/hr0.0 mm/hr 0.00 in0.0 mm
05:17 PM 61.5°F16.4°C 8.5°F-13.1°C 12% 6.0 mph NNE9.7 kmh NNE 18.3 mph29.5 kmh 30.33 in1027.1 mb 0.00 in0.0 mm 0.00 in/hr0.0 mm/hr 0.00 in0.0 mm
05:18 PM 62.2°F16.8°C 9.0°F-12.8°C 12% 9.2 mph NNE14.8 kmh NNE 18.3 mph29.5 kmh 30.32 in1026.8 mb 0.00 in0.0 mm 0.00 in/hr0.0 mm/hr 0.00 in0.0 mm
05:19 PM 61.9°F16.6°C 8.8°F-12.9°C 12% 9.2 mph NE14.8 kmh NE 18.3 mph29.5 kmh 30.33 in1027.1 mb 0.00 in0.0 mm 0.00 in/hr0.0 mm/hr 0.00 in0.0 mm
05:20 PM 61.7°F16.5°C 8.6°F-13.0°C 12% 7.6 mph NE12.2 kmh NE 18.3 mph29.5 kmh 30.32 in1026.8 mb 0.00 in0.0 mm 0.00 in/hr0.0 mm/hr 0.00 in0.0 mm
05:21 PM 61.7°F16.5°C 8.6°F-13.0°C 12% 8.3 mph NE13.4 kmh NE 18.3 mph29.5 kmh 30.32 in1026.8 mb 0.00 in0.0 mm 0.00 in/hr0.0 mm/hr 0.00 in0.0 mm
05:22 PM 61.3°F16.3°C 8.3°F-13.2°C 12% 7.6 mph NE12.2 kmh NE 18.3 mph29.5 kmh 30.32 in1026.8 mb 0.00 in0.0 mm 0.00 in/hr0.0 mm/hr 0.00 in0.0 mm
05:23 PM 61.5°F16.4°C 8.5°F-13.1°C 12% 6.0 mph NE9.7 kmh NE 18.3 mph29.5 kmh 30.32 in1026.8 mb 0.00 in0.0 mm 0.00 in/hr0.0 mm/hr 0.00 in0.0 mm
05:24 PM 61.7°F16.5°C 8.6°F-13.0°C 12% 6.0 mph NE9.7 kmh NE 18.3 mph29.5 kmh 30.32 in1026.8 mb 0.00 in0.0 mm 0.00 in/hr0.0 mm/hr 0.00 in0.0 mm
05:25 PM 61.3°F16.3°C 8.3°F-13.2°C 12% 4.5 mph NE7.2 kmh NE 18.3 mph29.5 kmh 30.32 in1026.8 mb 0.00 in0.0 mm 0.00 in/hr0.0 mm/hr 0.00 in0.0 mm
05:26 PM 61.7°F16.5°C 8.6°F-13.0°C 12% 3.8 mph NE6.1 kmh NE 14.5 mph23.3 kmh 30.33 in1027.1 mb 0.00 in0.0 mm 0.00 in/hr0.0 mm/hr 0.00 in0.0 mm
05:27 PM 62.4°F16.9°C 9.2°F-12.7°C 12% 4.5 mph NE7.2 kmh NE 14.5 mph23.3 kmh 30.32 in1026.8 mb 0.00 in0.0 mm 0.00 in/hr0.0 mm/hr 0.00 in0.0 mm
05:28 PM 61.9°F16.6°C 8.8°F-12.9°C 12% 6.0 mph NE9.7 kmh NE 14.5 mph23.3 kmh 30.33 in1027.1 mb 0.00 in0.0 mm 0.00 in/hr0.0 mm/hr 0.00 in0.0 mm
05:29 PM 62.1°F16.7°C 8.9°F-12.8°C 12% 5.4 mph NE8.7 kmh NE 14.5 mph23.3 kmh 30.32 in1026.8 mb 0.00 in0.0 mm 0.00 in/hr0.0 mm/hr 0.00 in0.0 mm
05:30 PM 61.7°F16.5°C 8.6°F-13.0°C 12% 9.2 mph NNE14.8 kmh NNE 14.5 mph23.3 kmh 30.32 in1026.8 mb 0.00 in0.0 mm 0.00 in/hr0.0 mm/hr 0.00 in0.0 mm
05:31 PM 61.5°F16.4°C 8.5°F-13.1°C 12% 7.6 mph NNE12.2 kmh NNE 14.5 mph23.3 kmh 30.32 in1026.8 mb 0.00 in0.0 mm 0.00 in/hr0.0 mm/hr 0.00 in0.0 mm
05:32 PM 61.5°F16.4°C 8.5°F-13.1°C 12% 5.4 mph NNE8.7 kmh NNE 12.1 mph19.5 kmh 30.32 in1026.8 mb 0.00 in0.0 mm 0.00 in/hr0.0 mm/hr 0.00 in0.0 mm
05:33 PM 61.7°F16.5°C 8.6°F-13.0°C 12% 4.5 mph NNE7.2 kmh NNE 12.1 mph19.5 kmh 30.33 in1027.1 mb 0.00 in0.0 mm 0.00 in/hr0.0 mm/hr 0.00 in0.0 mm
05:34 PM 62.1°F16.7°C 8.9°F-12.8°C 12% 3.8 mph NNE6.1 kmh NNE 12.1 mph19.5 kmh 30.33 in1027.1 mb 0.00 in0.0 mm 0.00 in/hr0.0 mm/hr 0.00 in0.0 mm
05:35 PM 62.2°F16.8°C 9.0°F-12.8°C 12% 3.8 mph NE6.1 kmh NE 12.1 mph19.5 kmh 30.32 in1026.8 mb 0.00 in0.0 mm 0.00 in/hr0.0 mm/hr 0.00 in0.0 mm
05:36 PM 61.5°F16.4°C 8.5°F-13.1°C 12% 7.6 mph NE12.2 kmh NE 12.1 mph19.5 kmh 30.33 in1027.1 mb 0.00 in0.0 mm 0.00 in/hr0.0 mm/hr 0.00 in0.0 mm
05:37 PM 61.9°F16.6°C 8.8°F-12.9°C 12% 4.5 mph NE7.2 kmh NE 12.1 mph19.5 kmh 30.33 in1027.1 mb 0.00 in0.0 mm 0.00 in/hr0.0 mm/hr 0.00 in0.0 mm
05:38 PM 61.9°F16.6°C 8.8°F-12.9°C 12% 6.0 mph ENE9.7 kmh ENE 12.1 mph19.5 kmh 30.33 in1027.1 mb 0.00 in0.0 mm 0.00 in/hr0.0 mm/hr 0.00 in0.0 mm
05:39 PM 61.9°F16.6°C 8.8°F-12.9°C 12% 6.0 mph ENE9.7 kmh ENE 13.0 mph20.9 kmh 30.32 in1026.8 mb 0.00 in0.0 mm 0.00 in/hr0.0 mm/hr 0.00 in0.0 mm
05:40 PM 61.7°F16.5°C 8.6°F-13.0°C 12% 8.3 mph E13.4 kmh E 13.0 mph20.9 kmh 30.33 in1027.1 mb 0.00 in0.0 mm 0.00 in/hr0.0 mm/hr 0.00 in0.0 mm
05:41 PM 61.2°F16.2°C 8.2°F-13.2°C 12% 3.8 mph E6.1 kmh E 13.0 mph20.9 kmh 30.33 in1027.1 mb 0.00 in0.0 mm 0.00 in/hr0.0 mm/hr 0.00 in0.0 mm
05:42 PM 61.9°F16.6°C 8.8°F-12.9°C 12% 3.1 mph E5.0 kmh E 13.0 mph20.9 kmh 30.33 in1027.1 mb 0.00 in0.0 mm 0.00 in/hr0.0 mm/hr 0.00 in0.0 mm
05:43 PM 62.1°F16.7°C 8.9°F-12.8°C 12% 8.3 mph E13.4 kmh E 13.0 mph20.9 kmh 30.33 in1027.1 mb 0.00 in0.0 mm 0.00 in/hr0.0 mm/hr 0.00 in0.0 mm
05:44 PM 61.7°F16.5°C 8.6°F-13.0°C 12% 4.5 mph ENE7.2 kmh ENE 13.0 mph20.9 kmh 30.33 in1027.1 mb 0.00 in0.0 mm 0.00 in/hr0.0 mm/hr 0.00 in0.0 mm
05:45 PM 62.4°F16.9°C 9.2°F-12.7°C 12% 7.6 mph NE12.2 kmh NE 13.0 mph20.9 kmh 30.33 in1027.1 mb 0.00 in0.0 mm 0.00 in/hr0.0 mm/hr 0.00 in0.0 mm
05:46 PM 61.9°F16.6°C 8.8°F-12.9°C 12% 6.9 mph NE11.1 kmh NE 13.0 mph20.9 kmh 30.33 in1027.1 mb 0.00 in0.0 mm 0.00 in/hr0.0 mm/hr 0.00 in0.0 mm
05:47 PM 61.7°F16.5°C 8.6°F-13.0°C 12% 3.8 mph N6.1 kmh N 13.0 mph20.9 kmh 30.33 in1027.1 mb 0.00 in0.0 mm 0.00 in/hr0.0 mm/hr 0.00 in0.0 mm
05:48 PM 61.2°F16.2°C 8.2°F-13.2°C 12% 3.1 mph NNW5.0 kmh NNW 13.0 mph20.9 kmh 30.33 in1027.1 mb 0.00 in0.0 mm 0.00 in/hr0.0 mm/hr 0.00 in0.0 mm
05:49 PM 61.5°F16.4°C 8.5°F-13.1°C 12% 4.5 mph NW7.2 kmh NW 13.0 mph20.9 kmh 30.33 in1027.1 mb 0.00 in0.0 mm 0.00 in/hr0.0 mm/hr 0.00 in0.0 mm
05:50 PM 61.7°F16.5°C 8.6°F-13.0°C 12% 5.4 mph NW8.7 kmh NW 13.0 mph20.9 kmh 30.33 in1027.1 mb 0.00 in0.0 mm 0.00 in/hr0.0 mm/hr 0.00 in0.0 mm
05:51 PM 61.5°F16.4°C 8.5°F-13.1°C 12% 3.8 mph NW6.1 kmh NW 13.0 mph20.9 kmh 30.33 in1027.1 mb 0.00 in0.0 mm 0.00 in/hr0.0 mm/hr 0.00 in0.0 mm
05:52 PM 62.2°F16.8°C 7.1°F-13.8°C 11% 3.1 mph NW5.0 kmh NW 13.0 mph20.9 kmh 30.33 in1027.1 mb 0.00 in0.0 mm 0.00 in/hr0.0 mm/hr 0.00 in0.0 mm
05:53 PM 62.4°F16.9°C 7.3°F-13.7°C 11% 2.2 mph NW3.5 kmh NW 13.0 mph20.9 kmh 30.33 in1027.1 mb 0.00 in0.0 mm 0.00 in/hr0.0 mm/hr 0.00 in0.0 mm
05:54 PM 62.4°F16.9°C 7.3°F-13.7°C 11% 6.9 mph NW11.1 kmh NW 13.0 mph20.9 kmh 30.33 in1027.1 mb 0.00 in0.0 mm 0.00 in/hr0.0 mm/hr 0.00 in0.0 mm
05:55 PM 61.9°F16.6°C 6.8°F-14.0°C 11% 7.6 mph NW12.2 kmh NW 11.4 mph18.3 kmh 30.34 in1027.4 mb 0.00 in0.0 mm 0.00 in/hr0.0 mm/hr 0.00 in0.0 mm
05:56 PM 61.5°F16.4°C 8.5°F-13.1°C 12% 10.7 mph N17.2 kmh N 15.9 mph25.6 kmh 30.34 in1027.4 mb 0.00 in0.0 mm 0.00 in/hr0.0 mm/hr 0.00 in0.0 mm
05:57 PM 61.7°F16.5°C 8.6°F-13.0°C 12% 9.2 mph NE14.8 kmh NE 15.9 mph25.6 kmh 30.34 in1027.4 mb 0.00 in0.0 mm 0.00 in/hr0.0 mm/hr 0.00 in0.0 mm
05:58 PM 61.5°F16.4°C 8.5°F-13.1°C 12% 5.4 mph NE8.7 kmh NE 15.9 mph25.6 kmh 30.33 in1027.1 mb 0.00 in0.0 mm 0.00 in/hr0.0 mm/hr 0.00 in0.0 mm
05:59 PM 61.3°F16.3°C 8.3°F-13.2°C 12% 4.5 mph NE7.2 kmh NE 15.9 mph25.6 kmh 30.34 in1027.4 mb 0.00 in0.0 mm 0.00 in/hr0.0 mm/hr 0.00 in0.0 mm
06:00 PM 61.7°F16.5°C 8.6°F-13.0°C 12% 6.0 mph NE9.7 kmh NE 15.9 mph25.6 kmh 30.33 in1027.1 mb 0.00 in0.0 mm 0.00 in/hr0.0 mm/hr 0.00 in0.0 mm
06:01 PM 61.5°F16.4°C 8.5°F-13.1°C 12% 6.0 mph NE9.7 kmh NE 15.9 mph25.6 kmh 30.34 in1027.4 mb 0.00 in0.0 mm 0.00 in/hr0.0 mm/hr 0.00 in0.0 mm
06:02 PM 61.3°F16.3°C 8.3°F-13.2°C 12% 7.6 mph NE12.2 kmh NE 15.9 mph25.6 kmh 30.33 in1027.1 mb 0.00 in0.0 mm 0.00 in/hr0.0 mm/hr 0.00 in0.0 mm
06:03 PM 61.2°F16.2°C 8.2°F-13.2°C 12% 6.9 mph ENE11.1 kmh ENE 15.9 mph25.6 kmh 30.34 in1027.4 mb 0.00 in0.0 mm 0.00 in/hr0.0 mm/hr 0.00 in0.0 mm
06:04 PM 61.0°F16.1°C 8.0°F-13.3°C 12% 7.6 mph ENE12.2 kmh ENE 15.9 mph25.6 kmh 30.34 in1027.4 mb 0.00 in0.0 mm 0.00 in/hr0.0 mm/hr 0.00 in0.0 mm
06:05 PM 61.3°F16.3°C 8.3°F-13.2°C 12% 7.6 mph ENE12.2 kmh ENE 15.9 mph25.6 kmh 30.34 in1027.4 mb 0.00 in0.0 mm 0.00 in/hr0.0 mm/hr 0.00 in0.0 mm
06:06 PM 61.2°F16.2°C 8.2°F-13.2°C 12% 9.2 mph NE14.8 kmh NE 15.9 mph25.6 kmh 30.34 in1027.4 mb 0.00 in0.0 mm 0.00 in/hr0.0 mm/hr 0.00 in0.0 mm
06:07 PM 61.2°F16.2°C 8.2°F-13.2°C 12% 3.8 mph NE6.1 kmh NE 15.9 mph25.6 kmh 30.33 in1027.1 mb 0.00 in0.0 mm 0.00 in/hr0.0 mm/hr 0.00 in0.0 mm
06:08 PM 61.2°F16.2°C 8.2°F-13.2°C 12% 6.0 mph NE9.7 kmh NE 16.8 mph27.0 kmh 30.33 in1027.1 mb 0.00 in0.0 mm 0.00 in/hr0.0 mm/hr 0.00 in0.0 mm
06:09 PM 61.2°F16.2°C 8.2°F-13.2°C 12% 7.6 mph NE12.2 kmh NE 16.8 mph27.0 kmh 30.34 in1027.4 mb 0.00 in0.0 mm 0.00 in/hr0.0 mm/hr 0.00 in0.0 mm
06:10 PM 61.0°F16.1°C 8.0°F-13.3°C 12% 6.0 mph NE9.7 kmh NE 16.8 mph27.0 kmh 30.34 in1027.4 mb 0.00 in0.0 mm 0.00 in/hr0.0 mm/hr 0.00 in0.0 mm
06:11 PM 61.0°F16.1°C 8.0°F-13.3°C 12% 6.9 mph NE11.1 kmh NE 16.8 mph27.0 kmh 30.34 in1027.4 mb 0.00 in0.0 mm 0.00 in/hr0.0 mm/hr 0.00 in0.0 mm
06:12 PM 61.5°F16.4°C 8.5°F-13.1°C 12% 6.0 mph NE9.7 kmh NE 16.8 mph27.0 kmh 30.34 in1027.4 mb 0.00 in0.0 mm 0.00 in/hr0.0 mm/hr 0.00 in0.0 mm
06:13 PM 61.5°F16.4°C 8.5°F-13.1°C 12% 7.6 mph NE12.2 kmh NE 16.8 mph27.0 kmh 30.34 in1027.4 mb 0.00 in0.0 mm 0.00 in/hr0.0 mm/hr 0.00 in0.0 mm
06:14 PM 61.3°F16.3°C 8.3°F-13.2°C 12% 9.2 mph NE14.8 kmh NE 16.8 mph27.0 kmh 30.34 in1027.4 mb 0.00 in0.0 mm 0.00 in/hr0.0 mm/hr 0.00 in0.0 mm
06:15 PM 61.7°F16.5°C 8.6°F-13.0°C 12% 3.8 mph NE6.1 kmh NE 16.8 mph27.0 kmh 30.34 in1027.4 mb 0.00 in0.0 mm 0.00 in/hr0.0 mm/hr 0.00 in0.0 mm
06:16 PM 61.9°F16.6°C 8.8°F-12.9°C 12% 3.8 mph NE6.1 kmh NE 16.8 mph27.0 kmh 30.34 in1027.4 mb 0.00 in0.0 mm 0.00 in/hr0.0 mm/hr 0.00 in0.0 mm
06:17 PM 61.9°F16.6°C 6.8°F-14.0°C 11% 9.2 mph NE14.8 kmh NE 16.8 mph27.0 kmh 30.34 in1027.4 mb 0.00 in0.0 mm 0.00 in/hr0.0 mm/hr 0.00 in0.0 mm
06:18 PM 61.0°F16.1°C 8.0°F-13.3°C 12% 9.8 mph NE15.8 kmh NE 16.8 mph27.0 kmh 30.34 in1027.4 mb 0.00 in0.0 mm 0.00 in/hr0.0 mm/hr 0.00 in0.0 mm
06:19 PM 60.4°F15.8°C 9.4°F-12.6°C 13% 7.6 mph NE12.2 kmh NE 16.8 mph27.0 kmh 30.34 in1027.4 mb 0.00 in0.0 mm 0.00 in/hr0.0 mm/hr 0.00 in0.0 mm
06:20 PM 60.8°F16.0°C 7.9°F-13.4°C 12% 6.0 mph NE9.7 kmh NE 16.8 mph27.0 kmh 30.34 in1027.4 mb 0.00 in0.0 mm 0.00 in/hr0.0 mm/hr 0.00 in0.0 mm
06:21 PM 61.2°F16.2°C 8.2°F-13.2°C 12% 6.0 mph NE9.7 kmh NE 16.8 mph27.0 kmh 30.34 in1027.4 mb 0.00 in0.0 mm 0.00 in/hr0.0 mm/hr 0.00 in0.0 mm
06:22 PM 61.2°F16.2°C 8.2°F-13.2°C 12% 6.9 mph NE11.1 kmh NE 16.8 mph27.0 kmh 30.34 in1027.4 mb 0.00 in0.0 mm 0.00 in/hr0.0 mm/hr 0.00 in0.0 mm
06:23 PM 61.2°F16.2°C 8.2°F-13.2°C 12% 4.5 mph NE7.2 kmh NE 16.8 mph27.0 kmh 30.34 in1027.4 mb 0.00 in0.0 mm 0.00 in/hr0.0 mm/hr 0.00 in0.0 mm
06:24 PM 61.3°F16.3°C 8.3°F-13.2°C 12% 5.4 mph NE8.7 kmh NE 16.8 mph27.0 kmh 30.34 in1027.4 mb 0.00 in0.0 mm 0.00 in/hr0.0 mm/hr 0.00 in0.0 mm
06:25 PM 61.3°F16.3°C 8.3°F-13.2°C 12% 8.3 mph ENE13.4 kmh ENE 16.8 mph27.0 kmh 30.34 in1027.4 mb 0.00 in0.0 mm 0.00 in/hr0.0 mm/hr 0.00 in0.0 mm
06:26 PM 61.0°F16.1°C 8.0°F-13.3°C 12% 6.9 mph ENE11.1 kmh ENE 16.8 mph27.0 kmh 30.34 in1027.4 mb 0.00 in0.0 mm 0.00 in/hr0.0 mm/hr 0.00 in0.0 mm
06:27 PM 60.8°F16.0°C 7.9°F-13.4°C 12% 6.9 mph ENE11.1 kmh ENE 16.8 mph27.0 kmh 30.34 in1027.4 mb 0.00 in0.0 mm 0.00 in/hr0.0 mm/hr 0.00 in0.0 mm
06:28 PM 61.2°F16.2°C 8.2°F-13.2°C 12% 9.8 mph ENE15.8 kmh ENE 13.6 mph21.9 kmh 30.34 in1027.4 mb 0.00 in0.0 mm 0.00 in/hr0.0 mm/hr 0.00 in0.0 mm
06:29 PM 61.0°F16.1°C 8.0°F-13.3°C 12% 3.8 mph ENE6.1 kmh ENE 13.6 mph21.9 kmh 30.34 in1027.4 mb 0.00 in0.0 mm 0.00 in/hr0.0 mm/hr 0.00 in0.0 mm
06:30 PM 61.3°F16.3°C 8.3°F-13.2°C 12% 3.8 mph ENE6.1 kmh ENE 13.6 mph21.9 kmh 30.34 in1027.4 mb 0.00 in0.0 mm 0.00 in/hr0.0 mm/hr 0.00 in0.0 mm
06:31 PM 61.2°F16.2°C 8.2°F-13.2°C 12% 8.3 mph NE13.4 kmh NE 13.6 mph21.9 kmh 30.34 in1027.4 mb 0.00 in0.0 mm 0.00 in/hr0.0 mm/hr 0.00 in0.0 mm
06:32 PM 61.0°F16.1°C 8.0°F-13.3°C 12% 3.8 mph NE6.1 kmh NE 13.6 mph21.9 kmh 30.34 in1027.4 mb 0.00 in0.0 mm 0.00 in/hr0.0 mm/hr 0.00 in0.0 mm
06:33 PM 60.8°F16.0°C 7.9°F-13.4°C 12% 6.0 mph NE9.7 kmh NE 13.6 mph21.9 kmh 30.34 in1027.4 mb 0.00 in0.0 mm 0.00 in/hr0.0 mm/hr 0.00 in0.0 mm
06:34 PM 60.8°F16.0°C 7.9°F-13.4°C 12% 5.4 mph NE8.7 kmh NE 13.6 mph21.9 kmh 30.34 in1027.4 mb 0.00 in0.0 mm 0.00 in/hr0.0 mm/hr 0.00 in0.0 mm
06:35 PM 60.8°F16.0°C 7.9°F-13.4°C 12% 6.0 mph NE9.7 kmh NE 13.6 mph21.9 kmh 30.34 in1027.4 mb 0.00 in0.0 mm 0.00 in/hr0.0 mm/hr 0.00 in0.0 mm
06:36 PM 60.8°F16.0°C 7.9°F-13.4°C 12% 6.0 mph NE9.7 kmh NE 13.6 mph21.9 kmh 30.34 in1027.4 mb 0.00 in0.0 mm 0.00 in/hr0.0 mm/hr 0.00 in0.0 mm
06:37 PM 61.2°F16.2°C 8.2°F-13.2°C 12% 3.1 mph NE5.0 kmh NE 13.6 mph21.9 kmh 30.34 in1027.4 mb 0.00 in0.0 mm 0.00 in/hr0.0 mm/hr 0.00 in0.0 mm
06:38 PM 61.2°F16.2°C 8.2°F-13.2°C 12% 3.8 mph NE6.1 kmh NE 13.6 mph21.9 kmh 30.34 in1027.4 mb 0.00 in0.0 mm 0.00 in/hr0.0 mm/hr 0.00 in0.0 mm
06:39 PM 61.2°F16.2°C 8.2°F-13.2°C 12% 5.4 mph NE8.7 kmh NE 10.7 mph17.2 kmh 30.34 in1027.4 mb 0.00 in0.0 mm 0.00 in/hr0.0 mm/hr 0.00 in0.0 mm
06:40 PM 61.0°F16.1°C 8.0°F-13.3°C 12% 3.8 mph NE6.1 kmh NE 10.7 mph17.2 kmh 30.34 in1027.4 mb 0.00 in0.0 mm 0.00 in/hr0.0 mm/hr 0.00 in0.0 mm
06:41 PM 60.8°F16.0°C 7.9°F-13.4°C 12% 6.9 mph NE11.1 kmh NE 11.4 mph18.3 kmh 30.34 in1027.4 mb 0.00 in0.0 mm 0.00 in/hr0.0 mm/hr 0.00 in0.0 mm
06:42 PM 60.6°F15.9°C 9.5°F-12.5°C 13% 8.3 mph NE13.4 kmh NE 13.0 mph20.9 kmh 30.34 in1027.4 mb 0.00 in0.0 mm 0.00 in/hr0.0 mm/hr 0.00 in0.0 mm
06:43 PM 60.6°F15.9°C 9.5°F-12.5°C 13% 9.2 mph ENE14.8 kmh ENE 13.6 mph21.9 kmh 30.34 in1027.4 mb 0.00 in0.0 mm 0.00 in/hr0.0 mm/hr 0.00 in0.0 mm
06:44 PM 60.4°F15.8°C 9.4°F-12.6°C 13% 7.6 mph ENE12.2 kmh ENE 13.6 mph21.9 kmh 30.34 in1027.4 mb 0.00 in0.0 mm 0.00 in/hr0.0 mm/hr 0.00 in0.0 mm
06:45 PM 60.6°F15.9°C 9.5°F-12.5°C 13% 4.5 mph ENE7.2 kmh ENE 13.6 mph21.9 kmh 30.34 in1027.4 mb 0.00 in0.0 mm 0.00 in/hr0.0 mm/hr 0.00 in0.0 mm
06:46 PM 60.8°F16.0°C 7.9°F-13.4°C 12% 6.0 mph NE9.7 kmh NE 13.6 mph21.9 kmh 30.34 in1027.4 mb 0.00 in0.0 mm 0.00 in/hr0.0 mm/hr 0.00 in0.0 mm
06:47 PM 60.8°F16.0°C 7.9°F-13.4°C 12% 7.6 mph NE12.2 kmh NE 13.6 mph21.9 kmh 30.34 in1027.4 mb 0.00 in0.0 mm 0.00 in/hr0.0 mm/hr 0.00 in0.0 mm
06:48 PM 60.6°F15.9°C 9.5°F-12.5°C 13% 3.1 mph NE5.0 kmh NE 13.6 mph21.9 kmh 30.34 in1027.4 mb 0.00 in0.0 mm 0.00 in/hr0.0 mm/hr 0.00 in0.0 mm
06:49 PM 60.8°F16.0°C 7.9°F-13.4°C 12% 4.5 mph NE7.2 kmh NE 13.6 mph21.9 kmh 30.34 in1027.4 mb 0.00 in0.0 mm 0.00 in/hr0.0 mm/hr 0.00 in0.0 mm
06:50 PM 60.8°F16.0°C 7.9°F-13.4°C 12% 3.8 mph NE6.1 kmh NE 13.6 mph21.9 kmh 30.34 in1027.4 mb 0.00 in0.0 mm 0.00 in/hr0.0 mm/hr 0.00 in0.0 mm
06:51 PM 60.8°F16.0°C 7.9°F-13.4°C 12% 3.8 mph NE6.1 kmh NE 13.6 mph21.9 kmh 30.34 in1027.4 mb 0.00 in0.0 mm 0.00 in/hr0.0 mm/hr 0.00 in0.0 mm
06:52 PM 60.8°F16.0°C 7.9°F-13.4°C 12% 4.5 mph NE7.2 kmh NE 13.6 mph21.9 kmh 30.34 in1027.4 mb 0.00 in0.0 mm 0.00 in/hr0.0 mm/hr 0.00 in0.0 mm
06:53 PM 60.6°F15.9°C 9.5°F-12.5°C 13% 3.8 mph NE6.1 kmh NE 13.6 mph21.9 kmh 30.34 in1027.4 mb 0.00 in0.0 mm 0.00 in/hr0.0 mm/hr 0.00 in0.0 mm
06:54 PM 60.8°F16.0°C 7.9°F-13.4°C 12% 4.5 mph NE7.2 kmh NE 12.1 mph19.5 kmh 30.34 in1027.4 mb 0.00 in0.0 mm 0.00 in/hr0.0 mm/hr 0.00 in0.0 mm
06:55 PM 60.6°F15.9°C 9.5°F-12.5°C 13% 4.5 mph NE7.2 kmh NE 12.1 mph19.5 kmh 30.34 in1027.4 mb 0.00 in0.0 mm 0.00 in/hr0.0 mm/hr 0.00 in0.0 mm
06:56 PM 60.6°F15.9°C 9.5°F-12.5°C 13% 6.0 mph NE9.7 kmh NE 12.1 mph19.5 kmh 30.34 in1027.4 mb 0.00 in0.0 mm 0.00 in/hr0.0 mm/hr 0.00 in0.0 mm
06:57 PM 60.8°F16.0°C 7.9°F-13.4°C 12% 4.5 mph NE7.2 kmh NE 12.1 mph19.5 kmh 30.34 in1027.4 mb 0.00 in0.0 mm 0.00 in/hr0.0 mm/hr 0.00 in0.0 mm
06:58 PM 60.6°F15.9°C 9.5°F-12.5°C 13% 6.9 mph NE11.1 kmh NE 13.0 mph20.9 kmh 30.34 in1027.4 mb 0.00 in0.0 mm 0.00 in/hr0.0 mm/hr 0.00 in0.0 mm
06:59 PM 60.4°F15.8°C 9.4°F-12.6°C 13% 6.0 mph NE9.7 kmh NE 13.0 mph20.9 kmh 30.34 in1027.4 mb 0.00 in0.0 mm 0.00 in/hr0.0 mm/hr 0.00 in0.0 mm
07:00 PM 60.6°F15.9°C 9.5°F-12.5°C 13% 5.4 mph ENE8.7 kmh ENE 13.0 mph20.9 kmh 30.34 in1027.4 mb 0.00 in0.0 mm 0.00 in/hr0.0 mm/hr 0.00 in0.0 mm
07:01 PM 60.4°F15.8°C 9.4°F-12.6°C 13% 6.9 mph ENE11.1 kmh ENE 13.0 mph20.9 kmh 30.34 in1027.4 mb 0.00 in0.0 mm 0.00 in/hr0.0 mm/hr 0.00 in0.0 mm
07:02 PM 60.3°F15.7°C 9.3°F-12.6°C 13% 4.5 mph ENE7.2 kmh ENE 13.0 mph20.9 kmh 30.34 in1027.4 mb 0.00 in0.0 mm 0.00 in/hr0.0 mm/hr 0.00 in0.0 mm
07:03 PM 60.4°F15.8°C 9.4°F-12.6°C 13% 8.3 mph ENE13.4 kmh ENE 13.6 mph21.9 kmh 30.34 in1027.4 mb 0.00 in0.0 mm 0.00 in/hr0.0 mm/hr 0.00 in0.0 mm
07:04 PM 60.3°F15.7°C 9.3°F-12.6°C 13% 8.3 mph ENE13.4 kmh ENE 13.6 mph21.9 kmh 30.34 in1027.4 mb 0.00 in0.0 mm 0.00 in/hr0.0 mm/hr 0.00 in0.0 mm
07:05 PM 60.3°F15.7°C 9.3°F-12.6°C 13% 6.9 mph ENE11.1 kmh ENE 13.6 mph21.9 kmh 30.34 in1027.4 mb 0.00 in0.0 mm 0.00 in/hr0.0 mm/hr 0.00 in0.0 mm
07:06 PM 60.3°F15.7°C 9.3°F-12.6°C 13% 3.8 mph ENE6.1 kmh ENE 13.6 mph21.9 kmh 30.34 in1027.4 mb 0.00 in0.0 mm 0.00 in/hr0.0 mm/hr 0.00 in0.0 mm
07:07 PM 60.4°F15.8°C 9.4°F-12.6°C 13% 6.0 mph ENE9.7 kmh ENE 13.6 mph21.9 kmh 30.34 in1027.4 mb 0.00 in0.0 mm 0.00 in/hr0.0 mm/hr 0.00 in0.0 mm
07:08 PM 60.3°F15.7°C 9.3°F-12.6°C 13% 6.0 mph ENE9.7 kmh ENE 13.6 mph21.9 kmh 30.34 in1027.4 mb 0.00 in0.0 mm 0.00 in/hr0.0 mm/hr 0.00 in0.0 mm
07:09 PM 60.4°F15.8°C 9.4°F-12.6°C 13% 3.8 mph ENE6.1 kmh ENE 13.6 mph21.9 kmh 30.35 in1027.8 mb 0.00 in0.0 mm 0.00 in/hr0.0 mm/hr 0.00 in0.0 mm
07:10 PM 60.4°F15.8°C 9.4°F-12.6°C 13% 4.5 mph ENE7.2 kmh ENE 13.6 mph21.9 kmh 30.34 in1027.4 mb 0.00 in0.0 mm 0.00 in/hr0.0 mm/hr 0.00 in0.0 mm
07:11 PM 60.1°F15.6°C 9.1°F-12.7°C 13% 4.5 mph ENE7.2 kmh ENE 13.6 mph21.9 kmh 30.35 in1027.8 mb 0.00 in0.0 mm 0.00 in/hr0.0 mm/hr 0.00 in0.0 mm
07:12 PM 60.1°F15.6°C 9.1°F-12.7°C 13% 3.8 mph ENE6.1 kmh ENE 13.6 mph21.9 kmh 30.35 in1027.8 mb 0.00 in0.0 mm 0.00 in/hr0.0 mm/hr 0.00 in0.0 mm
07:13 PM 60.1°F15.6°C 9.1°F-12.7°C 13% 3.1 mph ENE5.0 kmh ENE 13.6 mph21.9 kmh 30.35 in1027.8 mb 0.00 in0.0 mm 0.00 in/hr0.0 mm/hr 0.00 in0.0 mm
07:14 PM 60.1°F15.6°C 9.1°F-12.7°C 13% 4.5 mph ENE7.2 kmh ENE 10.7 mph17.2 kmh 30.35 in1027.8 mb 0.00 in0.0 mm 0.00 in/hr0.0 mm/hr 0.00 in0.0 mm
07:15 PM 59.9°F15.5°C 9.0°F-12.8°C 13% 6.0 mph ENE9.7 kmh ENE 9.2 mph14.8 kmh 30.35 in1027.8 mb 0.00 in0.0 mm 0.00 in/hr0.0 mm/hr 0.00 in0.0 mm
07:16 PM 59.9°F15.5°C 9.0°F-12.8°C 13% 6.0 mph ENE9.7 kmh ENE 9.2 mph14.8 kmh 30.34 in1027.4 mb 0.00 in0.0 mm 0.00 in/hr0.0 mm/hr 0.00 in0.0 mm
07:17 PM 59.9°F15.5°C 9.0°F-12.8°C 13% 3.1 mph ENE5.0 kmh ENE 9.2 mph14.8 kmh 30.35 in1027.8 mb 0.00 in0.0 mm 0.00 in/hr0.0 mm/hr 0.00 in0.0 mm
07:18 PM 59.9°F15.5°C 9.0°F-12.8°C 13% 5.4 mph ENE8.7 kmh ENE 9.2 mph14.8 kmh 30.34 in1027.4 mb 0.00 in0.0 mm 0.00 in/hr0.0 mm/hr 0.00 in0.0 mm
07:19 PM 59.9°F15.5°C 9.0°F-12.8°C 13% 6.0 mph ENE9.7 kmh ENE 9.2 mph14.8 kmh 30.35 in1027.8 mb 0.00 in0.0 mm 0.00 in/hr0.0 mm/hr 0.00 in0.0 mm
07:20 PM 59.9°F15.5°C 9.0°F-12.8°C 13% 2.2 mph ENE3.5 kmh ENE<